<?xml version="1.0" encoding="UTF-8" standalone="no" ?>
<gpx xmlns="http://www.topografix.com/GPX/1/1" xmlns:xsi="http://www.w3.org/2001/XMLSchema-instance" xsi:schemaLocation="http://www.topografix.com/GPX/1/1 http://www.topografix.com/GPX/1/1/gpx.xsd" version="1.1" creator="VisuGPX - https://www.visugpx.com">
  <metadata>
    <name>le chamblage 15 07 2018</name>
    <desc><![CDATA[le chamblage aussi dure dans les deux sens
]]></desc>
  </metadata>
  <trk>
    <name><![CDATA[Tracé actuel: 15 JUIL 2018 07:58]]></name>
    <trkseg>
      <trkpt lat="49.63451" lon="4.98055">
        <ele>186.63</ele>
        <time>2018-07-15T05:58:42Z</time>
      </trkpt>
      <trkpt lat="49.63451" lon="4.98054">
        <ele>186.63</ele>
        <time>2018-07-15T05:58:57Z</time>
      </trkpt>
      <trkpt lat="49.63451" lon="4.98055">
        <ele>187.11</ele>
        <time>2018-07-15T05:59:18Z</time>
      </trkpt>
      <trkpt lat="49.63451" lon="4.98053">
        <ele>187.11</ele>
        <time>2018-07-15T05:59:31Z</time>
      </trkpt>
      <trkpt lat="49.63451" lon="4.98053">
        <ele>187.11</ele>
        <time>2018-07-15T05:59:43Z</time>
      </trkpt>
      <trkpt lat="49.63452" lon="4.98056">
        <ele>188.08</ele>
        <time>2018-07-15T05:59:59Z</time>
      </trkpt>
      <trkpt lat="49.63457" lon="4.98065">
        <ele>187.59</ele>
        <time>2018-07-15T06:00:17Z</time>
      </trkpt>
      <trkpt lat="49.6346" lon="4.98071">
        <ele>188.08</ele>
        <time>2018-07-15T06:00:31Z</time>
      </trkpt>
      <trkpt lat="49.63463" lon="4.98077">
        <ele>189.04</ele>
        <time>2018-07-15T06:00:37Z</time>
      </trkpt>
      <trkpt lat="49.63475" lon="4.98094">
        <ele>190.96</ele>
        <time>2018-07-15T06:00:50Z</time>
      </trkpt>
      <trkpt lat="49.63484" lon="4.98108">
        <ele>188.56</ele>
        <time>2018-07-15T06:01:04Z</time>
      </trkpt>
      <trkpt lat="49.63491" lon="4.98125">
        <ele>187.11</ele>
        <time>2018-07-15T06:01:19Z</time>
      </trkpt>
      <trkpt lat="49.63493" lon="4.98136">
        <ele>186.15</ele>
        <time>2018-07-15T06:01:28Z</time>
      </trkpt>
      <trkpt lat="49.63486" lon="4.98153">
        <ele>187.59</ele>
        <time>2018-07-15T06:01:43Z</time>
      </trkpt>
      <trkpt lat="49.63479" lon="4.98169">
        <ele>190</ele>
        <time>2018-07-15T06:01:55Z</time>
      </trkpt>
      <trkpt lat="49.63475" lon="4.98184">
        <ele>192.4</ele>
        <time>2018-07-15T06:02:07Z</time>
      </trkpt>
      <trkpt lat="49.63474" lon="4.98193">
        <ele>194.32</ele>
        <time>2018-07-15T06:02:19Z</time>
      </trkpt>
      <trkpt lat="49.63471" lon="4.98201">
        <ele>195.28</ele>
        <time>2018-07-15T06:02:30Z</time>
      </trkpt>
      <trkpt lat="49.63466" lon="4.98215">
        <ele>198.17</ele>
        <time>2018-07-15T06:02:42Z</time>
      </trkpt>
      <trkpt lat="49.63459" lon="4.98228">
        <ele>198.65</ele>
        <time>2018-07-15T06:02:53Z</time>
      </trkpt>
      <trkpt lat="49.63453" lon="4.98239">
        <ele>197.69</ele>
        <time>2018-07-15T06:03:08Z</time>
      </trkpt>
      <trkpt lat="49.63446" lon="4.98249">
        <ele>195.77</ele>
        <time>2018-07-15T06:03:22Z</time>
      </trkpt>
      <trkpt lat="49.63441" lon="4.98257">
        <ele>195.77</ele>
        <time>2018-07-15T06:03:28Z</time>
      </trkpt>
      <trkpt lat="49.6343" lon="4.98269">
        <ele>193.84</ele>
        <time>2018-07-15T06:03:41Z</time>
      </trkpt>
      <trkpt lat="49.63419" lon="4.98283">
        <ele>194.8</ele>
        <time>2018-07-15T06:03:54Z</time>
      </trkpt>
      <trkpt lat="49.6341" lon="4.98297">
        <ele>195.28</ele>
        <time>2018-07-15T06:04:06Z</time>
      </trkpt>
      <trkpt lat="49.63409" lon="4.98298">
        <ele>195.77</ele>
        <time>2018-07-15T06:04:07Z</time>
      </trkpt>
      <trkpt lat="49.63397" lon="4.9831">
        <ele>197.69</ele>
        <time>2018-07-15T06:04:20Z</time>
      </trkpt>
      <trkpt lat="49.63387" lon="4.98321">
        <ele>198.17</ele>
        <time>2018-07-15T06:04:31Z</time>
      </trkpt>
      <trkpt lat="49.63376" lon="4.98329">
        <ele>198.65</ele>
        <time>2018-07-15T06:04:44Z</time>
      </trkpt>
      <trkpt lat="49.63366" lon="4.98336">
        <ele>200.57</ele>
        <time>2018-07-15T06:04:55Z</time>
      </trkpt>
      <trkpt lat="49.63358" lon="4.98341">
        <ele>202.49</ele>
        <time>2018-07-15T06:05:05Z</time>
      </trkpt>
      <trkpt lat="49.63347" lon="4.98346">
        <ele>204.9</ele>
        <time>2018-07-15T06:05:17Z</time>
      </trkpt>
      <trkpt lat="49.63335" lon="4.98349">
        <ele>206.34</ele>
        <time>2018-07-15T06:05:28Z</time>
      </trkpt>
      <trkpt lat="49.63334" lon="4.9835">
        <ele>206.34</ele>
        <time>2018-07-15T06:05:29Z</time>
      </trkpt>
      <trkpt lat="49.63325" lon="4.9835">
        <ele>206.34</ele>
        <time>2018-07-15T06:05:37Z</time>
      </trkpt>
      <trkpt lat="49.63311" lon="4.98346">
        <ele>206.82</ele>
        <time>2018-07-15T06:05:49Z</time>
      </trkpt>
      <trkpt lat="49.63299" lon="4.98345">
        <ele>209.22</ele>
        <time>2018-07-15T06:06:00Z</time>
      </trkpt>
      <trkpt lat="49.63287" lon="4.98345">
        <ele>212.11</ele>
        <time>2018-07-15T06:06:12Z</time>
      </trkpt>
      <trkpt lat="49.63277" lon="4.98343">
        <ele>212.59</ele>
        <time>2018-07-15T06:06:24Z</time>
      </trkpt>
      <trkpt lat="49.63265" lon="4.98344">
        <ele>211.15</ele>
        <time>2018-07-15T06:06:35Z</time>
      </trkpt>
      <trkpt lat="49.6325" lon="4.98343">
        <ele>212.11</ele>
        <time>2018-07-15T06:06:48Z</time>
      </trkpt>
      <trkpt lat="49.63246" lon="4.98343">
        <ele>212.59</ele>
        <time>2018-07-15T06:07:03Z</time>
      </trkpt>
      <trkpt lat="49.63236" lon="4.98342">
        <ele>213.55</ele>
        <time>2018-07-15T06:07:19Z</time>
      </trkpt>
      <trkpt lat="49.63229" lon="4.98338">
        <ele>214.03</ele>
        <time>2018-07-15T06:07:34Z</time>
      </trkpt>
      <trkpt lat="49.63223" lon="4.98337">
        <ele>214.51</ele>
        <time>2018-07-15T06:07:45Z</time>
      </trkpt>
      <trkpt lat="49.63219" lon="4.98337">
        <ele>214.99</ele>
        <time>2018-07-15T06:07:52Z</time>
      </trkpt>
      <trkpt lat="49.63214" lon="4.98338">
        <ele>215.47</ele>
        <time>2018-07-15T06:08:05Z</time>
      </trkpt>
      <trkpt lat="49.63207" lon="4.98338">
        <ele>215.95</ele>
        <time>2018-07-15T06:08:16Z</time>
      </trkpt>
      <trkpt lat="49.63206" lon="4.98338">
        <ele>216.43</ele>
        <time>2018-07-15T06:08:19Z</time>
      </trkpt>
      <trkpt lat="49.63189" lon="4.98334">
        <ele>215.47</ele>
        <time>2018-07-15T06:08:32Z</time>
      </trkpt>
      <trkpt lat="49.63179" lon="4.98332">
        <ele>215.47</ele>
        <time>2018-07-15T06:08:42Z</time>
      </trkpt>
      <trkpt lat="49.63178" lon="4.98333">
        <ele>215.47</ele>
        <time>2018-07-15T06:08:44Z</time>
      </trkpt>
      <trkpt lat="49.63165" lon="4.98328">
        <ele>216.43</ele>
        <time>2018-07-15T06:08:55Z</time>
      </trkpt>
      <trkpt lat="49.63151" lon="4.98325">
        <ele>218.36</ele>
        <time>2018-07-15T06:09:08Z</time>
      </trkpt>
      <trkpt lat="49.63135" lon="4.98326">
        <ele>218.84</ele>
        <time>2018-07-15T06:09:22Z</time>
      </trkpt>
      <trkpt lat="49.63132" lon="4.98327">
        <ele>218.84</ele>
        <time>2018-07-15T06:09:25Z</time>
      </trkpt>
      <trkpt lat="49.63116" lon="4.98326">
        <ele>219.32</ele>
        <time>2018-07-15T06:09:39Z</time>
      </trkpt>
      <trkpt lat="49.63105" lon="4.98325">
        <ele>220.28</ele>
        <time>2018-07-15T06:09:50Z</time>
      </trkpt>
      <trkpt lat="49.63089" lon="4.98321">
        <ele>221.24</ele>
        <time>2018-07-15T06:10:03Z</time>
      </trkpt>
      <trkpt lat="49.63076" lon="4.98321">
        <ele>220.28</ele>
        <time>2018-07-15T06:10:14Z</time>
      </trkpt>
      <trkpt lat="49.63066" lon="4.9832">
        <ele>220.28</ele>
        <time>2018-07-15T06:10:25Z</time>
      </trkpt>
      <trkpt lat="49.63063" lon="4.9832">
        <ele>219.8</ele>
        <time>2018-07-15T06:10:29Z</time>
      </trkpt>
      <trkpt lat="49.63058" lon="4.9832">
        <ele>219.8</ele>
        <time>2018-07-15T06:10:33Z</time>
      </trkpt>
      <trkpt lat="49.63042" lon="4.98318">
        <ele>221.72</ele>
        <time>2018-07-15T06:10:46Z</time>
      </trkpt>
      <trkpt lat="49.63036" lon="4.98317">
        <ele>222.2</ele>
        <time>2018-07-15T06:10:58Z</time>
      </trkpt>
      <trkpt lat="49.63025" lon="4.98317">
        <ele>222.2</ele>
        <time>2018-07-15T06:11:09Z</time>
      </trkpt>
      <trkpt lat="49.6301" lon="4.98319">
        <ele>224.61</ele>
        <time>2018-07-15T06:11:20Z</time>
      </trkpt>
      <trkpt lat="49.63" lon="4.98319">
        <ele>226.53</ele>
        <time>2018-07-15T06:11:31Z</time>
      </trkpt>
      <trkpt lat="49.62986" lon="4.98317">
        <ele>226.53</ele>
        <time>2018-07-15T06:11:44Z</time>
      </trkpt>
      <trkpt lat="49.62985" lon="4.98316">
        <ele>226.05</ele>
        <time>2018-07-15T06:11:45Z</time>
      </trkpt>
      <trkpt lat="49.62979" lon="4.98315">
        <ele>226.05</ele>
        <time>2018-07-15T06:11:50Z</time>
      </trkpt>
      <trkpt lat="49.62965" lon="4.98313">
        <ele>225.57</ele>
        <time>2018-07-15T06:12:03Z</time>
      </trkpt>
      <trkpt lat="49.62957" lon="4.98311">
        <ele>226.53</ele>
        <time>2018-07-15T06:12:11Z</time>
      </trkpt>
      <trkpt lat="49.62941" lon="4.98312">
        <ele>228.45</ele>
        <time>2018-07-15T06:12:24Z</time>
      </trkpt>
      <trkpt lat="49.62928" lon="4.98318">
        <ele>230.85</ele>
        <time>2018-07-15T06:12:36Z</time>
      </trkpt>
      <trkpt lat="49.62917" lon="4.98324">
        <ele>230.37</ele>
        <time>2018-07-15T06:12:48Z</time>
      </trkpt>
      <trkpt lat="49.62907" lon="4.98327">
        <ele>230.85</ele>
        <time>2018-07-15T06:12:57Z</time>
      </trkpt>
      <trkpt lat="49.62895" lon="4.98332">
        <ele>229.89</ele>
        <time>2018-07-15T06:13:10Z</time>
      </trkpt>
      <trkpt lat="49.62882" lon="4.98337">
        <ele>228.45</ele>
        <time>2018-07-15T06:13:22Z</time>
      </trkpt>
      <trkpt lat="49.62869" lon="4.98341">
        <ele>227.49</ele>
        <time>2018-07-15T06:13:34Z</time>
      </trkpt>
      <trkpt lat="49.62858" lon="4.98343">
        <ele>227.49</ele>
        <time>2018-07-15T06:13:45Z</time>
      </trkpt>
      <trkpt lat="49.62842" lon="4.9835">
        <ele>227.01</ele>
        <time>2018-07-15T06:14:01Z</time>
      </trkpt>
      <trkpt lat="49.62828" lon="4.98359">
        <ele>230.37</ele>
        <time>2018-07-15T06:14:15Z</time>
      </trkpt>
      <trkpt lat="49.62825" lon="4.98365">
        <ele>237.58</ele>
        <time>2018-07-15T06:14:32Z</time>
      </trkpt>
      <trkpt lat="49.6282" lon="4.98369">
        <ele>239.02</ele>
        <time>2018-07-15T06:14:47Z</time>
      </trkpt>
      <trkpt lat="49.62804" lon="4.9838">
        <ele>240.47</ele>
        <time>2018-07-15T06:14:59Z</time>
      </trkpt>
      <trkpt lat="49.62789" lon="4.98391">
        <ele>242.39</ele>
        <time>2018-07-15T06:15:15Z</time>
      </trkpt>
      <trkpt lat="49.62775" lon="4.98403">
        <ele>243.35</ele>
        <time>2018-07-15T06:15:29Z</time>
      </trkpt>
      <trkpt lat="49.62759" lon="4.98415">
        <ele>244.79</ele>
        <time>2018-07-15T06:15:45Z</time>
      </trkpt>
      <trkpt lat="49.62745" lon="4.98426">
        <ele>247.2</ele>
        <time>2018-07-15T06:15:59Z</time>
      </trkpt>
      <trkpt lat="49.62734" lon="4.98436">
        <ele>249.12</ele>
        <time>2018-07-15T06:16:12Z</time>
      </trkpt>
      <trkpt lat="49.62721" lon="4.98446">
        <ele>248.64</ele>
        <time>2018-07-15T06:16:25Z</time>
      </trkpt>
      <trkpt lat="49.62711" lon="4.98456">
        <ele>249.12</ele>
        <time>2018-07-15T06:16:36Z</time>
      </trkpt>
      <trkpt lat="49.62697" lon="4.98467">
        <ele>249.12</ele>
        <time>2018-07-15T06:16:49Z</time>
      </trkpt>
      <trkpt lat="49.6269" lon="4.98473">
        <ele>250.56</ele>
        <time>2018-07-15T06:17:01Z</time>
      </trkpt>
      <trkpt lat="49.62683" lon="4.98481">
        <ele>254.89</ele>
        <time>2018-07-15T06:17:19Z</time>
      </trkpt>
      <trkpt lat="49.62682" lon="4.98483">
        <ele>255.37</ele>
        <time>2018-07-15T06:17:36Z</time>
      </trkpt>
      <trkpt lat="49.62668" lon="4.98494">
        <ele>255.37</ele>
        <time>2018-07-15T06:17:51Z</time>
      </trkpt>
      <trkpt lat="49.62656" lon="4.98503">
        <ele>256.33</ele>
        <time>2018-07-15T06:18:03Z</time>
      </trkpt>
      <trkpt lat="49.6264" lon="4.98515">
        <ele>254.89</ele>
        <time>2018-07-15T06:18:20Z</time>
      </trkpt>
      <trkpt lat="49.62638" lon="4.98516">
        <ele>254.89</ele>
        <time>2018-07-15T06:18:22Z</time>
      </trkpt>
      <trkpt lat="49.62622" lon="4.98531">
        <ele>254.89</ele>
        <time>2018-07-15T06:18:39Z</time>
      </trkpt>
      <trkpt lat="49.62615" lon="4.98537">
        <ele>256.81</ele>
        <time>2018-07-15T06:18:50Z</time>
      </trkpt>
      <trkpt lat="49.62606" lon="4.98545">
        <ele>259.21</ele>
        <time>2018-07-15T06:19:04Z</time>
      </trkpt>
      <trkpt lat="49.6259" lon="4.98559">
        <ele>260.65</ele>
        <time>2018-07-15T06:19:20Z</time>
      </trkpt>
      <trkpt lat="49.62574" lon="4.98573">
        <ele>261.14</ele>
        <time>2018-07-15T06:19:37Z</time>
      </trkpt>
      <trkpt lat="49.62554" lon="4.98582">
        <ele>259.69</ele>
        <time>2018-07-15T06:19:51Z</time>
      </trkpt>
      <trkpt lat="49.62553" lon="4.98582">
        <ele>260.17</ele>
        <time>2018-07-15T06:20:04Z</time>
      </trkpt>
      <trkpt lat="49.62552" lon="4.9858">
        <ele>259.69</ele>
        <time>2018-07-15T06:20:20Z</time>
      </trkpt>
      <trkpt lat="49.62553" lon="4.98578">
        <ele>258.73</ele>
        <time>2018-07-15T06:20:25Z</time>
      </trkpt>
      <trkpt lat="49.62553" lon="4.98573">
        <ele>258.25</ele>
        <time>2018-07-15T06:20:28Z</time>
      </trkpt>
      <trkpt lat="49.62548" lon="4.98564">
        <ele>258.25</ele>
        <time>2018-07-15T06:20:37Z</time>
      </trkpt>
      <trkpt lat="49.62537" lon="4.98563">
        <ele>258.25</ele>
        <time>2018-07-15T06:20:51Z</time>
      </trkpt>
      <trkpt lat="49.62527" lon="4.98565">
        <ele>257.77</ele>
        <time>2018-07-15T06:21:04Z</time>
      </trkpt>
      <trkpt lat="49.62517" lon="4.98563">
        <ele>256.33</ele>
        <time>2018-07-15T06:21:17Z</time>
      </trkpt>
      <trkpt lat="49.62502" lon="4.98557">
        <ele>256.33</ele>
        <time>2018-07-15T06:21:31Z</time>
      </trkpt>
      <trkpt lat="49.62494" lon="4.98552">
        <ele>257.77</ele>
        <time>2018-07-15T06:21:45Z</time>
      </trkpt>
      <trkpt lat="49.62485" lon="4.98544">
        <ele>258.25</ele>
        <time>2018-07-15T06:21:58Z</time>
      </trkpt>
      <trkpt lat="49.62474" lon="4.98536">
        <ele>257.77</ele>
        <time>2018-07-15T06:22:14Z</time>
      </trkpt>
      <trkpt lat="49.62469" lon="4.98532">
        <ele>258.25</ele>
        <time>2018-07-15T06:22:27Z</time>
      </trkpt>
      <trkpt lat="49.62454" lon="4.9852">
        <ele>261.14</ele>
        <time>2018-07-15T06:22:42Z</time>
      </trkpt>
      <trkpt lat="49.62447" lon="4.98515">
        <ele>261.14</ele>
        <time>2018-07-15T06:22:51Z</time>
      </trkpt>
      <trkpt lat="49.62435" lon="4.98505">
        <ele>259.69</ele>
        <time>2018-07-15T06:23:07Z</time>
      </trkpt>
      <trkpt lat="49.6242" lon="4.98495">
        <ele>261.62</ele>
        <time>2018-07-15T06:23:21Z</time>
      </trkpt>
      <trkpt lat="49.62413" lon="4.9849">
        <ele>261.14</ele>
        <time>2018-07-15T06:23:35Z</time>
      </trkpt>
      <trkpt lat="49.62406" lon="4.98484">
        <ele>261.14</ele>
        <time>2018-07-15T06:23:46Z</time>
      </trkpt>
      <trkpt lat="49.62395" lon="4.98476">
        <ele>262.58</ele>
        <time>2018-07-15T06:23:58Z</time>
      </trkpt>
      <trkpt lat="49.62377" lon="4.98465">
        <ele>263.06</ele>
        <time>2018-07-15T06:24:12Z</time>
      </trkpt>
      <trkpt lat="49.62376" lon="4.98466">
        <ele>261.62</ele>
        <time>2018-07-15T06:24:29Z</time>
      </trkpt>
      <trkpt lat="49.62371" lon="4.98464">
        <ele>261.14</ele>
        <time>2018-07-15T06:24:41Z</time>
      </trkpt>
      <trkpt lat="49.62357" lon="4.98456">
        <ele>261.14</ele>
        <time>2018-07-15T06:24:53Z</time>
      </trkpt>
      <trkpt lat="49.62356" lon="4.98455">
        <ele>261.14</ele>
        <time>2018-07-15T06:25:07Z</time>
      </trkpt>
      <trkpt lat="49.62348" lon="4.98449">
        <ele>262.1</ele>
        <time>2018-07-15T06:25:18Z</time>
      </trkpt>
      <trkpt lat="49.62333" lon="4.98436">
        <ele>264.5</ele>
        <time>2018-07-15T06:25:32Z</time>
      </trkpt>
      <trkpt lat="49.6233" lon="4.98433">
        <ele>264.98</ele>
        <time>2018-07-15T06:25:37Z</time>
      </trkpt>
      <trkpt lat="49.62322" lon="4.98423">
        <ele>266.42</ele>
        <time>2018-07-15T06:25:44Z</time>
      </trkpt>
      <trkpt lat="49.62309" lon="4.98409">
        <ele>269.31</ele>
        <time>2018-07-15T06:26:00Z</time>
      </trkpt>
      <trkpt lat="49.62297" lon="4.98391">
        <ele>273.15</ele>
        <time>2018-07-15T06:26:11Z</time>
      </trkpt>
      <trkpt lat="49.6229" lon="4.98381">
        <ele>275.56</ele>
        <time>2018-07-15T06:26:24Z</time>
      </trkpt>
      <trkpt lat="49.62288" lon="4.98376">
        <ele>272.19</ele>
        <time>2018-07-15T06:26:47Z</time>
      </trkpt>
      <trkpt lat="49.62288" lon="4.98375">
        <ele>272.67</ele>
        <time>2018-07-15T06:27:08Z</time>
      </trkpt>
      <trkpt lat="49.62288" lon="4.98375">
        <ele>272.19</ele>
        <time>2018-07-15T06:27:14Z</time>
      </trkpt>
      <trkpt lat="49.62284" lon="4.98368">
        <ele>272.19</ele>
        <time>2018-07-15T06:27:22Z</time>
      </trkpt>
      <trkpt lat="49.62278" lon="4.98355">
        <ele>273.15</ele>
        <time>2018-07-15T06:27:34Z</time>
      </trkpt>
      <trkpt lat="49.62276" lon="4.98349">
        <ele>274.11</ele>
        <time>2018-07-15T06:27:38Z</time>
      </trkpt>
      <trkpt lat="49.6227" lon="4.98338">
        <ele>274.59</ele>
        <time>2018-07-15T06:27:48Z</time>
      </trkpt>
      <trkpt lat="49.62256" lon="4.98323">
        <ele>274.11</ele>
        <time>2018-07-15T06:28:02Z</time>
      </trkpt>
      <trkpt lat="49.62241" lon="4.98309">
        <ele>273.63</ele>
        <time>2018-07-15T06:28:17Z</time>
      </trkpt>
      <trkpt lat="49.62225" lon="4.983">
        <ele>275.07</ele>
        <time>2018-07-15T06:28:35Z</time>
      </trkpt>
      <trkpt lat="49.62202" lon="4.9829">
        <ele>275.07</ele>
        <time>2018-07-15T06:28:53Z</time>
      </trkpt>
      <trkpt lat="49.62201" lon="4.9829">
        <ele>275.07</ele>
        <time>2018-07-15T06:28:54Z</time>
      </trkpt>
      <trkpt lat="49.6219" lon="4.98286">
        <ele>276.52</ele>
        <time>2018-07-15T06:29:07Z</time>
      </trkpt>
      <trkpt lat="49.62173" lon="4.98287">
        <ele>276.52</ele>
        <time>2018-07-15T06:29:24Z</time>
      </trkpt>
      <trkpt lat="49.62169" lon="4.98285">
        <ele>277</ele>
        <time>2018-07-15T06:29:42Z</time>
      </trkpt>
      <trkpt lat="49.62159" lon="4.98281">
        <ele>277</ele>
        <time>2018-07-15T06:29:59Z</time>
      </trkpt>
      <trkpt lat="49.6215" lon="4.98278">
        <ele>279.88</ele>
        <time>2018-07-15T06:30:12Z</time>
      </trkpt>
      <trkpt lat="49.62146" lon="4.98277">
        <ele>281.8</ele>
        <time>2018-07-15T06:30:27Z</time>
      </trkpt>
      <trkpt lat="49.62135" lon="4.98271">
        <ele>282.28</ele>
        <time>2018-07-15T06:30:42Z</time>
      </trkpt>
      <trkpt lat="49.62115" lon="4.98255">
        <ele>281.8</ele>
        <time>2018-07-15T06:30:59Z</time>
      </trkpt>
      <trkpt lat="49.62096" lon="4.98237">
        <ele>280.84</ele>
        <time>2018-07-15T06:31:15Z</time>
      </trkpt>
      <trkpt lat="49.62078" lon="4.98226">
        <ele>277.96</ele>
        <time>2018-07-15T06:31:30Z</time>
      </trkpt>
      <trkpt lat="49.62064" lon="4.9822">
        <ele>278.44</ele>
        <time>2018-07-15T06:31:43Z</time>
      </trkpt>
      <trkpt lat="49.62052" lon="4.98212">
        <ele>276.04</ele>
        <time>2018-07-15T06:31:56Z</time>
      </trkpt>
      <trkpt lat="49.62037" lon="4.98201">
        <ele>274.59</ele>
        <time>2018-07-15T06:32:10Z</time>
      </trkpt>
      <trkpt lat="49.62025" lon="4.98194">
        <ele>276.04</ele>
        <time>2018-07-15T06:32:23Z</time>
      </trkpt>
      <trkpt lat="49.62011" lon="4.98186">
        <ele>278.44</ele>
        <time>2018-07-15T06:32:36Z</time>
      </trkpt>
      <trkpt lat="49.61995" lon="4.9818">
        <ele>278.92</ele>
        <time>2018-07-15T06:32:49Z</time>
      </trkpt>
      <trkpt lat="49.61981" lon="4.98171">
        <ele>280.36</ele>
        <time>2018-07-15T06:33:03Z</time>
      </trkpt>
      <trkpt lat="49.61967" lon="4.98166">
        <ele>282.28</ele>
        <time>2018-07-15T06:33:16Z</time>
      </trkpt>
      <trkpt lat="49.6196" lon="4.98165">
        <ele>283.73</ele>
        <time>2018-07-15T06:33:31Z</time>
      </trkpt>
      <trkpt lat="49.61951" lon="4.98162">
        <ele>285.65</ele>
        <time>2018-07-15T06:33:41Z</time>
      </trkpt>
      <trkpt lat="49.61935" lon="4.98157">
        <ele>285.17</ele>
        <time>2018-07-15T06:33:57Z</time>
      </trkpt>
      <trkpt lat="49.61921" lon="4.98152">
        <ele>287.57</ele>
        <time>2018-07-15T06:34:10Z</time>
      </trkpt>
      <trkpt lat="49.61917" lon="4.98149">
        <ele>289.97</ele>
        <time>2018-07-15T06:34:25Z</time>
      </trkpt>
      <trkpt lat="49.61908" lon="4.98144">
        <ele>291.9</ele>
        <time>2018-07-15T06:34:40Z</time>
      </trkpt>
      <trkpt lat="49.61901" lon="4.98145">
        <ele>292.86</ele>
        <time>2018-07-15T06:34:46Z</time>
      </trkpt>
      <trkpt lat="49.61879" lon="4.98148">
        <ele>296.22</ele>
        <time>2018-07-15T06:35:02Z</time>
      </trkpt>
      <trkpt lat="49.61863" lon="4.98157">
        <ele>298.63</ele>
        <time>2018-07-15T06:35:19Z</time>
      </trkpt>
      <trkpt lat="49.61861" lon="4.98158">
        <ele>298.15</ele>
        <time>2018-07-15T06:35:21Z</time>
      </trkpt>
      <trkpt lat="49.61848" lon="4.98166">
        <ele>298.15</ele>
        <time>2018-07-15T06:35:37Z</time>
      </trkpt>
      <trkpt lat="49.61839" lon="4.9817">
        <ele>295.74</ele>
        <time>2018-07-15T06:35:52Z</time>
      </trkpt>
      <trkpt lat="49.61827" lon="4.98177">
        <ele>295.26</ele>
        <time>2018-07-15T06:36:00Z</time>
      </trkpt>
      <trkpt lat="49.61819" lon="4.98191">
        <ele>294.78</ele>
        <time>2018-07-15T06:36:11Z</time>
      </trkpt>
      <trkpt lat="49.61812" lon="4.98216">
        <ele>296.22</ele>
        <time>2018-07-15T06:36:21Z</time>
      </trkpt>
      <trkpt lat="49.61809" lon="4.98223">
        <ele>296.22</ele>
        <time>2018-07-15T06:36:25Z</time>
      </trkpt>
      <trkpt lat="49.61809" lon="4.98226">
        <ele>296.22</ele>
        <time>2018-07-15T06:36:27Z</time>
      </trkpt>
      <trkpt lat="49.61806" lon="4.98243">
        <ele>297.18</ele>
        <time>2018-07-15T06:36:42Z</time>
      </trkpt>
      <trkpt lat="49.61806" lon="4.98251">
        <ele>297.67</ele>
        <time>2018-07-15T06:36:57Z</time>
      </trkpt>
      <trkpt lat="49.61805" lon="4.98259">
        <ele>296.7</ele>
        <time>2018-07-15T06:37:11Z</time>
      </trkpt>
      <trkpt lat="49.61804" lon="4.98281">
        <ele>296.22</ele>
        <time>2018-07-15T06:37:24Z</time>
      </trkpt>
      <trkpt lat="49.61801" lon="4.98297">
        <ele>297.18</ele>
        <time>2018-07-15T06:37:34Z</time>
      </trkpt>
      <trkpt lat="49.61796" lon="4.98316">
        <ele>302.47</ele>
        <time>2018-07-15T06:37:48Z</time>
      </trkpt>
      <trkpt lat="49.61794" lon="4.98321">
        <ele>303.91</ele>
        <time>2018-07-15T06:37:51Z</time>
      </trkpt>
      <trkpt lat="49.61789" lon="4.98337">
        <ele>304.88</ele>
        <time>2018-07-15T06:38:00Z</time>
      </trkpt>
      <trkpt lat="49.61784" lon="4.9835">
        <ele>305.84</ele>
        <time>2018-07-15T06:38:08Z</time>
      </trkpt>
      <trkpt lat="49.61782" lon="4.98376">
        <ele>302.47</ele>
        <time>2018-07-15T06:38:22Z</time>
      </trkpt>
      <trkpt lat="49.6178" lon="4.98389">
        <ele>301.51</ele>
        <time>2018-07-15T06:38:36Z</time>
      </trkpt>
      <trkpt lat="49.61773" lon="4.9841">
        <ele>301.03</ele>
        <time>2018-07-15T06:38:49Z</time>
      </trkpt>
      <trkpt lat="49.61767" lon="4.98437">
        <ele>301.99</ele>
        <time>2018-07-15T06:39:05Z</time>
      </trkpt>
      <trkpt lat="49.61766" lon="4.98439">
        <ele>301.99</ele>
        <time>2018-07-15T06:39:06Z</time>
      </trkpt>
      <trkpt lat="49.6176" lon="4.98467">
        <ele>302.47</ele>
        <time>2018-07-15T06:39:22Z</time>
      </trkpt>
      <trkpt lat="49.61754" lon="4.98489">
        <ele>300.55</ele>
        <time>2018-07-15T06:39:37Z</time>
      </trkpt>
      <trkpt lat="49.61747" lon="4.98511">
        <ele>302.47</ele>
        <time>2018-07-15T06:39:51Z</time>
      </trkpt>
      <trkpt lat="49.61741" lon="4.98535">
        <ele>304.39</ele>
        <time>2018-07-15T06:40:05Z</time>
      </trkpt>
      <trkpt lat="49.61737" lon="4.98556">
        <ele>304.39</ele>
        <time>2018-07-15T06:40:17Z</time>
      </trkpt>
      <trkpt lat="49.61736" lon="4.98573">
        <ele>304.39</ele>
        <time>2018-07-15T06:40:28Z</time>
      </trkpt>
      <trkpt lat="49.61732" lon="4.986">
        <ele>303.91</ele>
        <time>2018-07-15T06:40:41Z</time>
      </trkpt>
      <trkpt lat="49.61725" lon="4.98633">
        <ele>304.39</ele>
        <time>2018-07-15T06:40:56Z</time>
      </trkpt>
      <trkpt lat="49.61725" lon="4.98652">
        <ele>303.43</ele>
        <time>2018-07-15T06:41:12Z</time>
      </trkpt>
      <trkpt lat="49.61725" lon="4.98657">
        <ele>301.99</ele>
        <time>2018-07-15T06:41:32Z</time>
      </trkpt>
      <trkpt lat="49.61717" lon="4.98673">
        <ele>302.47</ele>
        <time>2018-07-15T06:41:45Z</time>
      </trkpt>
      <trkpt lat="49.61715" lon="4.98679">
        <ele>302.47</ele>
        <time>2018-07-15T06:41:49Z</time>
      </trkpt>
      <trkpt lat="49.61705" lon="4.98705">
        <ele>301.51</ele>
        <time>2018-07-15T06:42:05Z</time>
      </trkpt>
      <trkpt lat="49.61698" lon="4.98719">
        <ele>303.43</ele>
        <time>2018-07-15T06:42:18Z</time>
      </trkpt>
      <trkpt lat="49.61696" lon="4.98733">
        <ele>301.03</ele>
        <time>2018-07-15T06:42:32Z</time>
      </trkpt>
      <trkpt lat="49.61688" lon="4.98748">
        <ele>301.99</ele>
        <time>2018-07-15T06:42:43Z</time>
      </trkpt>
      <trkpt lat="49.61677" lon="4.98763">
        <ele>301.99</ele>
        <time>2018-07-15T06:42:59Z</time>
      </trkpt>
      <trkpt lat="49.61675" lon="4.98766">
        <ele>301.99</ele>
        <time>2018-07-15T06:43:01Z</time>
      </trkpt>
      <trkpt lat="49.61663" lon="4.9879">
        <ele>301.03</ele>
        <time>2018-07-15T06:43:17Z</time>
      </trkpt>
      <trkpt lat="49.61655" lon="4.98806">
        <ele>301.51</ele>
        <time>2018-07-15T06:43:28Z</time>
      </trkpt>
      <trkpt lat="49.61646" lon="4.98829">
        <ele>305.84</ele>
        <time>2018-07-15T06:43:45Z</time>
      </trkpt>
      <trkpt lat="49.61635" lon="4.98851">
        <ele>305.84</ele>
        <time>2018-07-15T06:43:58Z</time>
      </trkpt>
      <trkpt lat="49.61634" lon="4.98857">
        <ele>306.32</ele>
        <time>2018-07-15T06:44:12Z</time>
      </trkpt>
      <trkpt lat="49.61632" lon="4.98861">
        <ele>308.24</ele>
        <time>2018-07-15T06:44:35Z</time>
      </trkpt>
      <trkpt lat="49.61632" lon="4.98863">
        <ele>311.12</ele>
        <time>2018-07-15T06:44:57Z</time>
      </trkpt>
      <trkpt lat="49.61632" lon="4.98863">
        <ele>311.12</ele>
        <time>2018-07-15T06:45:08Z</time>
      </trkpt>
      <trkpt lat="49.61627" lon="4.98878">
        <ele>311.6</ele>
        <time>2018-07-15T06:45:23Z</time>
      </trkpt>
      <trkpt lat="49.61624" lon="4.98882">
        <ele>311.6</ele>
        <time>2018-07-15T06:45:27Z</time>
      </trkpt>
      <trkpt lat="49.61614" lon="4.989">
        <ele>312.57</ele>
        <time>2018-07-15T06:45:41Z</time>
      </trkpt>
      <trkpt lat="49.61613" lon="4.98906">
        <ele>313.53</ele>
        <time>2018-07-15T06:46:06Z</time>
      </trkpt>
      <trkpt lat="49.61608" lon="4.98925">
        <ele>314.01</ele>
        <time>2018-07-15T06:46:22Z</time>
      </trkpt>
      <trkpt lat="49.61601" lon="4.98948">
        <ele>314.01</ele>
        <time>2018-07-15T06:46:37Z</time>
      </trkpt>
      <trkpt lat="49.6159" lon="4.9897">
        <ele>313.05</ele>
        <time>2018-07-15T06:46:51Z</time>
      </trkpt>
      <trkpt lat="49.61581" lon="4.98993">
        <ele>312.57</ele>
        <time>2018-07-15T06:47:08Z</time>
      </trkpt>
      <trkpt lat="49.61569" lon="4.9902">
        <ele>313.53</ele>
        <time>2018-07-15T06:47:25Z</time>
      </trkpt>
      <trkpt lat="49.61563" lon="4.99029">
        <ele>314.49</ele>
        <time>2018-07-15T06:47:40Z</time>
      </trkpt>
      <trkpt lat="49.6156" lon="4.99038">
        <ele>315.45</ele>
        <time>2018-07-15T06:47:56Z</time>
      </trkpt>
      <trkpt lat="49.61556" lon="4.99052">
        <ele>316.41</ele>
        <time>2018-07-15T06:48:11Z</time>
      </trkpt>
      <trkpt lat="49.61549" lon="4.99071">
        <ele>317.85</ele>
        <time>2018-07-15T06:48:24Z</time>
      </trkpt>
      <trkpt lat="49.61544" lon="4.99089">
        <ele>318.33</ele>
        <time>2018-07-15T06:48:38Z</time>
      </trkpt>
      <trkpt lat="49.61543" lon="4.99091">
        <ele>318.33</ele>
        <time>2018-07-15T06:48:40Z</time>
      </trkpt>
      <trkpt lat="49.61536" lon="4.99106">
        <ele>320.26</ele>
        <time>2018-07-15T06:48:52Z</time>
      </trkpt>
      <trkpt lat="49.61529" lon="4.9913">
        <ele>318.81</ele>
        <time>2018-07-15T06:49:05Z</time>
      </trkpt>
      <trkpt lat="49.61522" lon="4.99147">
        <ele>315.45</ele>
        <time>2018-07-15T06:49:22Z</time>
      </trkpt>
      <trkpt lat="49.61521" lon="4.99151">
        <ele>315.45</ele>
        <time>2018-07-15T06:49:24Z</time>
      </trkpt>
      <trkpt lat="49.61516" lon="4.99162">
        <ele>316.89</ele>
        <time>2018-07-15T06:49:35Z</time>
      </trkpt>
      <trkpt lat="49.61508" lon="4.9918">
        <ele>317.85</ele>
        <time>2018-07-15T06:49:50Z</time>
      </trkpt>
      <trkpt lat="49.61497" lon="4.99191">
        <ele>314.97</ele>
        <time>2018-07-15T06:50:07Z</time>
      </trkpt>
      <trkpt lat="49.61491" lon="4.99196">
        <ele>311.6</ele>
        <time>2018-07-15T06:50:19Z</time>
      </trkpt>
      <trkpt lat="49.61488" lon="4.99202">
        <ele>310.16</ele>
        <time>2018-07-15T06:50:37Z</time>
      </trkpt>
      <trkpt lat="49.61476" lon="4.99214">
        <ele>307.76</ele>
        <time>2018-07-15T06:50:53Z</time>
      </trkpt>
      <trkpt lat="49.61468" lon="4.9922">
        <ele>306.8</ele>
        <time>2018-07-15T06:51:00Z</time>
      </trkpt>
      <trkpt lat="49.6145" lon="4.99243">
        <ele>305.84</ele>
        <time>2018-07-15T06:51:18Z</time>
      </trkpt>
      <trkpt lat="49.61443" lon="4.99264">
        <ele>308.72</ele>
        <time>2018-07-15T06:51:31Z</time>
      </trkpt>
      <trkpt lat="49.61442" lon="4.9928">
        <ele>307.28</ele>
        <time>2018-07-15T06:51:43Z</time>
      </trkpt>
      <trkpt lat="49.61442" lon="4.993">
        <ele>308.24</ele>
        <time>2018-07-15T06:51:57Z</time>
      </trkpt>
      <trkpt lat="49.61439" lon="4.99328">
        <ele>306.8</ele>
        <time>2018-07-15T06:52:11Z</time>
      </trkpt>
      <trkpt lat="49.6144" lon="4.99341">
        <ele>304.39</ele>
        <time>2018-07-15T06:52:24Z</time>
      </trkpt>
      <trkpt lat="49.61437" lon="4.99354">
        <ele>304.88</ele>
        <time>2018-07-15T06:52:39Z</time>
      </trkpt>
      <trkpt lat="49.61433" lon="4.99371">
        <ele>301.03</ele>
        <time>2018-07-15T06:52:52Z</time>
      </trkpt>
      <trkpt lat="49.61431" lon="4.99392">
        <ele>297.18</ele>
        <time>2018-07-15T06:53:06Z</time>
      </trkpt>
      <trkpt lat="49.61426" lon="4.99425">
        <ele>293.34</ele>
        <time>2018-07-15T06:53:23Z</time>
      </trkpt>
      <trkpt lat="49.61421" lon="4.99447">
        <ele>288.05</ele>
        <time>2018-07-15T06:53:38Z</time>
      </trkpt>
      <trkpt lat="49.61414" lon="4.99464">
        <ele>289.01</ele>
        <time>2018-07-15T06:53:52Z</time>
      </trkpt>
      <trkpt lat="49.61412" lon="4.99477">
        <ele>286.61</ele>
        <time>2018-07-15T06:54:08Z</time>
      </trkpt>
      <trkpt lat="49.61409" lon="4.99485">
        <ele>287.57</ele>
        <time>2018-07-15T06:54:21Z</time>
      </trkpt>
      <trkpt lat="49.61406" lon="4.99489">
        <ele>287.57</ele>
        <time>2018-07-15T06:54:37Z</time>
      </trkpt>
      <trkpt lat="49.61404" lon="4.99492">
        <ele>285.65</ele>
        <time>2018-07-15T06:54:52Z</time>
      </trkpt>
      <trkpt lat="49.61397" lon="4.995">
        <ele>283.73</ele>
        <time>2018-07-15T06:55:15Z</time>
      </trkpt>
      <trkpt lat="49.61391" lon="4.99514">
        <ele>284.69</ele>
        <time>2018-07-15T06:55:29Z</time>
      </trkpt>
      <trkpt lat="49.6138" lon="4.99538">
        <ele>285.65</ele>
        <time>2018-07-15T06:55:40Z</time>
      </trkpt>
      <trkpt lat="49.61373" lon="4.99557">
        <ele>287.09</ele>
        <time>2018-07-15T06:55:50Z</time>
      </trkpt>
      <trkpt lat="49.61363" lon="4.99572">
        <ele>287.57</ele>
        <time>2018-07-15T06:56:03Z</time>
      </trkpt>
      <trkpt lat="49.61353" lon="4.99589">
        <ele>281.32</ele>
        <time>2018-07-15T06:56:15Z</time>
      </trkpt>
      <trkpt lat="49.6135" lon="4.99597">
        <ele>275.07</ele>
        <time>2018-07-15T06:56:27Z</time>
      </trkpt>
      <trkpt lat="49.61347" lon="4.99601">
        <ele>274.11</ele>
        <time>2018-07-15T06:56:34Z</time>
      </trkpt>
      <trkpt lat="49.61345" lon="4.99606">
        <ele>275.07</ele>
        <time>2018-07-15T06:56:50Z</time>
      </trkpt>
      <trkpt lat="49.6134" lon="4.99613">
        <ele>274.11</ele>
        <time>2018-07-15T06:57:02Z</time>
      </trkpt>
      <trkpt lat="49.61338" lon="4.99614">
        <ele>274.11</ele>
        <time>2018-07-15T06:57:06Z</time>
      </trkpt>
      <trkpt lat="49.61327" lon="4.99624">
        <ele>272.19</ele>
        <time>2018-07-15T06:57:17Z</time>
      </trkpt>
      <trkpt lat="49.61318" lon="4.99632">
        <ele>271.23</ele>
        <time>2018-07-15T06:57:31Z</time>
      </trkpt>
      <trkpt lat="49.61308" lon="4.99643">
        <ele>269.79</ele>
        <time>2018-07-15T06:57:45Z</time>
      </trkpt>
      <trkpt lat="49.61303" lon="4.99651">
        <ele>268.35</ele>
        <time>2018-07-15T06:57:59Z</time>
      </trkpt>
      <trkpt lat="49.613" lon="4.99655">
        <ele>268.83</ele>
        <time>2018-07-15T06:58:14Z</time>
      </trkpt>
      <trkpt lat="49.6129" lon="4.99668">
        <ele>268.35</ele>
        <time>2018-07-15T06:58:27Z</time>
      </trkpt>
      <trkpt lat="49.61283" lon="4.99679">
        <ele>267.86</ele>
        <time>2018-07-15T06:58:38Z</time>
      </trkpt>
      <trkpt lat="49.61269" lon="4.99686">
        <ele>264.5</ele>
        <time>2018-07-15T06:58:50Z</time>
      </trkpt>
      <trkpt lat="49.6126" lon="4.99702">
        <ele>260.65</ele>
        <time>2018-07-15T06:59:04Z</time>
      </trkpt>
      <trkpt lat="49.61253" lon="4.9971">
        <ele>259.69</ele>
        <time>2018-07-15T06:59:13Z</time>
      </trkpt>
      <trkpt lat="49.61248" lon="4.99715">
        <ele>260.17</ele>
        <time>2018-07-15T06:59:28Z</time>
      </trkpt>
      <trkpt lat="49.61238" lon="4.9973">
        <ele>258.73</ele>
        <time>2018-07-15T06:59:40Z</time>
      </trkpt>
      <trkpt lat="49.61233" lon="4.99735">
        <ele>258.25</ele>
        <time>2018-07-15T06:59:49Z</time>
      </trkpt>
      <trkpt lat="49.61226" lon="4.9974">
        <ele>258.25</ele>
        <time>2018-07-15T06:59:59Z</time>
      </trkpt>
      <trkpt lat="49.61214" lon="4.99746">
        <ele>256.33</ele>
        <time>2018-07-15T07:00:11Z</time>
      </trkpt>
      <trkpt lat="49.6121" lon="4.99747">
        <ele>257.29</ele>
        <time>2018-07-15T07:00:14Z</time>
      </trkpt>
      <trkpt lat="49.61203" lon="4.9975">
        <ele>256.81</ele>
        <time>2018-07-15T07:00:28Z</time>
      </trkpt>
      <trkpt lat="49.61197" lon="4.99759">
        <ele>254.89</ele>
        <time>2018-07-15T07:00:39Z</time>
      </trkpt>
      <trkpt lat="49.61188" lon="4.99766">
        <ele>253.44</ele>
        <time>2018-07-15T07:00:51Z</time>
      </trkpt>
      <trkpt lat="49.61187" lon="4.99767">
        <ele>253.44</ele>
        <time>2018-07-15T07:00:52Z</time>
      </trkpt>
      <trkpt lat="49.61175" lon="4.99774">
        <ele>251.04</ele>
        <time>2018-07-15T07:01:06Z</time>
      </trkpt>
      <trkpt lat="49.61165" lon="4.99782">
        <ele>251.04</ele>
        <time>2018-07-15T07:01:20Z</time>
      </trkpt>
      <trkpt lat="49.61163" lon="4.99784">
        <ele>251.04</ele>
        <time>2018-07-15T07:01:37Z</time>
      </trkpt>
      <trkpt lat="49.6116" lon="4.99786">
        <ele>250.56</ele>
        <time>2018-07-15T07:01:46Z</time>
      </trkpt>
      <trkpt lat="49.61153" lon="4.9979">
        <ele>248.16</ele>
        <time>2018-07-15T07:01:58Z</time>
      </trkpt>
      <trkpt lat="49.61153" lon="4.99791">
        <ele>248.16</ele>
        <time>2018-07-15T07:01:59Z</time>
      </trkpt>
      <trkpt lat="49.6114" lon="4.99809">
        <ele>240.95</ele>
        <time>2018-07-15T07:02:13Z</time>
      </trkpt>
      <trkpt lat="49.61136" lon="4.99816">
        <ele>239.02</ele>
        <time>2018-07-15T07:02:21Z</time>
      </trkpt>
      <trkpt lat="49.61134" lon="4.9982">
        <ele>239.02</ele>
        <time>2018-07-15T07:02:23Z</time>
      </trkpt>
      <trkpt lat="49.61131" lon="4.9983">
        <ele>241.43</ele>
        <time>2018-07-15T07:02:35Z</time>
      </trkpt>
      <trkpt lat="49.61133" lon="4.99833">
        <ele>243.83</ele>
        <time>2018-07-15T07:02:50Z</time>
      </trkpt>
      <trkpt lat="49.61133" lon="4.99834">
        <ele>244.31</ele>
        <time>2018-07-15T07:03:02Z</time>
      </trkpt>
      <trkpt lat="49.61136" lon="4.99841">
        <ele>246.23</ele>
        <time>2018-07-15T07:03:18Z</time>
      </trkpt>
      <trkpt lat="49.61136" lon="4.99842">
        <ele>246.72</ele>
        <time>2018-07-15T07:03:23Z</time>
      </trkpt>
      <trkpt lat="49.61138" lon="4.99846">
        <ele>247.2</ele>
        <time>2018-07-15T07:03:29Z</time>
      </trkpt>
      <trkpt lat="49.61147" lon="4.9986">
        <ele>248.64</ele>
        <time>2018-07-15T07:03:42Z</time>
      </trkpt>
      <trkpt lat="49.61154" lon="4.99869">
        <ele>252</ele>
        <time>2018-07-15T07:03:55Z</time>
      </trkpt>
      <trkpt lat="49.61159" lon="4.99878">
        <ele>253.44</ele>
        <time>2018-07-15T07:04:09Z</time>
      </trkpt>
      <trkpt lat="49.61164" lon="4.99887">
        <ele>257.29</ele>
        <time>2018-07-15T07:04:21Z</time>
      </trkpt>
      <trkpt lat="49.61167" lon="4.99898">
        <ele>258.73</ele>
        <time>2018-07-15T07:04:31Z</time>
      </trkpt>
      <trkpt lat="49.61167" lon="4.99915">
        <ele>262.1</ele>
        <time>2018-07-15T07:04:43Z</time>
      </trkpt>
      <trkpt lat="49.61164" lon="4.9993">
        <ele>262.58</ele>
        <time>2018-07-15T07:04:55Z</time>
      </trkpt>
      <trkpt lat="49.61162" lon="4.99942">
        <ele>264.02</ele>
        <time>2018-07-15T07:05:12Z</time>
      </trkpt>
      <trkpt lat="49.6116" lon="4.99946">
        <ele>264.02</ele>
        <time>2018-07-15T07:05:16Z</time>
      </trkpt>
      <trkpt lat="49.61152" lon="4.99969">
        <ele>265.46</ele>
        <time>2018-07-15T07:05:33Z</time>
      </trkpt>
      <trkpt lat="49.61152" lon="4.99971">
        <ele>264.98</ele>
        <time>2018-07-15T07:05:35Z</time>
      </trkpt>
      <trkpt lat="49.61145" lon="5.00006">
        <ele>266.42</ele>
        <time>2018-07-15T07:05:48Z</time>
      </trkpt>
      <trkpt lat="49.6114" lon="5.0003">
        <ele>267.38</ele>
        <time>2018-07-15T07:06:02Z</time>
      </trkpt>
      <trkpt lat="49.61138" lon="5.0004">
        <ele>268.83</ele>
        <time>2018-07-15T07:06:07Z</time>
      </trkpt>
      <trkpt lat="49.61135" lon="5.00062">
        <ele>272.67</ele>
        <time>2018-07-15T07:06:20Z</time>
      </trkpt>
      <trkpt lat="49.6113" lon="5.00091">
        <ele>272.19</ele>
        <time>2018-07-15T07:06:34Z</time>
      </trkpt>
      <trkpt lat="49.6113" lon="5.00113">
        <ele>271.23</ele>
        <time>2018-07-15T07:06:51Z</time>
      </trkpt>
      <trkpt lat="49.61126" lon="5.00131">
        <ele>270.27</ele>
        <time>2018-07-15T07:07:03Z</time>
      </trkpt>
      <trkpt lat="49.61122" lon="5.00154">
        <ele>269.79</ele>
        <time>2018-07-15T07:07:17Z</time>
      </trkpt>
      <trkpt lat="49.61119" lon="5.00176">
        <ele>267.86</ele>
        <time>2018-07-15T07:07:32Z</time>
      </trkpt>
      <trkpt lat="49.61116" lon="5.00201">
        <ele>264.5</ele>
        <time>2018-07-15T07:07:47Z</time>
      </trkpt>
      <trkpt lat="49.61112" lon="5.00224">
        <ele>264.5</ele>
        <time>2018-07-15T07:07:58Z</time>
      </trkpt>
      <trkpt lat="49.61113" lon="5.00227">
        <ele>264.5</ele>
        <time>2018-07-15T07:07:59Z</time>
      </trkpt>
      <trkpt lat="49.61108" lon="5.00243">
        <ele>263.54</ele>
        <time>2018-07-15T07:08:11Z</time>
      </trkpt>
      <trkpt lat="49.61105" lon="5.00253">
        <ele>264.02</ele>
        <time>2018-07-15T07:08:16Z</time>
      </trkpt>
      <trkpt lat="49.61104" lon="5.00284">
        <ele>263.54</ele>
        <time>2018-07-15T07:08:31Z</time>
      </trkpt>
      <trkpt lat="49.61101" lon="5.00298">
        <ele>264.98</ele>
        <time>2018-07-15T07:08:41Z</time>
      </trkpt>
      <trkpt lat="49.61092" lon="5.00324">
        <ele>270.27</ele>
        <time>2018-07-15T07:08:59Z</time>
      </trkpt>
      <trkpt lat="49.61086" lon="5.00345">
        <ele>272.19</ele>
        <time>2018-07-15T07:09:14Z</time>
      </trkpt>
      <trkpt lat="49.61085" lon="5.00355">
        <ele>272.67</ele>
        <time>2018-07-15T07:09:20Z</time>
      </trkpt>
      <trkpt lat="49.61079" lon="5.00385">
        <ele>273.15</ele>
        <time>2018-07-15T07:09:35Z</time>
      </trkpt>
      <trkpt lat="49.61075" lon="5.00402">
        <ele>274.59</ele>
        <time>2018-07-15T07:09:48Z</time>
      </trkpt>
      <trkpt lat="49.61065" lon="5.00419">
        <ele>271.23</ele>
        <time>2018-07-15T07:10:04Z</time>
      </trkpt>
      <trkpt lat="49.61049" lon="5.00429">
        <ele>267.38</ele>
        <time>2018-07-15T07:10:18Z</time>
      </trkpt>
      <trkpt lat="49.61045" lon="5.00434">
        <ele>265.94</ele>
        <time>2018-07-15T07:10:25Z</time>
      </trkpt>
      <trkpt lat="49.61031" lon="5.00455">
        <ele>261.62</ele>
        <time>2018-07-15T07:10:40Z</time>
      </trkpt>
      <trkpt lat="49.61012" lon="5.00478">
        <ele>262.58</ele>
        <time>2018-07-15T07:10:56Z</time>
      </trkpt>
      <trkpt lat="49.60997" lon="5.00488">
        <ele>260.65</ele>
        <time>2018-07-15T07:11:11Z</time>
      </trkpt>
      <trkpt lat="49.60996" lon="5.00488">
        <ele>260.65</ele>
        <time>2018-07-15T07:11:12Z</time>
      </trkpt>
      <trkpt lat="49.60984" lon="5.0049">
        <ele>260.65</ele>
        <time>2018-07-15T07:11:23Z</time>
      </trkpt>
      <trkpt lat="49.60978" lon="5.00493">
        <ele>260.17</ele>
        <time>2018-07-15T07:11:27Z</time>
      </trkpt>
      <trkpt lat="49.60963" lon="5.00497">
        <ele>253.44</ele>
        <time>2018-07-15T07:11:40Z</time>
      </trkpt>
      <trkpt lat="49.60952" lon="5.00502">
        <ele>250.08</ele>
        <time>2018-07-15T07:11:52Z</time>
      </trkpt>
      <trkpt lat="49.60943" lon="5.00506">
        <ele>251.04</ele>
        <time>2018-07-15T07:12:06Z</time>
      </trkpt>
      <trkpt lat="49.60943" lon="5.00506">
        <ele>251.04</ele>
        <time>2018-07-15T07:12:08Z</time>
      </trkpt>
      <trkpt lat="49.60943" lon="5.00511">
        <ele>251.52</ele>
        <time>2018-07-15T07:12:21Z</time>
      </trkpt>
      <trkpt lat="49.60942" lon="5.00512">
        <ele>252</ele>
        <time>2018-07-15T07:12:42Z</time>
      </trkpt>
      <trkpt lat="49.60938" lon="5.00511">
        <ele>251.52</ele>
        <time>2018-07-15T07:12:57Z</time>
      </trkpt>
      <trkpt lat="49.60924" lon="5.00508">
        <ele>248.16</ele>
        <time>2018-07-15T07:13:11Z</time>
      </trkpt>
      <trkpt lat="49.60913" lon="5.00511">
        <ele>245.75</ele>
        <time>2018-07-15T07:13:26Z</time>
      </trkpt>
      <trkpt lat="49.60901" lon="5.00518">
        <ele>244.31</ele>
        <time>2018-07-15T07:13:37Z</time>
      </trkpt>
      <trkpt lat="49.60896" lon="5.00522">
        <ele>243.83</ele>
        <time>2018-07-15T07:13:44Z</time>
      </trkpt>
      <trkpt lat="49.60879" lon="5.00547">
        <ele>238.54</ele>
        <time>2018-07-15T07:14:00Z</time>
      </trkpt>
      <trkpt lat="49.60872" lon="5.00561">
        <ele>235.66</ele>
        <time>2018-07-15T07:14:14Z</time>
      </trkpt>
      <trkpt lat="49.60861" lon="5.00569">
        <ele>234.22</ele>
        <time>2018-07-15T07:14:25Z</time>
      </trkpt>
      <trkpt lat="49.60851" lon="5.00565">
        <ele>232.3</ele>
        <time>2018-07-15T07:14:38Z</time>
      </trkpt>
      <trkpt lat="49.60849" lon="5.00567">
        <ele>230.85</ele>
        <time>2018-07-15T07:14:57Z</time>
      </trkpt>
      <trkpt lat="49.60848" lon="5.00567">
        <ele>230.37</ele>
        <time>2018-07-15T07:15:16Z</time>
      </trkpt>
      <trkpt lat="49.60849" lon="5.00569">
        <ele>225.57</ele>
        <time>2018-07-15T07:15:38Z</time>
      </trkpt>
      <trkpt lat="49.60849" lon="5.00571">
        <ele>224.12</ele>
        <time>2018-07-15T07:15:55Z</time>
      </trkpt>
      <trkpt lat="49.60849" lon="5.00573">
        <ele>222.68</ele>
        <time>2018-07-15T07:16:07Z</time>
      </trkpt>
      <trkpt lat="49.60847" lon="5.00584">
        <ele>222.2</ele>
        <time>2018-07-15T07:16:12Z</time>
      </trkpt>
      <trkpt lat="49.60845" lon="5.00594">
        <ele>222.2</ele>
        <time>2018-07-15T07:16:22Z</time>
      </trkpt>
      <trkpt lat="49.60845" lon="5.00601">
        <ele>221.72</ele>
        <time>2018-07-15T07:16:29Z</time>
      </trkpt>
      <trkpt lat="49.60844" lon="5.00609">
        <ele>221.24</ele>
        <time>2018-07-15T07:16:43Z</time>
      </trkpt>
      <trkpt lat="49.60845" lon="5.00613">
        <ele>221.24</ele>
        <time>2018-07-15T07:16:53Z</time>
      </trkpt>
      <trkpt lat="49.60845" lon="5.00618">
        <ele>221.72</ele>
        <time>2018-07-15T07:16:55Z</time>
      </trkpt>
      <trkpt lat="49.60845" lon="5.00637">
        <ele>221.72</ele>
        <time>2018-07-15T07:17:07Z</time>
      </trkpt>
      <trkpt lat="49.60847" lon="5.00654">
        <ele>219.8</ele>
        <time>2018-07-15T07:17:19Z</time>
      </trkpt>
      <trkpt lat="49.60852" lon="5.00674">
        <ele>219.8</ele>
        <time>2018-07-15T07:17:30Z</time>
      </trkpt>
      <trkpt lat="49.60859" lon="5.00701">
        <ele>220.76</ele>
        <time>2018-07-15T07:17:43Z</time>
      </trkpt>
      <trkpt lat="49.60861" lon="5.00723">
        <ele>220.28</ele>
        <time>2018-07-15T07:17:58Z</time>
      </trkpt>
      <trkpt lat="49.60861" lon="5.00725">
        <ele>220.28</ele>
        <time>2018-07-15T07:18:00Z</time>
      </trkpt>
      <trkpt lat="49.60868" lon="5.00744">
        <ele>219.8</ele>
        <time>2018-07-15T07:18:12Z</time>
      </trkpt>
      <trkpt lat="49.6087" lon="5.00756">
        <ele>219.8</ele>
        <time>2018-07-15T07:18:22Z</time>
      </trkpt>
      <trkpt lat="49.60873" lon="5.0077">
        <ele>220.76</ele>
        <time>2018-07-15T07:18:32Z</time>
      </trkpt>
      <trkpt lat="49.60875" lon="5.00777">
        <ele>221.24</ele>
        <time>2018-07-15T07:18:36Z</time>
      </trkpt>
      <trkpt lat="49.60878" lon="5.00791">
        <ele>222.2</ele>
        <time>2018-07-15T07:18:45Z</time>
      </trkpt>
      <trkpt lat="49.60881" lon="5.00806">
        <ele>224.12</ele>
        <time>2018-07-15T07:18:55Z</time>
      </trkpt>
      <trkpt lat="49.60882" lon="5.00819">
        <ele>225.57</ele>
        <time>2018-07-15T07:19:02Z</time>
      </trkpt>
      <trkpt lat="49.60888" lon="5.00838">
        <ele>225.57</ele>
        <time>2018-07-15T07:19:15Z</time>
      </trkpt>
      <trkpt lat="49.60892" lon="5.00857">
        <ele>224.12</ele>
        <time>2018-07-15T07:19:25Z</time>
      </trkpt>
      <trkpt lat="49.60895" lon="5.00878">
        <ele>222.68</ele>
        <time>2018-07-15T07:19:37Z</time>
      </trkpt>
      <trkpt lat="49.60898" lon="5.00899">
        <ele>224.12</ele>
        <time>2018-07-15T07:19:49Z</time>
      </trkpt>
      <trkpt lat="49.60901" lon="5.00915">
        <ele>225.09</ele>
        <time>2018-07-15T07:20:00Z</time>
      </trkpt>
      <trkpt lat="49.60904" lon="5.00931">
        <ele>226.05</ele>
        <time>2018-07-15T07:20:11Z</time>
      </trkpt>
      <trkpt lat="49.60909" lon="5.00948">
        <ele>224.12</ele>
        <time>2018-07-15T07:20:23Z</time>
      </trkpt>
      <trkpt lat="49.60911" lon="5.00961">
        <ele>223.16</ele>
        <time>2018-07-15T07:20:36Z</time>
      </trkpt>
      <trkpt lat="49.60911" lon="5.00964">
        <ele>223.64</ele>
        <time>2018-07-15T07:20:47Z</time>
      </trkpt>
      <trkpt lat="49.60912" lon="5.00978">
        <ele>225.57</ele>
        <time>2018-07-15T07:20:59Z</time>
      </trkpt>
      <trkpt lat="49.60911" lon="5.00991">
        <ele>227.01</ele>
        <time>2018-07-15T07:21:09Z</time>
      </trkpt>
      <trkpt lat="49.60913" lon="5.00997">
        <ele>228.45</ele>
        <time>2018-07-15T07:21:12Z</time>
      </trkpt>
      <trkpt lat="49.60915" lon="5.01011">
        <ele>230.85</ele>
        <time>2018-07-15T07:21:24Z</time>
      </trkpt>
      <trkpt lat="49.60915" lon="5.01012">
        <ele>230.85</ele>
        <time>2018-07-15T07:21:27Z</time>
      </trkpt>
      <trkpt lat="49.60916" lon="5.01016">
        <ele>231.81</ele>
        <time>2018-07-15T07:21:29Z</time>
      </trkpt>
      <trkpt lat="49.60919" lon="5.0104">
        <ele>237.58</ele>
        <time>2018-07-15T07:21:42Z</time>
      </trkpt>
      <trkpt lat="49.60921" lon="5.01049">
        <ele>239.02</ele>
        <time>2018-07-15T07:21:47Z</time>
      </trkpt>
      <trkpt lat="49.60922" lon="5.01069">
        <ele>239.51</ele>
        <time>2018-07-15T07:21:57Z</time>
      </trkpt>
      <trkpt lat="49.60929" lon="5.01092">
        <ele>238.54</ele>
        <time>2018-07-15T07:22:09Z</time>
      </trkpt>
      <trkpt lat="49.6093" lon="5.01092">
        <ele>236.14</ele>
        <time>2018-07-15T07:22:26Z</time>
      </trkpt>
      <trkpt lat="49.60932" lon="5.011">
        <ele>236.14</ele>
        <time>2018-07-15T07:22:35Z</time>
      </trkpt>
      <trkpt lat="49.60937" lon="5.01117">
        <ele>233.26</ele>
        <time>2018-07-15T07:22:49Z</time>
      </trkpt>
      <trkpt lat="49.60941" lon="5.01139">
        <ele>230.37</ele>
        <time>2018-07-15T07:23:02Z</time>
      </trkpt>
      <trkpt lat="49.60946" lon="5.01168">
        <ele>228.45</ele>
        <time>2018-07-15T07:23:19Z</time>
      </trkpt>
      <trkpt lat="49.60949" lon="5.01187">
        <ele>227.97</ele>
        <time>2018-07-15T07:23:30Z</time>
      </trkpt>
      <trkpt lat="49.60949" lon="5.0119">
        <ele>227.97</ele>
        <time>2018-07-15T07:23:32Z</time>
      </trkpt>
      <trkpt lat="49.60955" lon="5.01214">
        <ele>233.26</ele>
        <time>2018-07-15T07:23:45Z</time>
      </trkpt>
      <trkpt lat="49.60956" lon="5.01222">
        <ele>234.22</ele>
        <time>2018-07-15T07:23:49Z</time>
      </trkpt>
      <trkpt lat="49.60963" lon="5.01242">
        <ele>235.18</ele>
        <time>2018-07-15T07:24:02Z</time>
      </trkpt>
      <trkpt lat="49.60974" lon="5.01264">
        <ele>233.26</ele>
        <time>2018-07-15T07:24:15Z</time>
      </trkpt>
      <trkpt lat="49.60975" lon="5.01268">
        <ele>233.74</ele>
        <time>2018-07-15T07:24:17Z</time>
      </trkpt>
      <trkpt lat="49.60981" lon="5.01292">
        <ele>233.74</ele>
        <time>2018-07-15T07:24:32Z</time>
      </trkpt>
      <trkpt lat="49.60986" lon="5.0131">
        <ele>235.18</ele>
        <time>2018-07-15T07:24:44Z</time>
      </trkpt>
      <trkpt lat="49.60989" lon="5.01318">
        <ele>233.26</ele>
        <time>2018-07-15T07:24:59Z</time>
      </trkpt>
      <trkpt lat="49.60995" lon="5.01339">
        <ele>235.66</ele>
        <time>2018-07-15T07:25:13Z</time>
      </trkpt>
      <trkpt lat="49.60997" lon="5.01347">
        <ele>235.66</ele>
        <time>2018-07-15T07:25:17Z</time>
      </trkpt>
      <trkpt lat="49.60999" lon="5.01351">
        <ele>235.66</ele>
        <time>2018-07-15T07:25:19Z</time>
      </trkpt>
      <trkpt lat="49.61005" lon="5.01375">
        <ele>234.22</ele>
        <time>2018-07-15T07:25:34Z</time>
      </trkpt>
      <trkpt lat="49.61006" lon="5.01383">
        <ele>233.74</ele>
        <time>2018-07-15T07:25:48Z</time>
      </trkpt>
      <trkpt lat="49.61007" lon="5.01386">
        <ele>233.26</ele>
        <time>2018-07-15T07:26:06Z</time>
      </trkpt>
      <trkpt lat="49.61008" lon="5.01388">
        <ele>233.26</ele>
        <time>2018-07-15T07:26:08Z</time>
      </trkpt>
      <trkpt lat="49.61012" lon="5.01416">
        <ele>234.7</ele>
        <time>2018-07-15T07:26:24Z</time>
      </trkpt>
      <trkpt lat="49.61015" lon="5.01436">
        <ele>236.62</ele>
        <time>2018-07-15T07:26:33Z</time>
      </trkpt>
      <trkpt lat="49.61017" lon="5.01464">
        <ele>239.99</ele>
        <time>2018-07-15T07:26:41Z</time>
      </trkpt>
      <trkpt lat="49.61018" lon="5.01467">
        <ele>240.47</ele>
        <time>2018-07-15T07:26:43Z</time>
      </trkpt>
      <trkpt lat="49.61017" lon="5.01479">
        <ele>241.91</ele>
        <time>2018-07-15T07:26:54Z</time>
      </trkpt>
      <trkpt lat="49.61017" lon="5.01501">
        <ele>238.54</ele>
        <time>2018-07-15T07:27:08Z</time>
      </trkpt>
      <trkpt lat="49.61021" lon="5.01523">
        <ele>235.66</ele>
        <time>2018-07-15T07:27:21Z</time>
      </trkpt>
      <trkpt lat="49.61019" lon="5.01538">
        <ele>234.22</ele>
        <time>2018-07-15T07:27:27Z</time>
      </trkpt>
      <trkpt lat="49.61014" lon="5.01566">
        <ele>230.37</ele>
        <time>2018-07-15T07:27:40Z</time>
      </trkpt>
      <trkpt lat="49.61013" lon="5.01579">
        <ele>228.45</ele>
        <time>2018-07-15T07:27:46Z</time>
      </trkpt>
      <trkpt lat="49.61009" lon="5.01597">
        <ele>228.93</ele>
        <time>2018-07-15T07:27:54Z</time>
      </trkpt>
      <trkpt lat="49.61007" lon="5.01615">
        <ele>230.37</ele>
        <time>2018-07-15T07:28:09Z</time>
      </trkpt>
      <trkpt lat="49.61007" lon="5.01638">
        <ele>229.41</ele>
        <time>2018-07-15T07:28:24Z</time>
      </trkpt>
      <trkpt lat="49.61006" lon="5.01644">
        <ele>228.93</ele>
        <time>2018-07-15T07:28:26Z</time>
      </trkpt>
      <trkpt lat="49.61005" lon="5.01654">
        <ele>229.41</ele>
        <time>2018-07-15T07:28:30Z</time>
      </trkpt>
      <trkpt lat="49.61005" lon="5.01678">
        <ele>228.45</ele>
        <time>2018-07-15T07:28:46Z</time>
      </trkpt>
      <trkpt lat="49.61005" lon="5.01679">
        <ele>227.97</ele>
        <time>2018-07-15T07:29:06Z</time>
      </trkpt>
      <trkpt lat="49.61005" lon="5.01704">
        <ele>225.09</ele>
        <time>2018-07-15T07:29:18Z</time>
      </trkpt>
      <trkpt lat="49.6101" lon="5.01728">
        <ele>224.12</ele>
        <time>2018-07-15T07:29:32Z</time>
      </trkpt>
      <trkpt lat="49.61013" lon="5.01753">
        <ele>223.16</ele>
        <time>2018-07-15T07:29:45Z</time>
      </trkpt>
      <trkpt lat="49.6102" lon="5.01781">
        <ele>222.68</ele>
        <time>2018-07-15T07:29:58Z</time>
      </trkpt>
      <trkpt lat="49.61023" lon="5.01794">
        <ele>224.61</ele>
        <time>2018-07-15T07:30:11Z</time>
      </trkpt>
      <trkpt lat="49.61022" lon="5.01794">
        <ele>224.61</ele>
        <time>2018-07-15T07:30:15Z</time>
      </trkpt>
      <trkpt lat="49.61024" lon="5.01811">
        <ele>223.64</ele>
        <time>2018-07-15T07:30:24Z</time>
      </trkpt>
      <trkpt lat="49.61025" lon="5.01821">
        <ele>222.2</ele>
        <time>2018-07-15T07:30:35Z</time>
      </trkpt>
      <trkpt lat="49.61026" lon="5.01822">
        <ele>222.2</ele>
        <time>2018-07-15T07:30:36Z</time>
      </trkpt>
      <trkpt lat="49.61027" lon="5.01828">
        <ele>221.72</ele>
        <time>2018-07-15T07:30:49Z</time>
      </trkpt>
      <trkpt lat="49.61027" lon="5.01828">
        <ele>221.72</ele>
        <time>2018-07-15T07:30:51Z</time>
      </trkpt>
      <trkpt lat="49.61032" lon="5.01854">
        <ele>221.24</ele>
        <time>2018-07-15T07:31:04Z</time>
      </trkpt>
      <trkpt lat="49.61033" lon="5.01876">
        <ele>219.8</ele>
        <time>2018-07-15T07:31:20Z</time>
      </trkpt>
      <trkpt lat="49.61036" lon="5.01894">
        <ele>219.8</ele>
        <time>2018-07-15T07:31:29Z</time>
      </trkpt>
      <trkpt lat="49.61033" lon="5.01914">
        <ele>222.2</ele>
        <time>2018-07-15T07:31:40Z</time>
      </trkpt>
      <trkpt lat="49.61037" lon="5.01937">
        <ele>224.61</ele>
        <time>2018-07-15T07:31:55Z</time>
      </trkpt>
      <trkpt lat="49.61043" lon="5.01967">
        <ele>222.68</ele>
        <time>2018-07-15T07:32:09Z</time>
      </trkpt>
      <trkpt lat="49.61049" lon="5.01993">
        <ele>222.2</ele>
        <time>2018-07-15T07:32:21Z</time>
      </trkpt>
      <trkpt lat="49.61052" lon="5.02004">
        <ele>225.09</ele>
        <time>2018-07-15T07:32:34Z</time>
      </trkpt>
      <trkpt lat="49.61058" lon="5.02029">
        <ele>227.01</ele>
        <time>2018-07-15T07:32:49Z</time>
      </trkpt>
      <trkpt lat="49.61062" lon="5.02037">
        <ele>226.05</ele>
        <time>2018-07-15T07:33:05Z</time>
      </trkpt>
      <trkpt lat="49.61065" lon="5.02057">
        <ele>225.09</ele>
        <time>2018-07-15T07:33:16Z</time>
      </trkpt>
      <trkpt lat="49.61068" lon="5.02063">
        <ele>225.09</ele>
        <time>2018-07-15T07:33:26Z</time>
      </trkpt>
      <trkpt lat="49.61072" lon="5.02075">
        <ele>224.12</ele>
        <time>2018-07-15T07:33:40Z</time>
      </trkpt>
      <trkpt lat="49.61075" lon="5.02081">
        <ele>223.16</ele>
        <time>2018-07-15T07:33:46Z</time>
      </trkpt>
      <trkpt lat="49.61079" lon="5.0211">
        <ele>222.68</ele>
        <time>2018-07-15T07:34:01Z</time>
      </trkpt>
      <trkpt lat="49.61082" lon="5.02137">
        <ele>224.61</ele>
        <time>2018-07-15T07:34:13Z</time>
      </trkpt>
      <trkpt lat="49.61083" lon="5.0215">
        <ele>229.41</ele>
        <time>2018-07-15T07:34:22Z</time>
      </trkpt>
      <trkpt lat="49.61085" lon="5.02183">
        <ele>232.78</ele>
        <time>2018-07-15T07:34:40Z</time>
      </trkpt>
      <trkpt lat="49.61091" lon="5.02191">
        <ele>229.89</ele>
        <time>2018-07-15T07:34:49Z</time>
      </trkpt>
      <trkpt lat="49.61098" lon="5.02208">
        <ele>226.53</ele>
        <time>2018-07-15T07:34:58Z</time>
      </trkpt>
      <trkpt lat="49.611" lon="5.02218">
        <ele>225.09</ele>
        <time>2018-07-15T07:35:12Z</time>
      </trkpt>
      <trkpt lat="49.61102" lon="5.02218">
        <ele>225.57</ele>
        <time>2018-07-15T07:35:24Z</time>
      </trkpt>
      <trkpt lat="49.61103" lon="5.02217">
        <ele>225.09</ele>
        <time>2018-07-15T07:35:40Z</time>
      </trkpt>
      <trkpt lat="49.61104" lon="5.02215">
        <ele>223.16</ele>
        <time>2018-07-15T07:36:14Z</time>
      </trkpt>
      <trkpt lat="49.61103" lon="5.02216">
        <ele>222.68</ele>
        <time>2018-07-15T07:36:35Z</time>
      </trkpt>
      <trkpt lat="49.61103" lon="5.02215">
        <ele>223.64</ele>
        <time>2018-07-15T07:36:56Z</time>
      </trkpt>
      <trkpt lat="49.61103" lon="5.02213">
        <ele>223.64</ele>
        <time>2018-07-15T07:37:24Z</time>
      </trkpt>
      <trkpt lat="49.61104" lon="5.02213">
        <ele>223.16</ele>
        <time>2018-07-15T07:37:50Z</time>
      </trkpt>
      <trkpt lat="49.61104" lon="5.02213">
        <ele>223.16</ele>
        <time>2018-07-15T07:38:09Z</time>
      </trkpt>
      <trkpt lat="49.61104" lon="5.02213">
        <ele>223.64</ele>
        <time>2018-07-15T07:38:30Z</time>
      </trkpt>
      <trkpt lat="49.61103" lon="5.02213">
        <ele>223.64</ele>
        <time>2018-07-15T07:38:56Z</time>
      </trkpt>
      <trkpt lat="49.61103" lon="5.02214">
        <ele>222.68</ele>
        <time>2018-07-15T07:39:10Z</time>
      </trkpt>
      <trkpt lat="49.61103" lon="5.02215">
        <ele>222.68</ele>
        <time>2018-07-15T07:39:20Z</time>
      </trkpt>
      <trkpt lat="49.61103" lon="5.02223">
        <ele>221.24</ele>
        <time>2018-07-15T07:39:36Z</time>
      </trkpt>
      <trkpt lat="49.61104" lon="5.02229">
        <ele>221.72</ele>
        <time>2018-07-15T07:39:47Z</time>
      </trkpt>
      <trkpt lat="49.61105" lon="5.02236">
        <ele>221.24</ele>
        <time>2018-07-15T07:40:00Z</time>
      </trkpt>
      <trkpt lat="49.61109" lon="5.02242">
        <ele>219.8</ele>
        <time>2018-07-15T07:40:11Z</time>
      </trkpt>
      <trkpt lat="49.61116" lon="5.02257">
        <ele>214.51</ele>
        <time>2018-07-15T07:40:25Z</time>
      </trkpt>
      <trkpt lat="49.61121" lon="5.02277">
        <ele>211.63</ele>
        <time>2018-07-15T07:40:38Z</time>
      </trkpt>
      <trkpt lat="49.61129" lon="5.02306">
        <ele>209.7</ele>
        <time>2018-07-15T07:40:54Z</time>
      </trkpt>
      <trkpt lat="49.61131" lon="5.02326">
        <ele>204.9</ele>
        <time>2018-07-15T07:41:09Z</time>
      </trkpt>
      <trkpt lat="49.61127" lon="5.02349">
        <ele>200.09</ele>
        <time>2018-07-15T07:41:26Z</time>
      </trkpt>
      <trkpt lat="49.61119" lon="5.0238">
        <ele>197.21</ele>
        <time>2018-07-15T07:41:41Z</time>
      </trkpt>
      <trkpt lat="49.6111" lon="5.02406">
        <ele>193.36</ele>
        <time>2018-07-15T07:41:57Z</time>
      </trkpt>
      <trkpt lat="49.61106" lon="5.02418">
        <ele>191.92</ele>
        <time>2018-07-15T07:42:11Z</time>
      </trkpt>
      <trkpt lat="49.61108" lon="5.02417">
        <ele>191.92</ele>
        <time>2018-07-15T07:42:28Z</time>
      </trkpt>
      <trkpt lat="49.61103" lon="5.02433">
        <ele>191.92</ele>
        <time>2018-07-15T07:42:41Z</time>
      </trkpt>
      <trkpt lat="49.61101" lon="5.02438">
        <ele>192.4</ele>
        <time>2018-07-15T07:42:45Z</time>
      </trkpt>
      <trkpt lat="49.61107" lon="5.02465">
        <ele>187.59</ele>
        <time>2018-07-15T07:43:01Z</time>
      </trkpt>
      <trkpt lat="49.61107" lon="5.02467">
        <ele>187.11</ele>
        <time>2018-07-15T07:43:02Z</time>
      </trkpt>
      <trkpt lat="49.61113" lon="5.02488">
        <ele>181.35</ele>
        <time>2018-07-15T07:43:15Z</time>
      </trkpt>
      <trkpt lat="49.61114" lon="5.0249">
        <ele>180.87</ele>
        <time>2018-07-15T07:43:30Z</time>
      </trkpt>
      <trkpt lat="49.61116" lon="5.025">
        <ele>178.46</ele>
        <time>2018-07-15T07:43:44Z</time>
      </trkpt>
      <trkpt lat="49.61118" lon="5.02508">
        <ele>177.5</ele>
        <time>2018-07-15T07:43:50Z</time>
      </trkpt>
      <trkpt lat="49.6112" lon="5.02533">
        <ele>175.58</ele>
        <time>2018-07-15T07:44:07Z</time>
      </trkpt>
      <trkpt lat="49.61112" lon="5.02557">
        <ele>173.66</ele>
        <time>2018-07-15T07:44:26Z</time>
      </trkpt>
      <trkpt lat="49.61109" lon="5.0256">
        <ele>174.14</ele>
        <time>2018-07-15T07:44:30Z</time>
      </trkpt>
      <trkpt lat="49.61106" lon="5.02559">
        <ele>174.14</ele>
        <time>2018-07-15T07:44:33Z</time>
      </trkpt>
      <trkpt lat="49.61095" lon="5.02552">
        <ele>174.62</ele>
        <time>2018-07-15T07:44:46Z</time>
      </trkpt>
      <trkpt lat="49.61081" lon="5.02543">
        <ele>176.06</ele>
        <time>2018-07-15T07:44:58Z</time>
      </trkpt>
      <trkpt lat="49.61063" lon="5.0253">
        <ele>177.5</ele>
        <time>2018-07-15T07:45:12Z</time>
      </trkpt>
      <trkpt lat="49.61048" lon="5.02521">
        <ele>177.98</ele>
        <time>2018-07-15T07:45:27Z</time>
      </trkpt>
      <trkpt lat="49.61031" lon="5.02517">
        <ele>177.5</ele>
        <time>2018-07-15T07:45:43Z</time>
      </trkpt>
      <trkpt lat="49.61012" lon="5.02506">
        <ele>177.02</ele>
        <time>2018-07-15T07:45:59Z</time>
      </trkpt>
      <trkpt lat="49.61" lon="5.02495">
        <ele>176.06</ele>
        <time>2018-07-15T07:46:13Z</time>
      </trkpt>
      <trkpt lat="49.6099" lon="5.02484">
        <ele>177.98</ele>
        <time>2018-07-15T07:46:27Z</time>
      </trkpt>
      <trkpt lat="49.60973" lon="5.02463">
        <ele>177.5</ele>
        <time>2018-07-15T07:46:44Z</time>
      </trkpt>
      <trkpt lat="49.60961" lon="5.02442">
        <ele>177.5</ele>
        <time>2018-07-15T07:47:04Z</time>
      </trkpt>
      <trkpt lat="49.60951" lon="5.02418">
        <ele>177.02</ele>
        <time>2018-07-15T07:47:20Z</time>
      </trkpt>
      <trkpt lat="49.60941" lon="5.02403">
        <ele>177.5</ele>
        <time>2018-07-15T07:47:33Z</time>
      </trkpt>
      <trkpt lat="49.60939" lon="5.02399">
        <ele>177.5</ele>
        <time>2018-07-15T07:47:44Z</time>
      </trkpt>
      <trkpt lat="49.60938" lon="5.02395">
        <ele>176.06</ele>
        <time>2018-07-15T07:48:02Z</time>
      </trkpt>
      <trkpt lat="49.60936" lon="5.02391">
        <ele>176.06</ele>
        <time>2018-07-15T07:48:05Z</time>
      </trkpt>
      <trkpt lat="49.60933" lon="5.02381">
        <ele>176.06</ele>
        <time>2018-07-15T07:48:10Z</time>
      </trkpt>
      <trkpt lat="49.6092" lon="5.0235">
        <ele>176.54</ele>
        <time>2018-07-15T07:48:27Z</time>
      </trkpt>
      <trkpt lat="49.60908" lon="5.02321">
        <ele>176.54</ele>
        <time>2018-07-15T07:48:48Z</time>
      </trkpt>
      <trkpt lat="49.60899" lon="5.02289">
        <ele>176.06</ele>
        <time>2018-07-15T07:49:05Z</time>
      </trkpt>
      <trkpt lat="49.60886" lon="5.02263">
        <ele>177.5</ele>
        <time>2018-07-15T07:49:21Z</time>
      </trkpt>
      <trkpt lat="49.60875" lon="5.02248">
        <ele>177.02</ele>
        <time>2018-07-15T07:49:36Z</time>
      </trkpt>
      <trkpt lat="49.6086" lon="5.02227">
        <ele>178.46</ele>
        <time>2018-07-15T07:49:53Z</time>
      </trkpt>
      <trkpt lat="49.60845" lon="5.02211">
        <ele>181.35</ele>
        <time>2018-07-15T07:50:09Z</time>
      </trkpt>
      <trkpt lat="49.6084" lon="5.02202">
        <ele>182.31</ele>
        <time>2018-07-15T07:50:17Z</time>
      </trkpt>
      <trkpt lat="49.60827" lon="5.02181">
        <ele>183.75</ele>
        <time>2018-07-15T07:50:30Z</time>
      </trkpt>
      <trkpt lat="49.6082" lon="5.02161">
        <ele>181.83</ele>
        <time>2018-07-15T07:50:46Z</time>
      </trkpt>
      <trkpt lat="49.60817" lon="5.02152">
        <ele>183.75</ele>
        <time>2018-07-15T07:50:57Z</time>
      </trkpt>
      <trkpt lat="49.60812" lon="5.02141">
        <ele>185.67</ele>
        <time>2018-07-15T07:51:11Z</time>
      </trkpt>
      <trkpt lat="49.60811" lon="5.0213">
        <ele>186.63</ele>
        <time>2018-07-15T07:51:16Z</time>
      </trkpt>
      <trkpt lat="49.60809" lon="5.02117">
        <ele>188.08</ele>
        <time>2018-07-15T07:51:22Z</time>
      </trkpt>
      <trkpt lat="49.60801" lon="5.02096">
        <ele>190</ele>
        <time>2018-07-15T07:51:38Z</time>
      </trkpt>
      <trkpt lat="49.60794" lon="5.0207">
        <ele>191.44</ele>
        <time>2018-07-15T07:51:52Z</time>
      </trkpt>
      <trkpt lat="49.60795" lon="5.02069">
        <ele>190.96</ele>
        <time>2018-07-15T07:51:54Z</time>
      </trkpt>
      <trkpt lat="49.60796" lon="5.02065">
        <ele>190</ele>
        <time>2018-07-15T07:51:56Z</time>
      </trkpt>
      <trkpt lat="49.60793" lon="5.02055">
        <ele>191.92</ele>
        <time>2018-07-15T07:52:09Z</time>
      </trkpt>
      <trkpt lat="49.60791" lon="5.02051">
        <ele>193.84</ele>
        <time>2018-07-15T07:52:24Z</time>
      </trkpt>
      <trkpt lat="49.60787" lon="5.0203">
        <ele>196.73</ele>
        <time>2018-07-15T07:52:39Z</time>
      </trkpt>
      <trkpt lat="49.60787" lon="5.02024">
        <ele>196.25</ele>
        <time>2018-07-15T07:52:54Z</time>
      </trkpt>
      <trkpt lat="49.60783" lon="5.02019">
        <ele>194.32</ele>
        <time>2018-07-15T07:53:13Z</time>
      </trkpt>
      <trkpt lat="49.60783" lon="5.02017">
        <ele>194.8</ele>
        <time>2018-07-15T07:53:14Z</time>
      </trkpt>
      <trkpt lat="49.6078" lon="5.02">
        <ele>196.73</ele>
        <time>2018-07-15T07:53:32Z</time>
      </trkpt>
      <trkpt lat="49.60778" lon="5.01977">
        <ele>198.17</ele>
        <time>2018-07-15T07:53:48Z</time>
      </trkpt>
      <trkpt lat="49.60767" lon="5.0195">
        <ele>200.57</ele>
        <time>2018-07-15T07:54:04Z</time>
      </trkpt>
      <trkpt lat="49.60764" lon="5.01946">
        <ele>201.05</ele>
        <time>2018-07-15T07:54:06Z</time>
      </trkpt>
      <trkpt lat="49.60757" lon="5.01911">
        <ele>201.53</ele>
        <time>2018-07-15T07:54:24Z</time>
      </trkpt>
      <trkpt lat="49.60748" lon="5.01886">
        <ele>200.57</ele>
        <time>2018-07-15T07:54:38Z</time>
      </trkpt>
      <trkpt lat="49.6074" lon="5.01869">
        <ele>199.61</ele>
        <time>2018-07-15T07:54:53Z</time>
      </trkpt>
      <trkpt lat="49.60734" lon="5.01854">
        <ele>197.21</ele>
        <time>2018-07-15T07:55:05Z</time>
      </trkpt>
      <trkpt lat="49.60728" lon="5.01826">
        <ele>192.88</ele>
        <time>2018-07-15T07:55:21Z</time>
      </trkpt>
      <trkpt lat="49.60718" lon="5.01801">
        <ele>192.4</ele>
        <time>2018-07-15T07:55:35Z</time>
      </trkpt>
      <trkpt lat="49.6071" lon="5.01781">
        <ele>191.44</ele>
        <time>2018-07-15T07:55:48Z</time>
      </trkpt>
      <trkpt lat="49.60703" lon="5.01769">
        <ele>190.48</ele>
        <time>2018-07-15T07:56:03Z</time>
      </trkpt>
      <trkpt lat="49.60702" lon="5.01769">
        <ele>190.48</ele>
        <time>2018-07-15T07:56:20Z</time>
      </trkpt>
      <trkpt lat="49.60702" lon="5.01768">
        <ele>188.56</ele>
        <time>2018-07-15T07:56:36Z</time>
      </trkpt>
      <trkpt lat="49.60695" lon="5.01754">
        <ele>187.59</ele>
        <time>2018-07-15T07:56:47Z</time>
      </trkpt>
      <trkpt lat="49.60682" lon="5.0174">
        <ele>188.08</ele>
        <time>2018-07-15T07:57:02Z</time>
      </trkpt>
      <trkpt lat="49.60674" lon="5.01737">
        <ele>189.04</ele>
        <time>2018-07-15T07:57:14Z</time>
      </trkpt>
      <trkpt lat="49.60659" lon="5.01743">
        <ele>192.4</ele>
        <time>2018-07-15T07:57:26Z</time>
      </trkpt>
      <trkpt lat="49.60645" lon="5.01748">
        <ele>194.8</ele>
        <time>2018-07-15T07:57:38Z</time>
      </trkpt>
      <trkpt lat="49.60627" lon="5.01749">
        <ele>196.25</ele>
        <time>2018-07-15T07:57:52Z</time>
      </trkpt>
      <trkpt lat="49.60623" lon="5.01747">
        <ele>196.73</ele>
        <time>2018-07-15T07:57:58Z</time>
      </trkpt>
      <trkpt lat="49.60617" lon="5.01744">
        <ele>197.21</ele>
        <time>2018-07-15T07:58:02Z</time>
      </trkpt>
      <trkpt lat="49.60602" lon="5.01737">
        <ele>199.61</ele>
        <time>2018-07-15T07:58:16Z</time>
      </trkpt>
      <trkpt lat="49.60589" lon="5.01732">
        <ele>202.49</ele>
        <time>2018-07-15T07:58:28Z</time>
      </trkpt>
      <trkpt lat="49.60576" lon="5.01724">
        <ele>203.94</ele>
        <time>2018-07-15T07:58:41Z</time>
      </trkpt>
      <trkpt lat="49.60564" lon="5.01718">
        <ele>205.38</ele>
        <time>2018-07-15T07:58:54Z</time>
      </trkpt>
      <trkpt lat="49.60562" lon="5.01716">
        <ele>205.86</ele>
        <time>2018-07-15T07:58:56Z</time>
      </trkpt>
      <trkpt lat="49.6055" lon="5.01707">
        <ele>208.26</ele>
        <time>2018-07-15T07:59:09Z</time>
      </trkpt>
      <trkpt lat="49.6054" lon="5.01702">
        <ele>208.26</ele>
        <time>2018-07-15T07:59:20Z</time>
      </trkpt>
      <trkpt lat="49.60531" lon="5.01697">
        <ele>209.22</ele>
        <time>2018-07-15T07:59:35Z</time>
      </trkpt>
      <trkpt lat="49.60517" lon="5.01688">
        <ele>210.19</ele>
        <time>2018-07-15T07:59:48Z</time>
      </trkpt>
      <trkpt lat="49.60501" lon="5.01679">
        <ele>211.15</ele>
        <time>2018-07-15T08:00:01Z</time>
      </trkpt>
      <trkpt lat="49.6049" lon="5.01672">
        <ele>211.63</ele>
        <time>2018-07-15T08:00:13Z</time>
      </trkpt>
      <trkpt lat="49.60478" lon="5.01664">
        <ele>214.03</ele>
        <time>2018-07-15T08:00:24Z</time>
      </trkpt>
      <trkpt lat="49.60473" lon="5.01659">
        <ele>214.51</ele>
        <time>2018-07-15T08:00:36Z</time>
      </trkpt>
      <trkpt lat="49.60466" lon="5.01652">
        <ele>215.47</ele>
        <time>2018-07-15T08:00:48Z</time>
      </trkpt>
      <trkpt lat="49.60465" lon="5.01651">
        <ele>215.47</ele>
        <time>2018-07-15T08:01:01Z</time>
      </trkpt>
      <trkpt lat="49.60459" lon="5.01646">
        <ele>215.95</ele>
        <time>2018-07-15T08:01:17Z</time>
      </trkpt>
      <trkpt lat="49.6045" lon="5.01635">
        <ele>216.91</ele>
        <time>2018-07-15T08:01:29Z</time>
      </trkpt>
      <trkpt lat="49.60439" lon="5.01621">
        <ele>217.88</ele>
        <time>2018-07-15T08:01:42Z</time>
      </trkpt>
      <trkpt lat="49.60433" lon="5.01614">
        <ele>218.36</ele>
        <time>2018-07-15T08:01:50Z</time>
      </trkpt>
      <trkpt lat="49.6043" lon="5.01609">
        <ele>218.36</ele>
        <time>2018-07-15T08:01:55Z</time>
      </trkpt>
      <trkpt lat="49.6042" lon="5.01596">
        <ele>219.32</ele>
        <time>2018-07-15T08:02:09Z</time>
      </trkpt>
      <trkpt lat="49.60417" lon="5.01591">
        <ele>220.76</ele>
        <time>2018-07-15T08:02:21Z</time>
      </trkpt>
      <trkpt lat="49.6041" lon="5.01581">
        <ele>221.24</ele>
        <time>2018-07-15T08:02:33Z</time>
      </trkpt>
      <trkpt lat="49.60404" lon="5.01575">
        <ele>222.2</ele>
        <time>2018-07-15T08:02:45Z</time>
      </trkpt>
      <trkpt lat="49.60393" lon="5.01563">
        <ele>224.12</ele>
        <time>2018-07-15T08:02:57Z</time>
      </trkpt>
      <trkpt lat="49.60388" lon="5.01555">
        <ele>225.09</ele>
        <time>2018-07-15T08:03:08Z</time>
      </trkpt>
      <trkpt lat="49.60381" lon="5.01546">
        <ele>226.53</ele>
        <time>2018-07-15T08:03:17Z</time>
      </trkpt>
      <trkpt lat="49.60371" lon="5.01534">
        <ele>227.49</ele>
        <time>2018-07-15T08:03:30Z</time>
      </trkpt>
      <trkpt lat="49.60359" lon="5.01523">
        <ele>228.93</ele>
        <time>2018-07-15T08:03:42Z</time>
      </trkpt>
      <trkpt lat="49.60349" lon="5.01512">
        <ele>229.89</ele>
        <time>2018-07-15T08:03:53Z</time>
      </trkpt>
      <trkpt lat="49.60339" lon="5.01498">
        <ele>232.3</ele>
        <time>2018-07-15T08:04:06Z</time>
      </trkpt>
      <trkpt lat="49.60329" lon="5.01484">
        <ele>233.26</ele>
        <time>2018-07-15T08:04:18Z</time>
      </trkpt>
      <trkpt lat="49.60319" lon="5.01472">
        <ele>233.74</ele>
        <time>2018-07-15T08:04:30Z</time>
      </trkpt>
      <trkpt lat="49.6031" lon="5.01455">
        <ele>235.18</ele>
        <time>2018-07-15T08:04:42Z</time>
      </trkpt>
      <trkpt lat="49.60302" lon="5.01431">
        <ele>235.66</ele>
        <time>2018-07-15T08:04:55Z</time>
      </trkpt>
      <trkpt lat="49.60296" lon="5.01414">
        <ele>237.1</ele>
        <time>2018-07-15T08:05:07Z</time>
      </trkpt>
      <trkpt lat="49.60293" lon="5.01405">
        <ele>239.02</ele>
        <time>2018-07-15T08:05:13Z</time>
      </trkpt>
      <trkpt lat="49.6029" lon="5.01397">
        <ele>239.99</ele>
        <time>2018-07-15T08:05:19Z</time>
      </trkpt>
      <trkpt lat="49.60288" lon="5.01388">
        <ele>240.47</ele>
        <time>2018-07-15T08:05:24Z</time>
      </trkpt>
      <trkpt lat="49.60286" lon="5.01379">
        <ele>240.47</ele>
        <time>2018-07-15T08:05:32Z</time>
      </trkpt>
      <trkpt lat="49.60283" lon="5.01372">
        <ele>242.39</ele>
        <time>2018-07-15T08:05:44Z</time>
      </trkpt>
      <trkpt lat="49.60282" lon="5.01368">
        <ele>241.91</ele>
        <time>2018-07-15T08:06:00Z</time>
      </trkpt>
      <trkpt lat="49.60283" lon="5.01343">
        <ele>241.91</ele>
        <time>2018-07-15T08:06:14Z</time>
      </trkpt>
      <trkpt lat="49.60283" lon="5.01339">
        <ele>241.91</ele>
        <time>2018-07-15T08:06:16Z</time>
      </trkpt>
      <trkpt lat="49.60283" lon="5.01328">
        <ele>243.83</ele>
        <time>2018-07-15T08:06:23Z</time>
      </trkpt>
      <trkpt lat="49.60282" lon="5.013">
        <ele>245.75</ele>
        <time>2018-07-15T08:06:38Z</time>
      </trkpt>
      <trkpt lat="49.60282" lon="5.01285">
        <ele>248.64</ele>
        <time>2018-07-15T08:06:54Z</time>
      </trkpt>
      <trkpt lat="49.60282" lon="5.01268">
        <ele>248.64</ele>
        <time>2018-07-15T08:07:06Z</time>
      </trkpt>
      <trkpt lat="49.60282" lon="5.01263">
        <ele>249.12</ele>
        <time>2018-07-15T08:07:10Z</time>
      </trkpt>
      <trkpt lat="49.60283" lon="5.01248">
        <ele>250.08</ele>
        <time>2018-07-15T08:07:17Z</time>
      </trkpt>
      <trkpt lat="49.60284" lon="5.01227">
        <ele>252.48</ele>
        <time>2018-07-15T08:07:30Z</time>
      </trkpt>
      <trkpt lat="49.60283" lon="5.01211">
        <ele>253.44</ele>
        <time>2018-07-15T08:07:42Z</time>
      </trkpt>
      <trkpt lat="49.60284" lon="5.01205">
        <ele>252.96</ele>
        <time>2018-07-15T08:07:45Z</time>
      </trkpt>
      <trkpt lat="49.60284" lon="5.01196">
        <ele>252.96</ele>
        <time>2018-07-15T08:07:49Z</time>
      </trkpt>
      <trkpt lat="49.60286" lon="5.01173">
        <ele>252.48</ele>
        <time>2018-07-15T08:08:03Z</time>
      </trkpt>
      <trkpt lat="49.60282" lon="5.01145">
        <ele>252.96</ele>
        <time>2018-07-15T08:08:20Z</time>
      </trkpt>
      <trkpt lat="49.60277" lon="5.01121">
        <ele>253.93</ele>
        <time>2018-07-15T08:08:35Z</time>
      </trkpt>
      <trkpt lat="49.60272" lon="5.01099">
        <ele>255.37</ele>
        <time>2018-07-15T08:08:49Z</time>
      </trkpt>
      <trkpt lat="49.60265" lon="5.0107">
        <ele>257.29</ele>
        <time>2018-07-15T08:09:02Z</time>
      </trkpt>
      <trkpt lat="49.60259" lon="5.01052">
        <ele>255.85</ele>
        <time>2018-07-15T08:09:12Z</time>
      </trkpt>
      <trkpt lat="49.60251" lon="5.01032">
        <ele>254.41</ele>
        <time>2018-07-15T08:09:27Z</time>
      </trkpt>
      <trkpt lat="49.60246" lon="5.01014">
        <ele>253.93</ele>
        <time>2018-07-15T08:09:39Z</time>
      </trkpt>
      <trkpt lat="49.6024" lon="5.00989">
        <ele>254.89</ele>
        <time>2018-07-15T08:09:54Z</time>
      </trkpt>
      <trkpt lat="49.60237" lon="5.00971">
        <ele>256.33</ele>
        <time>2018-07-15T08:10:06Z</time>
      </trkpt>
      <trkpt lat="49.60236" lon="5.00962">
        <ele>256.81</ele>
        <time>2018-07-15T08:10:10Z</time>
      </trkpt>
      <trkpt lat="49.60233" lon="5.0094">
        <ele>258.73</ele>
        <time>2018-07-15T08:10:23Z</time>
      </trkpt>
      <trkpt lat="49.6023" lon="5.00934">
        <ele>259.21</ele>
        <time>2018-07-15T08:10:27Z</time>
      </trkpt>
      <trkpt lat="49.60227" lon="5.00925">
        <ele>258.73</ele>
        <time>2018-07-15T08:10:40Z</time>
      </trkpt>
      <trkpt lat="49.60223" lon="5.00914">
        <ele>256.33</ele>
        <time>2018-07-15T08:10:54Z</time>
      </trkpt>
      <trkpt lat="49.60222" lon="5.00912">
        <ele>257.77</ele>
        <time>2018-07-15T08:11:07Z</time>
      </trkpt>
      <trkpt lat="49.60219" lon="5.00895">
        <ele>257.29</ele>
        <time>2018-07-15T08:11:17Z</time>
      </trkpt>
      <trkpt lat="49.60218" lon="5.00878">
        <ele>255.37</ele>
        <time>2018-07-15T08:11:28Z</time>
      </trkpt>
      <trkpt lat="49.60217" lon="5.00872">
        <ele>255.85</ele>
        <time>2018-07-15T08:11:38Z</time>
      </trkpt>
      <trkpt lat="49.60213" lon="5.00851">
        <ele>255.37</ele>
        <time>2018-07-15T08:11:49Z</time>
      </trkpt>
      <trkpt lat="49.60209" lon="5.0084">
        <ele>256.33</ele>
        <time>2018-07-15T08:12:01Z</time>
      </trkpt>
      <trkpt lat="49.60204" lon="5.00821">
        <ele>258.25</ele>
        <time>2018-07-15T08:12:17Z</time>
      </trkpt>
      <trkpt lat="49.60202" lon="5.00815">
        <ele>259.21</ele>
        <time>2018-07-15T08:12:36Z</time>
      </trkpt>
      <trkpt lat="49.60198" lon="5.00802">
        <ele>259.69</ele>
        <time>2018-07-15T08:12:53Z</time>
      </trkpt>
      <trkpt lat="49.60192" lon="5.00788">
        <ele>259.69</ele>
        <time>2018-07-15T08:13:04Z</time>
      </trkpt>
      <trkpt lat="49.60189" lon="5.00777">
        <ele>261.62</ele>
        <time>2018-07-15T08:13:12Z</time>
      </trkpt>
      <trkpt lat="49.60182" lon="5.00764">
        <ele>263.06</ele>
        <time>2018-07-15T08:13:23Z</time>
      </trkpt>
      <trkpt lat="49.60174" lon="5.00745">
        <ele>265.94</ele>
        <time>2018-07-15T08:13:36Z</time>
      </trkpt>
      <trkpt lat="49.60165" lon="5.00727">
        <ele>268.83</ele>
        <time>2018-07-15T08:13:48Z</time>
      </trkpt>
      <trkpt lat="49.60162" lon="5.00719">
        <ele>269.79</ele>
        <time>2018-07-15T08:13:52Z</time>
      </trkpt>
      <trkpt lat="49.6015" lon="5.00696">
        <ele>270.75</ele>
        <time>2018-07-15T08:14:06Z</time>
      </trkpt>
      <trkpt lat="49.60141" lon="5.00676">
        <ele>272.67</ele>
        <time>2018-07-15T08:14:19Z</time>
      </trkpt>
      <trkpt lat="49.60132" lon="5.00657">
        <ele>274.59</ele>
        <time>2018-07-15T08:14:31Z</time>
      </trkpt>
      <trkpt lat="49.60125" lon="5.00638">
        <ele>275.56</ele>
        <time>2018-07-15T08:14:44Z</time>
      </trkpt>
      <trkpt lat="49.60122" lon="5.00633">
        <ele>276.04</ele>
        <time>2018-07-15T08:14:49Z</time>
      </trkpt>
      <trkpt lat="49.60113" lon="5.00614">
        <ele>277</ele>
        <time>2018-07-15T08:15:01Z</time>
      </trkpt>
      <trkpt lat="49.60105" lon="5.00595">
        <ele>277.48</ele>
        <time>2018-07-15T08:15:13Z</time>
      </trkpt>
      <trkpt lat="49.60096" lon="5.00574">
        <ele>277.96</ele>
        <time>2018-07-15T08:15:27Z</time>
      </trkpt>
      <trkpt lat="49.60087" lon="5.00554">
        <ele>278.44</ele>
        <time>2018-07-15T08:15:40Z</time>
      </trkpt>
      <trkpt lat="49.60079" lon="5.00537">
        <ele>278.92</ele>
        <time>2018-07-15T08:15:54Z</time>
      </trkpt>
      <trkpt lat="49.60071" lon="5.0052">
        <ele>279.4</ele>
        <time>2018-07-15T08:16:07Z</time>
      </trkpt>
      <trkpt lat="49.60071" lon="5.00517">
        <ele>278.92</ele>
        <time>2018-07-15T08:16:18Z</time>
      </trkpt>
      <trkpt lat="49.6007" lon="5.00516">
        <ele>278.92</ele>
        <time>2018-07-15T08:16:33Z</time>
      </trkpt>
      <trkpt lat="49.60069" lon="5.00515">
        <ele>278.92</ele>
        <time>2018-07-15T08:16:48Z</time>
      </trkpt>
      <trkpt lat="49.60069" lon="5.00514">
        <ele>278.92</ele>
        <time>2018-07-15T08:16:51Z</time>
      </trkpt>
      <trkpt lat="49.60066" lon="5.00504">
        <ele>278.92</ele>
        <time>2018-07-15T08:16:57Z</time>
      </trkpt>
      <trkpt lat="49.6006" lon="5.00491">
        <ele>279.4</ele>
        <time>2018-07-15T08:17:10Z</time>
      </trkpt>
      <trkpt lat="49.60053" lon="5.00479">
        <ele>280.84</ele>
        <time>2018-07-15T08:17:21Z</time>
      </trkpt>
      <trkpt lat="49.60035" lon="5.00476">
        <ele>283.73</ele>
        <time>2018-07-15T08:17:37Z</time>
      </trkpt>
      <trkpt lat="49.60023" lon="5.00477">
        <ele>284.69</ele>
        <time>2018-07-15T08:17:50Z</time>
      </trkpt>
      <trkpt lat="49.6001" lon="5.00477">
        <ele>284.69</ele>
        <time>2018-07-15T08:18:01Z</time>
      </trkpt>
      <trkpt lat="49.60009" lon="5.00478">
        <ele>284.69</ele>
        <time>2018-07-15T08:18:02Z</time>
      </trkpt>
      <trkpt lat="49.60002" lon="5.00481">
        <ele>285.65</ele>
        <time>2018-07-15T08:18:07Z</time>
      </trkpt>
      <trkpt lat="49.59996" lon="5.00485">
        <ele>286.13</ele>
        <time>2018-07-15T08:18:12Z</time>
      </trkpt>
      <trkpt lat="49.59983" lon="5.00494">
        <ele>284.69</ele>
        <time>2018-07-15T08:18:28Z</time>
      </trkpt>
      <trkpt lat="49.59966" lon="5.00497">
        <ele>283.73</ele>
        <time>2018-07-15T08:18:43Z</time>
      </trkpt>
      <trkpt lat="49.59949" lon="5.00496">
        <ele>287.09</ele>
        <time>2018-07-15T08:18:56Z</time>
      </trkpt>
      <trkpt lat="49.59937" lon="5.00478">
        <ele>284.21</ele>
        <time>2018-07-15T08:19:15Z</time>
      </trkpt>
      <trkpt lat="49.59928" lon="5.0046">
        <ele>283.25</ele>
        <time>2018-07-15T08:19:27Z</time>
      </trkpt>
      <trkpt lat="49.59926" lon="5.00458">
        <ele>283.25</ele>
        <time>2018-07-15T08:19:29Z</time>
      </trkpt>
      <trkpt lat="49.59914" lon="5.00429">
        <ele>284.69</ele>
        <time>2018-07-15T08:19:43Z</time>
      </trkpt>
      <trkpt lat="49.59905" lon="5.00408">
        <ele>285.65</ele>
        <time>2018-07-15T08:20:01Z</time>
      </trkpt>
      <trkpt lat="49.59894" lon="5.00383">
        <ele>284.69</ele>
        <time>2018-07-15T08:20:17Z</time>
      </trkpt>
      <trkpt lat="49.59882" lon="5.0036">
        <ele>289.01</ele>
        <time>2018-07-15T08:20:31Z</time>
      </trkpt>
      <trkpt lat="49.59879" lon="5.00355">
        <ele>289.97</ele>
        <time>2018-07-15T08:20:36Z</time>
      </trkpt>
      <trkpt lat="49.59876" lon="5.00352">
        <ele>290.46</ele>
        <time>2018-07-15T08:20:38Z</time>
      </trkpt>
      <trkpt lat="49.59868" lon="5.0033">
        <ele>295.74</ele>
        <time>2018-07-15T08:20:49Z</time>
      </trkpt>
      <trkpt lat="49.59867" lon="5.00328">
        <ele>296.22</ele>
        <time>2018-07-15T08:20:50Z</time>
      </trkpt>
      <trkpt lat="49.59855" lon="5.00307">
        <ele>302.95</ele>
        <time>2018-07-15T08:21:07Z</time>
      </trkpt>
      <trkpt lat="49.59854" lon="5.00306">
        <ele>302.95</ele>
        <time>2018-07-15T08:21:08Z</time>
      </trkpt>
      <trkpt lat="49.59846" lon="5.00301">
        <ele>305.36</ele>
        <time>2018-07-15T08:21:14Z</time>
      </trkpt>
      <trkpt lat="49.59832" lon="5.00271">
        <ele>312.09</ele>
        <time>2018-07-15T08:21:29Z</time>
      </trkpt>
      <trkpt lat="49.59818" lon="5.00246">
        <ele>315.45</ele>
        <time>2018-07-15T08:21:44Z</time>
      </trkpt>
      <trkpt lat="49.59811" lon="5.0023">
        <ele>316.41</ele>
        <time>2018-07-15T08:21:58Z</time>
      </trkpt>
      <trkpt lat="49.59804" lon="5.0021">
        <ele>315.93</ele>
        <time>2018-07-15T08:22:15Z</time>
      </trkpt>
      <trkpt lat="49.59805" lon="5.002">
        <ele>311.6</ele>
        <time>2018-07-15T08:22:28Z</time>
      </trkpt>
      <trkpt lat="49.59798" lon="5.00191">
        <ele>308.24</ele>
        <time>2018-07-15T08:22:43Z</time>
      </trkpt>
      <trkpt lat="49.59787" lon="5.00174">
        <ele>311.6</ele>
        <time>2018-07-15T08:22:55Z</time>
      </trkpt>
      <trkpt lat="49.59781" lon="5.00167">
        <ele>311.6</ele>
        <time>2018-07-15T08:23:08Z</time>
      </trkpt>
      <trkpt lat="49.5978" lon="5.00157">
        <ele>311.12</ele>
        <time>2018-07-15T08:23:12Z</time>
      </trkpt>
      <trkpt lat="49.59777" lon="5.00133">
        <ele>313.05</ele>
        <time>2018-07-15T08:23:22Z</time>
      </trkpt>
      <trkpt lat="49.59775" lon="5.00125">
        <ele>313.53</ele>
        <time>2018-07-15T08:23:26Z</time>
      </trkpt>
      <trkpt lat="49.59768" lon="5.00101">
        <ele>314.01</ele>
        <time>2018-07-15T08:23:42Z</time>
      </trkpt>
      <trkpt lat="49.59767" lon="5.00097">
        <ele>313.53</ele>
        <time>2018-07-15T08:23:44Z</time>
      </trkpt>
      <trkpt lat="49.59764" lon="5.00083">
        <ele>314.01</ele>
        <time>2018-07-15T08:23:50Z</time>
      </trkpt>
      <trkpt lat="49.59756" lon="5.0005">
        <ele>315.45</ele>
        <time>2018-07-15T08:24:06Z</time>
      </trkpt>
      <trkpt lat="49.59746" lon="5.00023">
        <ele>315.93</ele>
        <time>2018-07-15T08:24:25Z</time>
      </trkpt>
      <trkpt lat="49.59745" lon="5.00018">
        <ele>314.49</ele>
        <time>2018-07-15T08:24:28Z</time>
      </trkpt>
      <trkpt lat="49.5974" lon="4.99977">
        <ele>312.57</ele>
        <time>2018-07-15T08:24:45Z</time>
      </trkpt>
      <trkpt lat="49.59738" lon="4.99971">
        <ele>312.09</ele>
        <time>2018-07-15T08:24:48Z</time>
      </trkpt>
      <trkpt lat="49.59731" lon="4.99956">
        <ele>309.2</ele>
        <time>2018-07-15T08:25:02Z</time>
      </trkpt>
      <trkpt lat="49.59719" lon="4.99949">
        <ele>309.68</ele>
        <time>2018-07-15T08:25:11Z</time>
      </trkpt>
      <trkpt lat="49.59715" lon="4.99939">
        <ele>310.64</ele>
        <time>2018-07-15T08:25:17Z</time>
      </trkpt>
      <trkpt lat="49.59714" lon="4.99913">
        <ele>314.97</ele>
        <time>2018-07-15T08:25:30Z</time>
      </trkpt>
      <trkpt lat="49.59709" lon="4.99906">
        <ele>316.41</ele>
        <time>2018-07-15T08:25:38Z</time>
      </trkpt>
      <trkpt lat="49.59704" lon="4.99893">
        <ele>317.37</ele>
        <time>2018-07-15T08:25:45Z</time>
      </trkpt>
      <trkpt lat="49.59702" lon="4.99881">
        <ele>318.33</ele>
        <time>2018-07-15T08:25:50Z</time>
      </trkpt>
      <trkpt lat="49.59698" lon="4.99867">
        <ele>320.74</ele>
        <time>2018-07-15T08:25:56Z</time>
      </trkpt>
      <trkpt lat="49.59695" lon="4.99863">
        <ele>322.18</ele>
        <time>2018-07-15T08:25:59Z</time>
      </trkpt>
      <trkpt lat="49.59681" lon="4.99835">
        <ele>329.87</ele>
        <time>2018-07-15T08:26:15Z</time>
      </trkpt>
      <trkpt lat="49.59676" lon="4.99823">
        <ele>331.79</ele>
        <time>2018-07-15T08:26:25Z</time>
      </trkpt>
      <trkpt lat="49.59662" lon="4.99807">
        <ele>333.71</ele>
        <time>2018-07-15T08:26:44Z</time>
      </trkpt>
      <trkpt lat="49.59652" lon="4.99777">
        <ele>325.06</ele>
        <time>2018-07-15T08:27:03Z</time>
      </trkpt>
      <trkpt lat="49.59642" lon="4.99757">
        <ele>327.47</ele>
        <time>2018-07-15T08:27:18Z</time>
      </trkpt>
      <trkpt lat="49.59634" lon="4.99739">
        <ele>329.87</ele>
        <time>2018-07-15T08:27:29Z</time>
      </trkpt>
      <trkpt lat="49.59618" lon="4.99725">
        <ele>333.71</ele>
        <time>2018-07-15T08:27:43Z</time>
      </trkpt>
      <trkpt lat="49.59606" lon="4.9971">
        <ele>337.56</ele>
        <time>2018-07-15T08:27:56Z</time>
      </trkpt>
      <trkpt lat="49.59605" lon="4.99695">
        <ele>337.56</ele>
        <time>2018-07-15T08:28:01Z</time>
      </trkpt>
      <trkpt lat="49.59603" lon="4.99677">
        <ele>339</ele>
        <time>2018-07-15T08:28:07Z</time>
      </trkpt>
      <trkpt lat="49.59601" lon="4.99654">
        <ele>340.44</ele>
        <time>2018-07-15T08:28:17Z</time>
      </trkpt>
      <trkpt lat="49.59591" lon="4.99637">
        <ele>346.69</ele>
        <time>2018-07-15T08:28:28Z</time>
      </trkpt>
      <trkpt lat="49.59589" lon="4.99633">
        <ele>348.13</ele>
        <time>2018-07-15T08:28:31Z</time>
      </trkpt>
      <trkpt lat="49.59587" lon="4.9961">
        <ele>351.02</ele>
        <time>2018-07-15T08:28:47Z</time>
      </trkpt>
      <trkpt lat="49.59582" lon="4.996">
        <ele>347.17</ele>
        <time>2018-07-15T08:28:54Z</time>
      </trkpt>
      <trkpt lat="49.59572" lon="4.99593">
        <ele>348.62</ele>
        <time>2018-07-15T08:29:01Z</time>
      </trkpt>
      <trkpt lat="49.59572" lon="4.99582">
        <ele>350.06</ele>
        <time>2018-07-15T08:29:05Z</time>
      </trkpt>
      <trkpt lat="49.59569" lon="4.99571">
        <ele>351.5</ele>
        <time>2018-07-15T08:29:10Z</time>
      </trkpt>
      <trkpt lat="49.59559" lon="4.99549">
        <ele>351.5</ele>
        <time>2018-07-15T08:29:26Z</time>
      </trkpt>
      <trkpt lat="49.59554" lon="4.99541">
        <ele>350.54</ele>
        <time>2018-07-15T08:29:34Z</time>
      </trkpt>
      <trkpt lat="49.59548" lon="4.99522">
        <ele>350.54</ele>
        <time>2018-07-15T08:29:43Z</time>
      </trkpt>
      <trkpt lat="49.59543" lon="4.99507">
        <ele>349.58</ele>
        <time>2018-07-15T08:29:55Z</time>
      </trkpt>
      <trkpt lat="49.59542" lon="4.99503">
        <ele>349.58</ele>
        <time>2018-07-15T08:29:57Z</time>
      </trkpt>
      <trkpt lat="49.59535" lon="4.99478">
        <ele>350.06</ele>
        <time>2018-07-15T08:30:08Z</time>
      </trkpt>
      <trkpt lat="49.59532" lon="4.99455">
        <ele>347.17</ele>
        <time>2018-07-15T08:30:21Z</time>
      </trkpt>
      <trkpt lat="49.59529" lon="4.99449">
        <ele>346.69</ele>
        <time>2018-07-15T08:30:25Z</time>
      </trkpt>
      <trkpt lat="49.59526" lon="4.99442">
        <ele>345.73</ele>
        <time>2018-07-15T08:30:29Z</time>
      </trkpt>
      <trkpt lat="49.59512" lon="4.99416">
        <ele>340.92</ele>
        <time>2018-07-15T08:30:43Z</time>
      </trkpt>
      <trkpt lat="49.59507" lon="4.99401">
        <ele>333.71</ele>
        <time>2018-07-15T08:30:54Z</time>
      </trkpt>
      <trkpt lat="49.5951" lon="4.9937">
        <ele>326.02</ele>
        <time>2018-07-15T08:31:02Z</time>
      </trkpt>
      <trkpt lat="49.59506" lon="4.99343">
        <ele>319.3</ele>
        <time>2018-07-15T08:31:15Z</time>
      </trkpt>
      <trkpt lat="49.59502" lon="4.99328">
        <ele>315.93</ele>
        <time>2018-07-15T08:31:26Z</time>
      </trkpt>
      <trkpt lat="49.59499" lon="4.99317">
        <ele>310.16</ele>
        <time>2018-07-15T08:31:39Z</time>
      </trkpt>
      <trkpt lat="49.59499" lon="4.99316">
        <ele>308.72</ele>
        <time>2018-07-15T08:31:56Z</time>
      </trkpt>
      <trkpt lat="49.59498" lon="4.99315">
        <ele>308.72</ele>
        <time>2018-07-15T08:32:10Z</time>
      </trkpt>
      <trkpt lat="49.59499" lon="4.99314">
        <ele>308.24</ele>
        <time>2018-07-15T08:32:25Z</time>
      </trkpt>
      <trkpt lat="49.595" lon="4.99313">
        <ele>307.76</ele>
        <time>2018-07-15T08:32:37Z</time>
      </trkpt>
      <trkpt lat="49.59511" lon="4.99299">
        <ele>306.32</ele>
        <time>2018-07-15T08:32:50Z</time>
      </trkpt>
      <trkpt lat="49.59525" lon="4.99284">
        <ele>307.28</ele>
        <time>2018-07-15T08:33:07Z</time>
      </trkpt>
      <trkpt lat="49.59535" lon="4.99273">
        <ele>307.76</ele>
        <time>2018-07-15T08:33:22Z</time>
      </trkpt>
      <trkpt lat="49.59547" lon="4.9926">
        <ele>306.32</ele>
        <time>2018-07-15T08:33:35Z</time>
      </trkpt>
      <trkpt lat="49.59561" lon="4.99249">
        <ele>307.28</ele>
        <time>2018-07-15T08:33:47Z</time>
      </trkpt>
      <trkpt lat="49.59565" lon="4.99245">
        <ele>308.24</ele>
        <time>2018-07-15T08:33:51Z</time>
      </trkpt>
      <trkpt lat="49.59575" lon="4.99234">
        <ele>307.76</ele>
        <time>2018-07-15T08:34:04Z</time>
      </trkpt>
      <trkpt lat="49.59577" lon="4.99231">
        <ele>308.24</ele>
        <time>2018-07-15T08:34:18Z</time>
      </trkpt>
      <trkpt lat="49.59584" lon="4.99225">
        <ele>308.72</ele>
        <time>2018-07-15T08:34:33Z</time>
      </trkpt>
      <trkpt lat="49.59596" lon="4.99215">
        <ele>306.8</ele>
        <time>2018-07-15T08:34:46Z</time>
      </trkpt>
      <trkpt lat="49.5961" lon="4.99206">
        <ele>308.72</ele>
        <time>2018-07-15T08:35:03Z</time>
      </trkpt>
      <trkpt lat="49.59627" lon="4.99194">
        <ele>311.12</ele>
        <time>2018-07-15T08:35:15Z</time>
      </trkpt>
      <trkpt lat="49.59633" lon="4.9919">
        <ele>310.16</ele>
        <time>2018-07-15T08:35:31Z</time>
      </trkpt>
      <trkpt lat="49.59641" lon="4.99185">
        <ele>309.68</ele>
        <time>2018-07-15T08:35:47Z</time>
      </trkpt>
      <trkpt lat="49.59644" lon="4.9918">
        <ele>311.6</ele>
        <time>2018-07-15T08:36:13Z</time>
      </trkpt>
      <trkpt lat="49.59646" lon="4.99176">
        <ele>313.53</ele>
        <time>2018-07-15T08:36:42Z</time>
      </trkpt>
      <trkpt lat="49.59647" lon="4.99175">
        <ele>313.53</ele>
        <time>2018-07-15T08:37:09Z</time>
      </trkpt>
      <trkpt lat="49.59649" lon="4.99173">
        <ele>312.09</ele>
        <time>2018-07-15T08:37:30Z</time>
      </trkpt>
      <trkpt lat="49.59649" lon="4.99173">
        <ele>313.05</ele>
        <time>2018-07-15T08:37:56Z</time>
      </trkpt>
      <trkpt lat="49.59651" lon="4.99172">
        <ele>313.05</ele>
        <time>2018-07-15T08:38:26Z</time>
      </trkpt>
      <trkpt lat="49.59651" lon="4.99173">
        <ele>313.05</ele>
        <time>2018-07-15T08:38:52Z</time>
      </trkpt>
      <trkpt lat="49.59651" lon="4.99173">
        <ele>313.53</ele>
        <time>2018-07-15T08:39:18Z</time>
      </trkpt>
      <trkpt lat="49.59651" lon="4.99172">
        <ele>313.53</ele>
        <time>2018-07-15T08:39:48Z</time>
      </trkpt>
      <trkpt lat="49.59652" lon="4.99171">
        <ele>313.05</ele>
        <time>2018-07-15T08:40:14Z</time>
      </trkpt>
      <trkpt lat="49.59652" lon="4.99172">
        <ele>313.05</ele>
        <time>2018-07-15T08:40:37Z</time>
      </trkpt>
      <trkpt lat="49.59652" lon="4.99171">
        <ele>313.05</ele>
        <time>2018-07-15T08:40:55Z</time>
      </trkpt>
      <trkpt lat="49.59652" lon="4.99171">
        <ele>314.01</ele>
        <time>2018-07-15T08:41:23Z</time>
      </trkpt>
      <trkpt lat="49.59651" lon="4.99171">
        <ele>314.49</ele>
        <time>2018-07-15T08:41:47Z</time>
      </trkpt>
      <trkpt lat="49.59651" lon="4.99171">
        <ele>314.01</ele>
        <time>2018-07-15T08:42:10Z</time>
      </trkpt>
      <trkpt lat="49.59652" lon="4.99171">
        <ele>314.49</ele>
        <time>2018-07-15T08:42:35Z</time>
      </trkpt>
      <trkpt lat="49.59652" lon="4.99172">
        <ele>313.53</ele>
        <time>2018-07-15T08:43:03Z</time>
      </trkpt>
      <trkpt lat="49.59653" lon="4.99172">
        <ele>313.05</ele>
        <time>2018-07-15T08:43:26Z</time>
      </trkpt>
      <trkpt lat="49.59655" lon="4.99172">
        <ele>314.01</ele>
        <time>2018-07-15T08:43:42Z</time>
      </trkpt>
      <trkpt lat="49.59661" lon="4.99168">
        <ele>314.01</ele>
        <time>2018-07-15T08:43:55Z</time>
      </trkpt>
      <trkpt lat="49.59674" lon="4.99159">
        <ele>312.57</ele>
        <time>2018-07-15T08:44:09Z</time>
      </trkpt>
      <trkpt lat="49.59687" lon="4.99152">
        <ele>314.01</ele>
        <time>2018-07-15T08:44:23Z</time>
      </trkpt>
      <trkpt lat="49.597" lon="4.99144">
        <ele>314.97</ele>
        <time>2018-07-15T08:44:36Z</time>
      </trkpt>
      <trkpt lat="49.5971" lon="4.99137">
        <ele>317.37</ele>
        <time>2018-07-15T08:44:48Z</time>
      </trkpt>
      <trkpt lat="49.5972" lon="4.99132">
        <ele>319.78</ele>
        <time>2018-07-15T08:45:00Z</time>
      </trkpt>
      <trkpt lat="49.59738" lon="4.99121">
        <ele>321.7</ele>
        <time>2018-07-15T08:45:15Z</time>
      </trkpt>
      <trkpt lat="49.59755" lon="4.9911">
        <ele>319.78</ele>
        <time>2018-07-15T08:45:29Z</time>
      </trkpt>
      <trkpt lat="49.59772" lon="4.99101">
        <ele>315.93</ele>
        <time>2018-07-15T08:45:44Z</time>
      </trkpt>
      <trkpt lat="49.59785" lon="4.99088">
        <ele>315.93</ele>
        <time>2018-07-15T08:45:58Z</time>
      </trkpt>
      <trkpt lat="49.59799" lon="4.9908">
        <ele>317.37</ele>
        <time>2018-07-15T08:46:11Z</time>
      </trkpt>
      <trkpt lat="49.59816" lon="4.99071">
        <ele>318.33</ele>
        <time>2018-07-15T08:46:25Z</time>
      </trkpt>
      <trkpt lat="49.59834" lon="4.99055">
        <ele>316.41</ele>
        <time>2018-07-15T08:46:41Z</time>
      </trkpt>
      <trkpt lat="49.59844" lon="4.99042">
        <ele>315.45</ele>
        <time>2018-07-15T08:46:54Z</time>
      </trkpt>
      <trkpt lat="49.59857" lon="4.99031">
        <ele>315.93</ele>
        <time>2018-07-15T08:47:05Z</time>
      </trkpt>
      <trkpt lat="49.59872" lon="4.99017">
        <ele>316.89</ele>
        <time>2018-07-15T08:47:18Z</time>
      </trkpt>
      <trkpt lat="49.59881" lon="4.99008">
        <ele>317.37</ele>
        <time>2018-07-15T08:47:33Z</time>
      </trkpt>
      <trkpt lat="49.59894" lon="4.98992">
        <ele>316.89</ele>
        <time>2018-07-15T08:47:48Z</time>
      </trkpt>
      <trkpt lat="49.59903" lon="4.9898">
        <ele>316.89</ele>
        <time>2018-07-15T08:47:54Z</time>
      </trkpt>
      <trkpt lat="49.59909" lon="4.98971">
        <ele>316.89</ele>
        <time>2018-07-15T08:48:09Z</time>
      </trkpt>
      <trkpt lat="49.59921" lon="4.98959">
        <ele>316.89</ele>
        <time>2018-07-15T08:48:23Z</time>
      </trkpt>
      <trkpt lat="49.59935" lon="4.9894">
        <ele>317.37</ele>
        <time>2018-07-15T08:48:39Z</time>
      </trkpt>
      <trkpt lat="49.59947" lon="4.98922">
        <ele>316.41</ele>
        <time>2018-07-15T08:48:51Z</time>
      </trkpt>
      <trkpt lat="49.59951" lon="4.98915">
        <ele>317.37</ele>
        <time>2018-07-15T08:49:07Z</time>
      </trkpt>
      <trkpt lat="49.59954" lon="4.9891">
        <ele>316.89</ele>
        <time>2018-07-15T08:49:21Z</time>
      </trkpt>
      <trkpt lat="49.59965" lon="4.98895">
        <ele>318.33</ele>
        <time>2018-07-15T08:49:37Z</time>
      </trkpt>
      <trkpt lat="49.59974" lon="4.98882">
        <ele>318.33</ele>
        <time>2018-07-15T08:49:52Z</time>
      </trkpt>
      <trkpt lat="49.59974" lon="4.98882">
        <ele>318.33</ele>
        <time>2018-07-15T08:49:54Z</time>
      </trkpt>
      <trkpt lat="49.59976" lon="4.98877">
        <ele>317.85</ele>
        <time>2018-07-15T08:49:57Z</time>
      </trkpt>
      <trkpt lat="49.59983" lon="4.9886">
        <ele>315.93</ele>
        <time>2018-07-15T08:50:12Z</time>
      </trkpt>
      <trkpt lat="49.59994" lon="4.98833">
        <ele>314.97</ele>
        <time>2018-07-15T08:50:27Z</time>
      </trkpt>
      <trkpt lat="49.60005" lon="4.98807">
        <ele>313.05</ele>
        <time>2018-07-15T08:50:43Z</time>
      </trkpt>
      <trkpt lat="49.60018" lon="4.98778">
        <ele>314.01</ele>
        <time>2018-07-15T08:51:00Z</time>
      </trkpt>
      <trkpt lat="49.60028" lon="4.98758">
        <ele>314.01</ele>
        <time>2018-07-15T08:51:14Z</time>
      </trkpt>
      <trkpt lat="49.60029" lon="4.98754">
        <ele>314.01</ele>
        <time>2018-07-15T08:51:16Z</time>
      </trkpt>
      <trkpt lat="49.60032" lon="4.98743">
        <ele>313.05</ele>
        <time>2018-07-15T08:51:22Z</time>
      </trkpt>
      <trkpt lat="49.60046" lon="4.9872">
        <ele>313.05</ele>
        <time>2018-07-15T08:51:37Z</time>
      </trkpt>
      <trkpt lat="49.60051" lon="4.98704">
        <ele>315.93</ele>
        <time>2018-07-15T08:51:46Z</time>
      </trkpt>
      <trkpt lat="49.60059" lon="4.98681">
        <ele>319.3</ele>
        <time>2018-07-15T08:51:59Z</time>
      </trkpt>
      <trkpt lat="49.60066" lon="4.98652">
        <ele>317.37</ele>
        <time>2018-07-15T08:52:14Z</time>
      </trkpt>
      <trkpt lat="49.60072" lon="4.98627">
        <ele>314.97</ele>
        <time>2018-07-15T08:52:27Z</time>
      </trkpt>
      <trkpt lat="49.60076" lon="4.98618">
        <ele>314.97</ele>
        <time>2018-07-15T08:52:32Z</time>
      </trkpt>
      <trkpt lat="49.60078" lon="4.98615">
        <ele>315.45</ele>
        <time>2018-07-15T08:52:35Z</time>
      </trkpt>
      <trkpt lat="49.60089" lon="4.98607">
        <ele>316.41</ele>
        <time>2018-07-15T08:52:50Z</time>
      </trkpt>
      <trkpt lat="49.60093" lon="4.9861">
        <ele>315.93</ele>
        <time>2018-07-15T08:52:56Z</time>
      </trkpt>
      <trkpt lat="49.60096" lon="4.98614">
        <ele>315.45</ele>
        <time>2018-07-15T08:53:00Z</time>
      </trkpt>
      <trkpt lat="49.60099" lon="4.98618">
        <ele>314.97</ele>
        <time>2018-07-15T08:53:04Z</time>
      </trkpt>
      <trkpt lat="49.60106" lon="4.98627">
        <ele>314.01</ele>
        <time>2018-07-15T08:53:10Z</time>
      </trkpt>
      <trkpt lat="49.60113" lon="4.98638">
        <ele>309.2</ele>
        <time>2018-07-15T08:53:20Z</time>
      </trkpt>
      <trkpt lat="49.60121" lon="4.98657">
        <ele>307.76</ele>
        <time>2018-07-15T08:53:33Z</time>
      </trkpt>
      <trkpt lat="49.60122" lon="4.98659">
        <ele>307.28</ele>
        <time>2018-07-15T08:53:35Z</time>
      </trkpt>
      <trkpt lat="49.60128" lon="4.9867">
        <ele>304.88</ele>
        <time>2018-07-15T08:53:43Z</time>
      </trkpt>
      <trkpt lat="49.60138" lon="4.98686">
        <ele>303.91</ele>
        <time>2018-07-15T08:53:59Z</time>
      </trkpt>
      <trkpt lat="49.60139" lon="4.98687">
        <ele>303.91</ele>
        <time>2018-07-15T08:54:00Z</time>
      </trkpt>
      <trkpt lat="49.60148" lon="4.98696">
        <ele>303.91</ele>
        <time>2018-07-15T08:54:12Z</time>
      </trkpt>
      <trkpt lat="49.60149" lon="4.98697">
        <ele>303.43</ele>
        <time>2018-07-15T08:54:32Z</time>
      </trkpt>
      <trkpt lat="49.60158" lon="4.98705">
        <ele>301.99</ele>
        <time>2018-07-15T08:54:45Z</time>
      </trkpt>
      <trkpt lat="49.60168" lon="4.98717">
        <ele>301.51</ele>
        <time>2018-07-15T08:55:02Z</time>
      </trkpt>
      <trkpt lat="49.60171" lon="4.98721">
        <ele>302.47</ele>
        <time>2018-07-15T08:55:16Z</time>
      </trkpt>
      <trkpt lat="49.60172" lon="4.98723">
        <ele>302.95</ele>
        <time>2018-07-15T08:55:26Z</time>
      </trkpt>
      <trkpt lat="49.60182" lon="4.98732">
        <ele>302.95</ele>
        <time>2018-07-15T08:55:36Z</time>
      </trkpt>
      <trkpt lat="49.60188" lon="4.9874">
        <ele>302.47</ele>
        <time>2018-07-15T08:55:51Z</time>
      </trkpt>
      <trkpt lat="49.60194" lon="4.98744">
        <ele>302.47</ele>
        <time>2018-07-15T08:56:06Z</time>
      </trkpt>
      <trkpt lat="49.60201" lon="4.98746">
        <ele>302.95</ele>
        <time>2018-07-15T08:56:13Z</time>
      </trkpt>
      <trkpt lat="49.60208" lon="4.98751">
        <ele>304.39</ele>
        <time>2018-07-15T08:56:23Z</time>
      </trkpt>
      <trkpt lat="49.60224" lon="4.9875">
        <ele>306.32</ele>
        <time>2018-07-15T08:56:36Z</time>
      </trkpt>
      <trkpt lat="49.60237" lon="4.98753">
        <ele>308.72</ele>
        <time>2018-07-15T08:56:48Z</time>
      </trkpt>
      <trkpt lat="49.60239" lon="4.98753">
        <ele>308.24</ele>
        <time>2018-07-15T08:57:08Z</time>
      </trkpt>
      <trkpt lat="49.60248" lon="4.98756">
        <ele>308.24</ele>
        <time>2018-07-15T08:57:26Z</time>
      </trkpt>
      <trkpt lat="49.60266" lon="4.98762">
        <ele>307.76</ele>
        <time>2018-07-15T08:57:39Z</time>
      </trkpt>
      <trkpt lat="49.60279" lon="4.98766">
        <ele>311.6</ele>
        <time>2018-07-15T08:57:54Z</time>
      </trkpt>
      <trkpt lat="49.60288" lon="4.98768">
        <ele>314.97</ele>
        <time>2018-07-15T08:58:07Z</time>
      </trkpt>
      <trkpt lat="49.60296" lon="4.98773">
        <ele>315.93</ele>
        <time>2018-07-15T08:58:23Z</time>
      </trkpt>
      <trkpt lat="49.60313" lon="4.9878">
        <ele>317.37</ele>
        <time>2018-07-15T08:58:36Z</time>
      </trkpt>
      <trkpt lat="49.60324" lon="4.9879">
        <ele>321.7</ele>
        <time>2018-07-15T08:58:50Z</time>
      </trkpt>
      <trkpt lat="49.60334" lon="4.98794">
        <ele>322.18</ele>
        <time>2018-07-15T08:59:06Z</time>
      </trkpt>
      <trkpt lat="49.60341" lon="4.98797">
        <ele>322.66</ele>
        <time>2018-07-15T08:59:14Z</time>
      </trkpt>
      <trkpt lat="49.60355" lon="4.98806">
        <ele>321.7</ele>
        <time>2018-07-15T08:59:25Z</time>
      </trkpt>
      <trkpt lat="49.60374" lon="4.98808">
        <ele>324.58</ele>
        <time>2018-07-15T08:59:43Z</time>
      </trkpt>
      <trkpt lat="49.60397" lon="4.98814">
        <ele>326.02</ele>
        <time>2018-07-15T08:59:59Z</time>
      </trkpt>
      <trkpt lat="49.60412" lon="4.98828">
        <ele>322.18</ele>
        <time>2018-07-15T09:00:13Z</time>
      </trkpt>
      <trkpt lat="49.60429" lon="4.98835">
        <ele>321.22</ele>
        <time>2018-07-15T09:00:28Z</time>
      </trkpt>
      <trkpt lat="49.60443" lon="4.98842">
        <ele>321.7</ele>
        <time>2018-07-15T09:00:40Z</time>
      </trkpt>
      <trkpt lat="49.60463" lon="4.98857">
        <ele>320.74</ele>
        <time>2018-07-15T09:00:56Z</time>
      </trkpt>
      <trkpt lat="49.60473" lon="4.98866">
        <ele>319.78</ele>
        <time>2018-07-15T09:01:10Z</time>
      </trkpt>
      <trkpt lat="49.60476" lon="4.98867">
        <ele>319.3</ele>
        <time>2018-07-15T09:01:17Z</time>
      </trkpt>
      <trkpt lat="49.60491" lon="4.98874">
        <ele>323.14</ele>
        <time>2018-07-15T09:01:34Z</time>
      </trkpt>
      <trkpt lat="49.60493" lon="4.98875">
        <ele>323.62</ele>
        <time>2018-07-15T09:01:36Z</time>
      </trkpt>
      <trkpt lat="49.60512" lon="4.98884">
        <ele>326.02</ele>
        <time>2018-07-15T09:01:52Z</time>
      </trkpt>
      <trkpt lat="49.60523" lon="4.98887">
        <ele>326.5</ele>
        <time>2018-07-15T09:02:04Z</time>
      </trkpt>
      <trkpt lat="49.60538" lon="4.98895">
        <ele>323.14</ele>
        <time>2018-07-15T09:02:18Z</time>
      </trkpt>
      <trkpt lat="49.60554" lon="4.98904">
        <ele>320.26</ele>
        <time>2018-07-15T09:02:32Z</time>
      </trkpt>
      <trkpt lat="49.60566" lon="4.98908">
        <ele>319.3</ele>
        <time>2018-07-15T09:02:44Z</time>
      </trkpt>
      <trkpt lat="49.60572" lon="4.9891">
        <ele>319.3</ele>
        <time>2018-07-15T09:02:48Z</time>
      </trkpt>
      <trkpt lat="49.60598" lon="4.98915">
        <ele>314.01</ele>
        <time>2018-07-15T09:03:07Z</time>
      </trkpt>
      <trkpt lat="49.60608" lon="4.98917">
        <ele>315.93</ele>
        <time>2018-07-15T09:03:18Z</time>
      </trkpt>
      <trkpt lat="49.6061" lon="4.98917">
        <ele>315.93</ele>
        <time>2018-07-15T09:03:20Z</time>
      </trkpt>
      <trkpt lat="49.60618" lon="4.98914">
        <ele>316.41</ele>
        <time>2018-07-15T09:03:26Z</time>
      </trkpt>
      <trkpt lat="49.60621" lon="4.98911">
        <ele>317.85</ele>
        <time>2018-07-15T09:03:30Z</time>
      </trkpt>
      <trkpt lat="49.60631" lon="4.98904">
        <ele>319.3</ele>
        <time>2018-07-15T09:03:47Z</time>
      </trkpt>
      <trkpt lat="49.60637" lon="4.98899">
        <ele>317.37</ele>
        <time>2018-07-15T09:04:03Z</time>
      </trkpt>
      <trkpt lat="49.60641" lon="4.98894">
        <ele>317.85</ele>
        <time>2018-07-15T09:04:18Z</time>
      </trkpt>
      <trkpt lat="49.60645" lon="4.98889">
        <ele>316.89</ele>
        <time>2018-07-15T09:04:32Z</time>
      </trkpt>
      <trkpt lat="49.6065" lon="4.98881">
        <ele>316.89</ele>
        <time>2018-07-15T09:04:46Z</time>
      </trkpt>
      <trkpt lat="49.60657" lon="4.98867">
        <ele>315.93</ele>
        <time>2018-07-15T09:05:00Z</time>
      </trkpt>
      <trkpt lat="49.60667" lon="4.98847">
        <ele>315.45</ele>
        <time>2018-07-15T09:05:13Z</time>
      </trkpt>
      <trkpt lat="49.60681" lon="4.98817">
        <ele>316.41</ele>
        <time>2018-07-15T09:05:25Z</time>
      </trkpt>
      <trkpt lat="49.60694" lon="4.98796">
        <ele>318.81</ele>
        <time>2018-07-15T09:05:39Z</time>
      </trkpt>
      <trkpt lat="49.60702" lon="4.98775">
        <ele>318.33</ele>
        <time>2018-07-15T09:05:51Z</time>
      </trkpt>
      <trkpt lat="49.60712" lon="4.98749">
        <ele>315.45</ele>
        <time>2018-07-15T09:06:06Z</time>
      </trkpt>
      <trkpt lat="49.60722" lon="4.98726">
        <ele>312.57</ele>
        <time>2018-07-15T09:06:23Z</time>
      </trkpt>
      <trkpt lat="49.60729" lon="4.98702">
        <ele>311.12</ele>
        <time>2018-07-15T09:06:39Z</time>
      </trkpt>
      <trkpt lat="49.60737" lon="4.98684">
        <ele>309.2</ele>
        <time>2018-07-15T09:06:52Z</time>
      </trkpt>
      <trkpt lat="49.60748" lon="4.98661">
        <ele>310.64</ele>
        <time>2018-07-15T09:07:08Z</time>
      </trkpt>
      <trkpt lat="49.60755" lon="4.98652">
        <ele>308.24</ele>
        <time>2018-07-15T09:07:21Z</time>
      </trkpt>
      <trkpt lat="49.60758" lon="4.98648">
        <ele>307.76</ele>
        <time>2018-07-15T09:07:26Z</time>
      </trkpt>
      <trkpt lat="49.60763" lon="4.98638">
        <ele>306.8</ele>
        <time>2018-07-15T09:07:33Z</time>
      </trkpt>
      <trkpt lat="49.60775" lon="4.9862">
        <ele>304.88</ele>
        <time>2018-07-15T09:07:50Z</time>
      </trkpt>
      <trkpt lat="49.6078" lon="4.98614">
        <ele>305.36</ele>
        <time>2018-07-15T09:08:04Z</time>
      </trkpt>
      <trkpt lat="49.60783" lon="4.98609">
        <ele>305.36</ele>
        <time>2018-07-15T09:08:22Z</time>
      </trkpt>
      <trkpt lat="49.6079" lon="4.98597">
        <ele>306.8</ele>
        <time>2018-07-15T09:08:39Z</time>
      </trkpt>
      <trkpt lat="49.60802" lon="4.98577">
        <ele>307.28</ele>
        <time>2018-07-15T09:08:53Z</time>
      </trkpt>
      <trkpt lat="49.60812" lon="4.98557">
        <ele>309.2</ele>
        <time>2018-07-15T09:09:06Z</time>
      </trkpt>
      <trkpt lat="49.60821" lon="4.98538">
        <ele>309.2</ele>
        <time>2018-07-15T09:09:18Z</time>
      </trkpt>
      <trkpt lat="49.60831" lon="4.98514">
        <ele>308.72</ele>
        <time>2018-07-15T09:09:31Z</time>
      </trkpt>
      <trkpt lat="49.6084" lon="4.98496">
        <ele>309.2</ele>
        <time>2018-07-15T09:09:46Z</time>
      </trkpt>
      <trkpt lat="49.60842" lon="4.98489">
        <ele>308.24</ele>
        <time>2018-07-15T09:09:52Z</time>
      </trkpt>
      <trkpt lat="49.6085" lon="4.98466">
        <ele>306.32</ele>
        <time>2018-07-15T09:10:06Z</time>
      </trkpt>
      <trkpt lat="49.60858" lon="4.98448">
        <ele>308.72</ele>
        <time>2018-07-15T09:10:21Z</time>
      </trkpt>
      <trkpt lat="49.60862" lon="4.98435">
        <ele>311.12</ele>
        <time>2018-07-15T09:10:41Z</time>
      </trkpt>
      <trkpt lat="49.60865" lon="4.98429">
        <ele>313.53</ele>
        <time>2018-07-15T09:11:04Z</time>
      </trkpt>
      <trkpt lat="49.60864" lon="4.98426">
        <ele>314.97</ele>
        <time>2018-07-15T09:11:20Z</time>
      </trkpt>
      <trkpt lat="49.60866" lon="4.98425">
        <ele>315.45</ele>
        <time>2018-07-15T09:11:43Z</time>
      </trkpt>
      <trkpt lat="49.60868" lon="4.98422">
        <ele>316.89</ele>
        <time>2018-07-15T09:11:57Z</time>
      </trkpt>
      <trkpt lat="49.60871" lon="4.98417">
        <ele>317.37</ele>
        <time>2018-07-15T09:12:06Z</time>
      </trkpt>
      <trkpt lat="49.60874" lon="4.98411">
        <ele>319.3</ele>
        <time>2018-07-15T09:12:20Z</time>
      </trkpt>
      <trkpt lat="49.60877" lon="4.98404">
        <ele>318.81</ele>
        <time>2018-07-15T09:12:35Z</time>
      </trkpt>
      <trkpt lat="49.60884" lon="4.98389">
        <ele>320.26</ele>
        <time>2018-07-15T09:12:47Z</time>
      </trkpt>
      <trkpt lat="49.60887" lon="4.98381">
        <ele>320.26</ele>
        <time>2018-07-15T09:12:56Z</time>
      </trkpt>
      <trkpt lat="49.60889" lon="4.98373">
        <ele>321.7</ele>
        <time>2018-07-15T09:13:08Z</time>
      </trkpt>
      <trkpt lat="49.60894" lon="4.98358">
        <ele>322.18</ele>
        <time>2018-07-15T09:13:22Z</time>
      </trkpt>
      <trkpt lat="49.60899" lon="4.9834">
        <ele>321.22</ele>
        <time>2018-07-15T09:13:37Z</time>
      </trkpt>
      <trkpt lat="49.60904" lon="4.9832">
        <ele>318.33</ele>
        <time>2018-07-15T09:13:50Z</time>
      </trkpt>
      <trkpt lat="49.60909" lon="4.98306">
        <ele>317.85</ele>
        <time>2018-07-15T09:13:57Z</time>
      </trkpt>
      <trkpt lat="49.60917" lon="4.98285">
        <ele>317.37</ele>
        <time>2018-07-15T09:14:10Z</time>
      </trkpt>
      <trkpt lat="49.60922" lon="4.98272">
        <ele>317.37</ele>
        <time>2018-07-15T09:14:19Z</time>
      </trkpt>
      <trkpt lat="49.6093" lon="4.98253">
        <ele>317.85</ele>
        <time>2018-07-15T09:14:32Z</time>
      </trkpt>
      <trkpt lat="49.60936" lon="4.98236">
        <ele>314.97</ele>
        <time>2018-07-15T09:14:46Z</time>
      </trkpt>
      <trkpt lat="49.60943" lon="4.98221">
        <ele>314.97</ele>
        <time>2018-07-15T09:14:59Z</time>
      </trkpt>
      <trkpt lat="49.60948" lon="4.98214">
        <ele>316.41</ele>
        <time>2018-07-15T09:15:11Z</time>
      </trkpt>
      <trkpt lat="49.60955" lon="4.98198">
        <ele>315.45</ele>
        <time>2018-07-15T09:15:26Z</time>
      </trkpt>
      <trkpt lat="49.60959" lon="4.9819">
        <ele>315.93</ele>
        <time>2018-07-15T09:15:36Z</time>
      </trkpt>
      <trkpt lat="49.60969" lon="4.98167">
        <ele>316.89</ele>
        <time>2018-07-15T09:15:52Z</time>
      </trkpt>
      <trkpt lat="49.60982" lon="4.9814">
        <ele>317.85</ele>
        <time>2018-07-15T09:16:07Z</time>
      </trkpt>
      <trkpt lat="49.60995" lon="4.98122">
        <ele>314.49</ele>
        <time>2018-07-15T09:16:21Z</time>
      </trkpt>
      <trkpt lat="49.61002" lon="4.98115">
        <ele>313.05</ele>
        <time>2018-07-15T09:16:41Z</time>
      </trkpt>
      <trkpt lat="49.61006" lon="4.98114">
        <ele>313.05</ele>
        <time>2018-07-15T09:17:02Z</time>
      </trkpt>
      <trkpt lat="49.61008" lon="4.98108">
        <ele>313.53</ele>
        <time>2018-07-15T09:17:20Z</time>
      </trkpt>
      <trkpt lat="49.61019" lon="4.98091">
        <ele>314.97</ele>
        <time>2018-07-15T09:17:37Z</time>
      </trkpt>
      <trkpt lat="49.61035" lon="4.98064">
        <ele>315.93</ele>
        <time>2018-07-15T09:17:54Z</time>
      </trkpt>
      <trkpt lat="49.61043" lon="4.98049">
        <ele>313.05</ele>
        <time>2018-07-15T09:18:11Z</time>
      </trkpt>
      <trkpt lat="49.61053" lon="4.98034">
        <ele>312.57</ele>
        <time>2018-07-15T09:18:22Z</time>
      </trkpt>
      <trkpt lat="49.61063" lon="4.98018">
        <ele>311.12</ele>
        <time>2018-07-15T09:18:34Z</time>
      </trkpt>
      <trkpt lat="49.61071" lon="4.98002">
        <ele>310.64</ele>
        <time>2018-07-15T09:18:49Z</time>
      </trkpt>
      <trkpt lat="49.61086" lon="4.97978">
        <ele>310.64</ele>
        <time>2018-07-15T09:19:03Z</time>
      </trkpt>
      <trkpt lat="49.61101" lon="4.97957">
        <ele>314.49</ele>
        <time>2018-07-15T09:19:19Z</time>
      </trkpt>
      <trkpt lat="49.61114" lon="4.9794">
        <ele>318.81</ele>
        <time>2018-07-15T09:19:34Z</time>
      </trkpt>
      <trkpt lat="49.61124" lon="4.97923">
        <ele>319.78</ele>
        <time>2018-07-15T09:19:53Z</time>
      </trkpt>
      <trkpt lat="49.61129" lon="4.97915">
        <ele>317.85</ele>
        <time>2018-07-15T09:20:08Z</time>
      </trkpt>
      <trkpt lat="49.61132" lon="4.9791">
        <ele>316.41</ele>
        <time>2018-07-15T09:20:26Z</time>
      </trkpt>
      <trkpt lat="49.61144" lon="4.97892">
        <ele>317.85</ele>
        <time>2018-07-15T09:20:42Z</time>
      </trkpt>
      <trkpt lat="49.61161" lon="4.9787">
        <ele>317.85</ele>
        <time>2018-07-15T09:20:58Z</time>
      </trkpt>
      <trkpt lat="49.61171" lon="4.97852">
        <ele>315.93</ele>
        <time>2018-07-15T09:21:12Z</time>
      </trkpt>
      <trkpt lat="49.61182" lon="4.97834">
        <ele>314.01</ele>
        <time>2018-07-15T09:21:26Z</time>
      </trkpt>
      <trkpt lat="49.612" lon="4.97809">
        <ele>309.2</ele>
        <time>2018-07-15T09:21:41Z</time>
      </trkpt>
      <trkpt lat="49.61206" lon="4.97803">
        <ele>309.68</ele>
        <time>2018-07-15T09:21:58Z</time>
      </trkpt>
      <trkpt lat="49.61212" lon="4.97794">
        <ele>309.2</ele>
        <time>2018-07-15T09:22:09Z</time>
      </trkpt>
      <trkpt lat="49.61218" lon="4.97788">
        <ele>307.76</ele>
        <time>2018-07-15T09:22:22Z</time>
      </trkpt>
      <trkpt lat="49.61222" lon="4.97786">
        <ele>305.36</ele>
        <time>2018-07-15T09:22:30Z</time>
      </trkpt>
      <trkpt lat="49.61237" lon="4.97775">
        <ele>300.07</ele>
        <time>2018-07-15T09:22:43Z</time>
      </trkpt>
      <trkpt lat="49.61248" lon="4.97768">
        <ele>296.22</ele>
        <time>2018-07-15T09:22:54Z</time>
      </trkpt>
      <trkpt lat="49.61253" lon="4.97767">
        <ele>294.78</ele>
        <time>2018-07-15T09:23:01Z</time>
      </trkpt>
      <trkpt lat="49.61255" lon="4.97768">
        <ele>294.78</ele>
        <time>2018-07-15T09:23:03Z</time>
      </trkpt>
      <trkpt lat="49.61268" lon="4.9776">
        <ele>291.42</ele>
        <time>2018-07-15T09:23:16Z</time>
      </trkpt>
      <trkpt lat="49.61275" lon="4.97756">
        <ele>290.46</ele>
        <time>2018-07-15T09:23:30Z</time>
      </trkpt>
      <trkpt lat="49.61276" lon="4.97757">
        <ele>289.97</ele>
        <time>2018-07-15T09:23:43Z</time>
      </trkpt>
      <trkpt lat="49.61278" lon="4.97773">
        <ele>289.49</ele>
        <time>2018-07-15T09:23:59Z</time>
      </trkpt>
      <trkpt lat="49.61277" lon="4.97791">
        <ele>290.46</ele>
        <time>2018-07-15T09:24:16Z</time>
      </trkpt>
      <trkpt lat="49.61276" lon="4.97804">
        <ele>291.9</ele>
        <time>2018-07-15T09:24:32Z</time>
      </trkpt>
      <trkpt lat="49.61275" lon="4.97836">
        <ele>295.74</ele>
        <time>2018-07-15T09:24:50Z</time>
      </trkpt>
      <trkpt lat="49.61276" lon="4.97858">
        <ele>297.18</ele>
        <time>2018-07-15T09:25:05Z</time>
      </trkpt>
      <trkpt lat="49.6127" lon="4.97861">
        <ele>298.15</ele>
        <time>2018-07-15T09:25:20Z</time>
      </trkpt>
      <trkpt lat="49.61266" lon="4.97856">
        <ele>301.03</ele>
        <time>2018-07-15T09:25:39Z</time>
      </trkpt>
      <trkpt lat="49.61263" lon="4.97862">
        <ele>301.99</ele>
        <time>2018-07-15T09:25:48Z</time>
      </trkpt>
      <trkpt lat="49.61268" lon="4.97875">
        <ele>303.43</ele>
        <time>2018-07-15T09:26:00Z</time>
      </trkpt>
      <trkpt lat="49.61273" lon="4.97883">
        <ele>303.91</ele>
        <time>2018-07-15T09:26:16Z</time>
      </trkpt>
      <trkpt lat="49.61272" lon="4.97893">
        <ele>304.88</ele>
        <time>2018-07-15T09:26:30Z</time>
      </trkpt>
      <trkpt lat="49.61265" lon="4.97912">
        <ele>305.36</ele>
        <time>2018-07-15T09:26:45Z</time>
      </trkpt>
      <trkpt lat="49.61263" lon="4.97931">
        <ele>301.51</ele>
        <time>2018-07-15T09:26:58Z</time>
      </trkpt>
      <trkpt lat="49.61266" lon="4.97943">
        <ele>300.07</ele>
        <time>2018-07-15T09:27:16Z</time>
      </trkpt>
      <trkpt lat="49.61266" lon="4.97956">
        <ele>299.59</ele>
        <time>2018-07-15T09:27:33Z</time>
      </trkpt>
      <trkpt lat="49.61263" lon="4.97972">
        <ele>301.03</ele>
        <time>2018-07-15T09:27:50Z</time>
      </trkpt>
      <trkpt lat="49.61261" lon="4.97973">
        <ele>300.55</ele>
        <time>2018-07-15T09:28:06Z</time>
      </trkpt>
      <trkpt lat="49.6126" lon="4.97977">
        <ele>300.55</ele>
        <time>2018-07-15T09:28:22Z</time>
      </trkpt>
      <trkpt lat="49.61257" lon="4.97997">
        <ele>302.47</ele>
        <time>2018-07-15T09:28:35Z</time>
      </trkpt>
      <trkpt lat="49.61258" lon="4.98029">
        <ele>303.43</ele>
        <time>2018-07-15T09:28:52Z</time>
      </trkpt>
      <trkpt lat="49.61253" lon="4.98069">
        <ele>307.76</ele>
        <time>2018-07-15T09:29:11Z</time>
      </trkpt>
      <trkpt lat="49.61254" lon="4.98078">
        <ele>308.72</ele>
        <time>2018-07-15T09:29:15Z</time>
      </trkpt>
      <trkpt lat="49.61254" lon="4.98097">
        <ele>309.68</ele>
        <time>2018-07-15T09:29:23Z</time>
      </trkpt>
      <trkpt lat="49.61253" lon="4.98129">
        <ele>307.76</ele>
        <time>2018-07-15T09:29:40Z</time>
      </trkpt>
      <trkpt lat="49.61252" lon="4.98159">
        <ele>309.68</ele>
        <time>2018-07-15T09:29:56Z</time>
      </trkpt>
      <trkpt lat="49.61249" lon="4.98194">
        <ele>311.12</ele>
        <time>2018-07-15T09:30:14Z</time>
      </trkpt>
      <trkpt lat="49.61244" lon="4.98216">
        <ele>310.64</ele>
        <time>2018-07-15T09:30:28Z</time>
      </trkpt>
      <trkpt lat="49.6124" lon="4.98237">
        <ele>312.09</ele>
        <time>2018-07-15T09:30:40Z</time>
      </trkpt>
      <trkpt lat="49.61231" lon="4.98263">
        <ele>317.37</ele>
        <time>2018-07-15T09:30:57Z</time>
      </trkpt>
      <trkpt lat="49.61226" lon="4.98288">
        <ele>318.33</ele>
        <time>2018-07-15T09:31:11Z</time>
      </trkpt>
      <trkpt lat="49.61221" lon="4.98313">
        <ele>318.33</ele>
        <time>2018-07-15T09:31:26Z</time>
      </trkpt>
      <trkpt lat="49.61219" lon="4.9834">
        <ele>318.33</ele>
        <time>2018-07-15T09:31:42Z</time>
      </trkpt>
      <trkpt lat="49.61221" lon="4.98373">
        <ele>319.3</ele>
        <time>2018-07-15T09:31:59Z</time>
      </trkpt>
      <trkpt lat="49.61224" lon="4.98393">
        <ele>319.78</ele>
        <time>2018-07-15T09:32:16Z</time>
      </trkpt>
      <trkpt lat="49.6123" lon="4.98407">
        <ele>319.78</ele>
        <time>2018-07-15T09:32:33Z</time>
      </trkpt>
      <trkpt lat="49.61238" lon="4.98424">
        <ele>321.7</ele>
        <time>2018-07-15T09:32:49Z</time>
      </trkpt>
      <trkpt lat="49.6125" lon="4.98448">
        <ele>319.3</ele>
        <time>2018-07-15T09:33:04Z</time>
      </trkpt>
      <trkpt lat="49.61264" lon="4.98476">
        <ele>318.81</ele>
        <time>2018-07-15T09:33:22Z</time>
      </trkpt>
      <trkpt lat="49.61274" lon="4.98498">
        <ele>317.37</ele>
        <time>2018-07-15T09:33:36Z</time>
      </trkpt>
      <trkpt lat="49.61287" lon="4.98512">
        <ele>314.49</ele>
        <time>2018-07-15T09:33:52Z</time>
      </trkpt>
      <trkpt lat="49.61294" lon="4.98513">
        <ele>314.01</ele>
        <time>2018-07-15T09:34:12Z</time>
      </trkpt>
      <trkpt lat="49.61298" lon="4.98519">
        <ele>313.05</ele>
        <time>2018-07-15T09:34:31Z</time>
      </trkpt>
      <trkpt lat="49.61302" lon="4.98525">
        <ele>313.05</ele>
        <time>2018-07-15T09:34:50Z</time>
      </trkpt>
      <trkpt lat="49.61305" lon="4.98532">
        <ele>313.53</ele>
        <time>2018-07-15T09:35:05Z</time>
      </trkpt>
      <trkpt lat="49.6131" lon="4.98543">
        <ele>314.97</ele>
        <time>2018-07-15T09:35:20Z</time>
      </trkpt>
      <trkpt lat="49.61313" lon="4.98549">
        <ele>314.97</ele>
        <time>2018-07-15T09:35:32Z</time>
      </trkpt>
      <trkpt lat="49.61316" lon="4.98557">
        <ele>315.93</ele>
        <time>2018-07-15T09:35:47Z</time>
      </trkpt>
      <trkpt lat="49.61329" lon="4.98583">
        <ele>315.93</ele>
        <time>2018-07-15T09:36:03Z</time>
      </trkpt>
      <trkpt lat="49.61344" lon="4.98619">
        <ele>314.01</ele>
        <time>2018-07-15T09:36:19Z</time>
      </trkpt>
      <trkpt lat="49.6136" lon="4.98653">
        <ele>315.45</ele>
        <time>2018-07-15T09:36:34Z</time>
      </trkpt>
      <trkpt lat="49.61374" lon="4.98671">
        <ele>315.93</ele>
        <time>2018-07-15T09:36:49Z</time>
      </trkpt>
      <trkpt lat="49.61379" lon="4.98679">
        <ele>315.93</ele>
        <time>2018-07-15T09:37:05Z</time>
      </trkpt>
      <trkpt lat="49.61383" lon="4.98689">
        <ele>313.53</ele>
        <time>2018-07-15T09:37:21Z</time>
      </trkpt>
      <trkpt lat="49.61385" lon="4.98692">
        <ele>313.05</ele>
        <time>2018-07-15T09:37:37Z</time>
      </trkpt>
      <trkpt lat="49.61388" lon="4.98698">
        <ele>313.05</ele>
        <time>2018-07-15T09:37:55Z</time>
      </trkpt>
      <trkpt lat="49.61389" lon="4.98701">
        <ele>313.05</ele>
        <time>2018-07-15T09:37:57Z</time>
      </trkpt>
      <trkpt lat="49.61403" lon="4.98727">
        <ele>314.49</ele>
        <time>2018-07-15T09:38:14Z</time>
      </trkpt>
      <trkpt lat="49.61414" lon="4.98745">
        <ele>313.53</ele>
        <time>2018-07-15T09:38:30Z</time>
      </trkpt>
      <trkpt lat="49.61419" lon="4.9875">
        <ele>313.53</ele>
        <time>2018-07-15T09:38:50Z</time>
      </trkpt>
      <trkpt lat="49.6142" lon="4.98751">
        <ele>314.01</ele>
        <time>2018-07-15T09:38:52Z</time>
      </trkpt>
      <trkpt lat="49.61424" lon="4.98757">
        <ele>314.49</ele>
        <time>2018-07-15T09:39:04Z</time>
      </trkpt>
      <trkpt lat="49.61427" lon="4.98758">
        <ele>314.49</ele>
        <time>2018-07-15T09:39:06Z</time>
      </trkpt>
      <trkpt lat="49.61437" lon="4.98766">
        <ele>315.45</ele>
        <time>2018-07-15T09:39:21Z</time>
      </trkpt>
      <trkpt lat="49.61453" lon="4.98771">
        <ele>315.45</ele>
        <time>2018-07-15T09:39:36Z</time>
      </trkpt>
      <trkpt lat="49.61477" lon="4.98785">
        <ele>322.18</ele>
        <time>2018-07-15T09:39:51Z</time>
      </trkpt>
      <trkpt lat="49.6149" lon="4.98789">
        <ele>323.14</ele>
        <time>2018-07-15T09:40:03Z</time>
      </trkpt>
      <trkpt lat="49.61508" lon="4.98795">
        <ele>322.18</ele>
        <time>2018-07-15T09:40:19Z</time>
      </trkpt>
      <trkpt lat="49.61528" lon="4.988">
        <ele>318.81</ele>
        <time>2018-07-15T09:40:34Z</time>
      </trkpt>
      <trkpt lat="49.61546" lon="4.98814">
        <ele>316.89</ele>
        <time>2018-07-15T09:40:49Z</time>
      </trkpt>
      <trkpt lat="49.61565" lon="4.98825">
        <ele>312.57</ele>
        <time>2018-07-15T09:41:04Z</time>
      </trkpt>
      <trkpt lat="49.61579" lon="4.98838">
        <ele>310.16</ele>
        <time>2018-07-15T09:41:20Z</time>
      </trkpt>
      <trkpt lat="49.61589" lon="4.98845">
        <ele>307.76</ele>
        <time>2018-07-15T09:41:35Z</time>
      </trkpt>
      <trkpt lat="49.61594" lon="4.98853">
        <ele>308.24</ele>
        <time>2018-07-15T09:41:49Z</time>
      </trkpt>
      <trkpt lat="49.6161" lon="4.98866">
        <ele>306.32</ele>
        <time>2018-07-15T09:42:03Z</time>
      </trkpt>
      <trkpt lat="49.61627" lon="4.9887">
        <ele>303.91</ele>
        <time>2018-07-15T09:42:19Z</time>
      </trkpt>
      <trkpt lat="49.61639" lon="4.98855">
        <ele>300.55</ele>
        <time>2018-07-15T09:42:35Z</time>
      </trkpt>
      <trkpt lat="49.61647" lon="4.98842">
        <ele>300.07</ele>
        <time>2018-07-15T09:42:52Z</time>
      </trkpt>
      <trkpt lat="49.61652" lon="4.98831">
        <ele>301.03</ele>
        <time>2018-07-15T09:43:07Z</time>
      </trkpt>
      <trkpt lat="49.61656" lon="4.98824">
        <ele>300.07</ele>
        <time>2018-07-15T09:43:32Z</time>
      </trkpt>
      <trkpt lat="49.61659" lon="4.98815">
        <ele>299.59</ele>
        <time>2018-07-15T09:43:52Z</time>
      </trkpt>
      <trkpt lat="49.61661" lon="4.98811">
        <ele>301.03</ele>
        <time>2018-07-15T09:44:07Z</time>
      </trkpt>
      <trkpt lat="49.61665" lon="4.98804">
        <ele>301.51</ele>
        <time>2018-07-15T09:44:17Z</time>
      </trkpt>
      <trkpt lat="49.61674" lon="4.98789">
        <ele>300.55</ele>
        <time>2018-07-15T09:44:35Z</time>
      </trkpt>
      <trkpt lat="49.61678" lon="4.98776">
        <ele>301.03</ele>
        <time>2018-07-15T09:44:51Z</time>
      </trkpt>
      <trkpt lat="49.61682" lon="4.98766">
        <ele>300.55</ele>
        <time>2018-07-15T09:45:09Z</time>
      </trkpt>
      <trkpt lat="49.61689" lon="4.98754">
        <ele>301.03</ele>
        <time>2018-07-15T09:45:24Z</time>
      </trkpt>
      <trkpt lat="49.61698" lon="4.98739">
        <ele>302.47</ele>
        <time>2018-07-15T09:45:41Z</time>
      </trkpt>
      <trkpt lat="49.61709" lon="4.98722">
        <ele>302.47</ele>
        <time>2018-07-15T09:45:58Z</time>
      </trkpt>
      <trkpt lat="49.61712" lon="4.98713">
        <ele>303.43</ele>
        <time>2018-07-15T09:46:15Z</time>
      </trkpt>
      <trkpt lat="49.61718" lon="4.98701">
        <ele>304.39</ele>
        <time>2018-07-15T09:46:34Z</time>
      </trkpt>
      <trkpt lat="49.61721" lon="4.98683">
        <ele>307.76</ele>
        <time>2018-07-15T09:46:48Z</time>
      </trkpt>
      <trkpt lat="49.61723" lon="4.98672">
        <ele>310.16</ele>
        <time>2018-07-15T09:47:06Z</time>
      </trkpt>
      <trkpt lat="49.61726" lon="4.98657">
        <ele>310.64</ele>
        <time>2018-07-15T09:47:19Z</time>
      </trkpt>
      <trkpt lat="49.61731" lon="4.98638">
        <ele>308.72</ele>
        <time>2018-07-15T09:47:39Z</time>
      </trkpt>
      <trkpt lat="49.61733" lon="4.98628">
        <ele>307.76</ele>
        <time>2018-07-15T09:47:52Z</time>
      </trkpt>
      <trkpt lat="49.61733" lon="4.98623">
        <ele>306.8</ele>
        <time>2018-07-15T09:48:11Z</time>
      </trkpt>
      <trkpt lat="49.61733" lon="4.98612">
        <ele>308.24</ele>
        <time>2018-07-15T09:48:29Z</time>
      </trkpt>
      <trkpt lat="49.61734" lon="4.98597">
        <ele>310.64</ele>
        <time>2018-07-15T09:48:39Z</time>
      </trkpt>
      <trkpt lat="49.61739" lon="4.98583">
        <ele>314.01</ele>
        <time>2018-07-15T09:48:55Z</time>
      </trkpt>
      <trkpt lat="49.61742" lon="4.98569">
        <ele>316.41</ele>
        <time>2018-07-15T09:49:12Z</time>
      </trkpt>
      <trkpt lat="49.61743" lon="4.98562">
        <ele>317.85</ele>
        <time>2018-07-15T09:49:32Z</time>
      </trkpt>
      <trkpt lat="49.61745" lon="4.98552">
        <ele>319.3</ele>
        <time>2018-07-15T09:49:48Z</time>
      </trkpt>
      <trkpt lat="49.61747" lon="4.98541">
        <ele>320.26</ele>
        <time>2018-07-15T09:50:09Z</time>
      </trkpt>
      <trkpt lat="49.61751" lon="4.9853">
        <ele>318.81</ele>
        <time>2018-07-15T09:50:29Z</time>
      </trkpt>
      <trkpt lat="49.61755" lon="4.98509">
        <ele>321.22</ele>
        <time>2018-07-15T09:50:44Z</time>
      </trkpt>
      <trkpt lat="49.61758" lon="4.98476">
        <ele>322.66</ele>
        <time>2018-07-15T09:51:02Z</time>
      </trkpt>
      <trkpt lat="49.61759" lon="4.98462">
        <ele>324.58</ele>
        <time>2018-07-15T09:51:19Z</time>
      </trkpt>
      <trkpt lat="49.61759" lon="4.98455">
        <ele>326.02</ele>
        <time>2018-07-15T09:51:36Z</time>
      </trkpt>
      <trkpt lat="49.61758" lon="4.98447">
        <ele>326.99</ele>
        <time>2018-07-15T09:52:03Z</time>
      </trkpt>
      <trkpt lat="49.61759" lon="4.98445">
        <ele>326.5</ele>
        <time>2018-07-15T09:52:23Z</time>
      </trkpt>
      <trkpt lat="49.61761" lon="4.98443">
        <ele>326.5</ele>
        <time>2018-07-15T09:52:40Z</time>
      </trkpt>
      <trkpt lat="49.61762" lon="4.9844">
        <ele>326.5</ele>
        <time>2018-07-15T09:52:54Z</time>
      </trkpt>
      <trkpt lat="49.61765" lon="4.98433">
        <ele>327.47</ele>
        <time>2018-07-15T09:53:16Z</time>
      </trkpt>
      <trkpt lat="49.6177" lon="4.98412">
        <ele>328.43</ele>
        <time>2018-07-15T09:53:35Z</time>
      </trkpt>
      <trkpt lat="49.61774" lon="4.98397">
        <ele>328.91</ele>
        <time>2018-07-15T09:53:53Z</time>
      </trkpt>
      <trkpt lat="49.61777" lon="4.98372">
        <ele>326.99</ele>
        <time>2018-07-15T09:54:06Z</time>
      </trkpt>
      <trkpt lat="49.61787" lon="4.98339">
        <ele>326.5</ele>
        <time>2018-07-15T09:54:23Z</time>
      </trkpt>
      <trkpt lat="49.6179" lon="4.98314">
        <ele>328.43</ele>
        <time>2018-07-15T09:54:43Z</time>
      </trkpt>
      <trkpt lat="49.61796" lon="4.98297">
        <ele>333.71</ele>
        <time>2018-07-15T09:54:54Z</time>
      </trkpt>
      <trkpt lat="49.61804" lon="4.98282">
        <ele>332.27</ele>
        <time>2018-07-15T09:55:08Z</time>
      </trkpt>
      <trkpt lat="49.61804" lon="4.9827">
        <ele>334.2</ele>
        <time>2018-07-15T09:55:24Z</time>
      </trkpt>
      <trkpt lat="49.61806" lon="4.98264">
        <ele>333.71</ele>
        <time>2018-07-15T09:55:32Z</time>
      </trkpt>
      <trkpt lat="49.6181" lon="4.98246">
        <ele>333.71</ele>
        <time>2018-07-15T09:55:45Z</time>
      </trkpt>
      <trkpt lat="49.61809" lon="4.98228">
        <ele>335.16</ele>
        <time>2018-07-15T09:55:59Z</time>
      </trkpt>
      <trkpt lat="49.61813" lon="4.98218">
        <ele>337.08</ele>
        <time>2018-07-15T09:56:11Z</time>
      </trkpt>
      <trkpt lat="49.61821" lon="4.9821">
        <ele>337.56</ele>
        <time>2018-07-15T09:56:18Z</time>
      </trkpt>
      <trkpt lat="49.61833" lon="4.98199">
        <ele>336.6</ele>
        <time>2018-07-15T09:56:34Z</time>
      </trkpt>
      <trkpt lat="49.61845" lon="4.98187">
        <ele>334.68</ele>
        <time>2018-07-15T09:56:48Z</time>
      </trkpt>
      <trkpt lat="49.61852" lon="4.9818">
        <ele>331.79</ele>
        <time>2018-07-15T09:57:00Z</time>
      </trkpt>
      <trkpt lat="49.61857" lon="4.98175">
        <ele>329.39</ele>
        <time>2018-07-15T09:57:15Z</time>
      </trkpt>
      <trkpt lat="49.61863" lon="4.9817">
        <ele>328.91</ele>
        <time>2018-07-15T09:57:20Z</time>
      </trkpt>
      <trkpt lat="49.61875" lon="4.98164">
        <ele>326.5</ele>
        <time>2018-07-15T09:57:36Z</time>
      </trkpt>
      <trkpt lat="49.61877" lon="4.98165">
        <ele>326.02</ele>
        <time>2018-07-15T09:57:38Z</time>
      </trkpt>
      <trkpt lat="49.61881" lon="4.98165">
        <ele>325.54</ele>
        <time>2018-07-15T09:57:41Z</time>
      </trkpt>
      <trkpt lat="49.61891" lon="4.98164">
        <ele>324.58</ele>
        <time>2018-07-15T09:57:52Z</time>
      </trkpt>
      <trkpt lat="49.61897" lon="4.98161">
        <ele>324.1</ele>
        <time>2018-07-15T09:58:09Z</time>
      </trkpt>
      <trkpt lat="49.61904" lon="4.98163">
        <ele>323.14</ele>
        <time>2018-07-15T09:58:25Z</time>
      </trkpt>
      <trkpt lat="49.61907" lon="4.98165">
        <ele>323.14</ele>
        <time>2018-07-15T09:58:27Z</time>
      </trkpt>
      <trkpt lat="49.61914" lon="4.98165">
        <ele>322.18</ele>
        <time>2018-07-15T09:58:32Z</time>
      </trkpt>
      <trkpt lat="49.61918" lon="4.98165">
        <ele>322.66</ele>
        <time>2018-07-15T09:58:37Z</time>
      </trkpt>
      <trkpt lat="49.61921" lon="4.98167">
        <ele>322.18</ele>
        <time>2018-07-15T09:58:41Z</time>
      </trkpt>
      <trkpt lat="49.61935" lon="4.98174">
        <ele>321.22</ele>
        <time>2018-07-15T09:58:55Z</time>
      </trkpt>
      <trkpt lat="49.61938" lon="4.98174">
        <ele>321.7</ele>
        <time>2018-07-15T09:59:14Z</time>
      </trkpt>
      <trkpt lat="49.61946" lon="4.98174">
        <ele>316.89</ele>
        <time>2018-07-15T09:59:32Z</time>
      </trkpt>
      <trkpt lat="49.61948" lon="4.98174">
        <ele>315.45</ele>
        <time>2018-07-15T09:59:48Z</time>
      </trkpt>
      <trkpt lat="49.61956" lon="4.98174">
        <ele>315.45</ele>
        <time>2018-07-15T10:00:00Z</time>
      </trkpt>
      <trkpt lat="49.61959" lon="4.98175">
        <ele>315.45</ele>
        <time>2018-07-15T10:00:05Z</time>
      </trkpt>
      <trkpt lat="49.61977" lon="4.98181">
        <ele>315.45</ele>
        <time>2018-07-15T10:00:17Z</time>
      </trkpt>
      <trkpt lat="49.61994" lon="4.98193">
        <ele>315.93</ele>
        <time>2018-07-15T10:00:30Z</time>
      </trkpt>
      <trkpt lat="49.6201" lon="4.98198">
        <ele>315.45</ele>
        <time>2018-07-15T10:00:44Z</time>
      </trkpt>
      <trkpt lat="49.62015" lon="4.98199">
        <ele>314.49</ele>
        <time>2018-07-15T10:00:56Z</time>
      </trkpt>
      <trkpt lat="49.62024" lon="4.98203">
        <ele>313.05</ele>
        <time>2018-07-15T10:01:08Z</time>
      </trkpt>
      <trkpt lat="49.62038" lon="4.98208">
        <ele>313.05</ele>
        <time>2018-07-15T10:01:18Z</time>
      </trkpt>
      <trkpt lat="49.62049" lon="4.9821">
        <ele>312.09</ele>
        <time>2018-07-15T10:01:31Z</time>
      </trkpt>
      <trkpt lat="49.62052" lon="4.98211">
        <ele>311.6</ele>
        <time>2018-07-15T10:01:33Z</time>
      </trkpt>
      <trkpt lat="49.62065" lon="4.98215">
        <ele>311.6</ele>
        <time>2018-07-15T10:01:41Z</time>
      </trkpt>
      <trkpt lat="49.62072" lon="4.98232">
        <ele>310.16</ele>
        <time>2018-07-15T10:01:54Z</time>
      </trkpt>
      <trkpt lat="49.62079" lon="4.98239">
        <ele>307.76</ele>
        <time>2018-07-15T10:02:07Z</time>
      </trkpt>
      <trkpt lat="49.62084" lon="4.98235">
        <ele>305.84</ele>
        <time>2018-07-15T10:02:21Z</time>
      </trkpt>
      <trkpt lat="49.62084" lon="4.98234">
        <ele>305.84</ele>
        <time>2018-07-15T10:02:22Z</time>
      </trkpt>
      <trkpt lat="49.62089" lon="4.9822">
        <ele>304.39</ele>
        <time>2018-07-15T10:02:36Z</time>
      </trkpt>
      <trkpt lat="49.62092" lon="4.98213">
        <ele>302.95</ele>
        <time>2018-07-15T10:02:47Z</time>
      </trkpt>
      <trkpt lat="49.62094" lon="4.98212">
        <ele>302.95</ele>
        <time>2018-07-15T10:02:50Z</time>
      </trkpt>
      <trkpt lat="49.62103" lon="4.98213">
        <ele>303.43</ele>
        <time>2018-07-15T10:03:02Z</time>
      </trkpt>
      <trkpt lat="49.62108" lon="4.98213">
        <ele>302.95</ele>
        <time>2018-07-15T10:03:16Z</time>
      </trkpt>
      <trkpt lat="49.62109" lon="4.98216">
        <ele>302.47</ele>
        <time>2018-07-15T10:03:35Z</time>
      </trkpt>
      <trkpt lat="49.62109" lon="4.98218">
        <ele>301.99</ele>
        <time>2018-07-15T10:03:39Z</time>
      </trkpt>
      <trkpt lat="49.62111" lon="4.98224">
        <ele>301.99</ele>
        <time>2018-07-15T10:03:50Z</time>
      </trkpt>
      <trkpt lat="49.62113" lon="4.9823">
        <ele>301.51</ele>
        <time>2018-07-15T10:04:03Z</time>
      </trkpt>
      <trkpt lat="49.62122" lon="4.98233">
        <ele>301.51</ele>
        <time>2018-07-15T10:04:16Z</time>
      </trkpt>
      <trkpt lat="49.62125" lon="4.98233">
        <ele>301.03</ele>
        <time>2018-07-15T10:04:19Z</time>
      </trkpt>
      <trkpt lat="49.6214" lon="4.98233">
        <ele>302.47</ele>
        <time>2018-07-15T10:04:33Z</time>
      </trkpt>
      <trkpt lat="49.62147" lon="4.98235">
        <ele>301.99</ele>
        <time>2018-07-15T10:04:50Z</time>
      </trkpt>
      <trkpt lat="49.62151" lon="4.98235">
        <ele>301.99</ele>
        <time>2018-07-15T10:05:05Z</time>
      </trkpt>
      <trkpt lat="49.62155" lon="4.98239">
        <ele>302.47</ele>
        <time>2018-07-15T10:05:11Z</time>
      </trkpt>
      <trkpt lat="49.62167" lon="4.9824">
        <ele>303.91</ele>
        <time>2018-07-15T10:05:25Z</time>
      </trkpt>
      <trkpt lat="49.62178" lon="4.98244">
        <ele>303.91</ele>
        <time>2018-07-15T10:05:39Z</time>
      </trkpt>
      <trkpt lat="49.62184" lon="4.98248">
        <ele>302.47</ele>
        <time>2018-07-15T10:05:50Z</time>
      </trkpt>
      <trkpt lat="49.62192" lon="4.98251">
        <ele>302.47</ele>
        <time>2018-07-15T10:06:00Z</time>
      </trkpt>
      <trkpt lat="49.62196" lon="4.98254">
        <ele>302.47</ele>
        <time>2018-07-15T10:06:06Z</time>
      </trkpt>
      <trkpt lat="49.62199" lon="4.98259">
        <ele>302.47</ele>
        <time>2018-07-15T10:06:18Z</time>
      </trkpt>
      <trkpt lat="49.62199" lon="4.98259">
        <ele>302.47</ele>
        <time>2018-07-15T10:06:32Z</time>
      </trkpt>
      <trkpt lat="49.62198" lon="4.98262">
        <ele>302.95</ele>
        <time>2018-07-15T10:06:34Z</time>
      </trkpt>
      <trkpt lat="49.62198" lon="4.98268">
        <ele>304.88</ele>
        <time>2018-07-15T10:06:40Z</time>
      </trkpt>
      <trkpt lat="49.622" lon="4.98279">
        <ele>305.36</ele>
        <time>2018-07-15T10:06:52Z</time>
      </trkpt>
      <trkpt lat="49.62202" lon="4.98279">
        <ele>306.32</ele>
        <time>2018-07-15T10:07:05Z</time>
      </trkpt>
      <trkpt lat="49.62206" lon="4.9828">
        <ele>306.32</ele>
        <time>2018-07-15T10:07:16Z</time>
      </trkpt>
      <trkpt lat="49.62211" lon="4.98279">
        <ele>304.88</ele>
        <time>2018-07-15T10:07:30Z</time>
      </trkpt>
      <trkpt lat="49.62214" lon="4.9828">
        <ele>304.88</ele>
        <time>2018-07-15T10:07:44Z</time>
      </trkpt>
      <trkpt lat="49.62222" lon="4.9827">
        <ele>302.47</ele>
        <time>2018-07-15T10:07:58Z</time>
      </trkpt>
      <trkpt lat="49.6223" lon="4.98274">
        <ele>299.59</ele>
        <time>2018-07-15T10:08:11Z</time>
      </trkpt>
      <trkpt lat="49.62233" lon="4.98277">
        <ele>297.67</ele>
        <time>2018-07-15T10:08:20Z</time>
      </trkpt>
      <trkpt lat="49.62239" lon="4.98288">
        <ele>294.78</ele>
        <time>2018-07-15T10:08:32Z</time>
      </trkpt>
      <trkpt lat="49.62244" lon="4.98301">
        <ele>292.86</ele>
        <time>2018-07-15T10:08:45Z</time>
      </trkpt>
      <trkpt lat="49.62249" lon="4.98305">
        <ele>292.38</ele>
        <time>2018-07-15T10:08:52Z</time>
      </trkpt>
      <trkpt lat="49.6226" lon="4.98311">
        <ele>297.67</ele>
        <time>2018-07-15T10:09:04Z</time>
      </trkpt>
      <trkpt lat="49.62261" lon="4.98314">
        <ele>298.15</ele>
        <time>2018-07-15T10:09:21Z</time>
      </trkpt>
      <trkpt lat="49.62264" lon="4.98319">
        <ele>298.15</ele>
        <time>2018-07-15T10:09:35Z</time>
      </trkpt>
      <trkpt lat="49.62271" lon="4.98333">
        <ele>296.7</ele>
        <time>2018-07-15T10:09:51Z</time>
      </trkpt>
      <trkpt lat="49.62278" lon="4.98343">
        <ele>293.82</ele>
        <time>2018-07-15T10:10:03Z</time>
      </trkpt>
      <trkpt lat="49.62283" lon="4.98349">
        <ele>291.42</ele>
        <time>2018-07-15T10:10:09Z</time>
      </trkpt>
      <trkpt lat="49.62291" lon="4.98357">
        <ele>289.97</ele>
        <time>2018-07-15T10:10:17Z</time>
      </trkpt>
      <trkpt lat="49.62296" lon="4.98371">
        <ele>287.57</ele>
        <time>2018-07-15T10:10:32Z</time>
      </trkpt>
      <trkpt lat="49.62302" lon="4.98379">
        <ele>285.65</ele>
        <time>2018-07-15T10:10:43Z</time>
      </trkpt>
      <trkpt lat="49.62303" lon="4.9838">
        <ele>285.65</ele>
        <time>2018-07-15T10:10:44Z</time>
      </trkpt>
      <trkpt lat="49.62311" lon="4.98391">
        <ele>280.84</ele>
        <time>2018-07-15T10:10:56Z</time>
      </trkpt>
      <trkpt lat="49.62316" lon="4.98398">
        <ele>277.48</ele>
        <time>2018-07-15T10:11:05Z</time>
      </trkpt>
      <trkpt lat="49.6232" lon="4.98407">
        <ele>273.63</ele>
        <time>2018-07-15T10:11:16Z</time>
      </trkpt>
      <trkpt lat="49.62329" lon="4.9842">
        <ele>272.67</ele>
        <time>2018-07-15T10:11:31Z</time>
      </trkpt>
      <trkpt lat="49.62328" lon="4.98423">
        <ele>270.27</ele>
        <time>2018-07-15T10:11:53Z</time>
      </trkpt>
      <trkpt lat="49.62328" lon="4.98423">
        <ele>270.27</ele>
        <time>2018-07-15T10:11:55Z</time>
      </trkpt>
      <trkpt lat="49.62328" lon="4.9843">
        <ele>269.79</ele>
        <time>2018-07-15T10:12:02Z</time>
      </trkpt>
      <trkpt lat="49.62328" lon="4.98435">
        <ele>268.83</ele>
        <time>2018-07-15T10:12:15Z</time>
      </trkpt>
      <trkpt lat="49.62329" lon="4.98435">
        <ele>267.86</ele>
        <time>2018-07-15T10:12:28Z</time>
      </trkpt>
      <trkpt lat="49.62331" lon="4.98437">
        <ele>267.86</ele>
        <time>2018-07-15T10:12:31Z</time>
      </trkpt>
      <trkpt lat="49.62343" lon="4.98448">
        <ele>265.46</ele>
        <time>2018-07-15T10:12:45Z</time>
      </trkpt>
      <trkpt lat="49.62355" lon="4.98455">
        <ele>264.02</ele>
        <time>2018-07-15T10:12:56Z</time>
      </trkpt>
      <trkpt lat="49.62369" lon="4.98465">
        <ele>263.06</ele>
        <time>2018-07-15T10:13:11Z</time>
      </trkpt>
      <trkpt lat="49.62373" lon="4.98466">
        <ele>263.06</ele>
        <time>2018-07-15T10:13:16Z</time>
      </trkpt>
      <trkpt lat="49.62379" lon="4.9847">
        <ele>263.06</ele>
        <time>2018-07-15T10:13:21Z</time>
      </trkpt>
      <trkpt lat="49.62381" lon="4.98472">
        <ele>263.06</ele>
        <time>2018-07-15T10:13:23Z</time>
      </trkpt>
      <trkpt lat="49.6239" lon="4.98477">
        <ele>262.58</ele>
        <time>2018-07-15T10:13:34Z</time>
      </trkpt>
      <trkpt lat="49.62399" lon="4.98483">
        <ele>263.06</ele>
        <time>2018-07-15T10:13:46Z</time>
      </trkpt>
      <trkpt lat="49.62401" lon="4.98484">
        <ele>262.58</ele>
        <time>2018-07-15T10:14:02Z</time>
      </trkpt>
      <trkpt lat="49.62405" lon="4.98487">
        <ele>262.1</ele>
        <time>2018-07-15T10:14:14Z</time>
      </trkpt>
      <trkpt lat="49.62411" lon="4.98489">
        <ele>262.1</ele>
        <time>2018-07-15T10:14:28Z</time>
      </trkpt>
      <trkpt lat="49.62413" lon="4.9849">
        <ele>261.62</ele>
        <time>2018-07-15T10:14:41Z</time>
      </trkpt>
      <trkpt lat="49.62419" lon="4.98496">
        <ele>260.65</ele>
        <time>2018-07-15T10:14:53Z</time>
      </trkpt>
      <trkpt lat="49.62423" lon="4.98499">
        <ele>259.69</ele>
        <time>2018-07-15T10:15:05Z</time>
      </trkpt>
      <trkpt lat="49.62431" lon="4.98506">
        <ele>259.21</ele>
        <time>2018-07-15T10:15:14Z</time>
      </trkpt>
      <trkpt lat="49.62443" lon="4.98514">
        <ele>257.77</ele>
        <time>2018-07-15T10:15:28Z</time>
      </trkpt>
      <trkpt lat="49.62457" lon="4.98527">
        <ele>258.73</ele>
        <time>2018-07-15T10:15:42Z</time>
      </trkpt>
      <trkpt lat="49.62472" lon="4.98538">
        <ele>260.65</ele>
        <time>2018-07-15T10:15:56Z</time>
      </trkpt>
      <trkpt lat="49.62485" lon="4.98548">
        <ele>259.69</ele>
        <time>2018-07-15T10:16:10Z</time>
      </trkpt>
      <trkpt lat="49.62486" lon="4.98549">
        <ele>260.17</ele>
        <time>2018-07-15T10:16:12Z</time>
      </trkpt>
      <trkpt lat="49.62503" lon="4.98561">
        <ele>263.06</ele>
        <time>2018-07-15T10:16:27Z</time>
      </trkpt>
      <trkpt lat="49.62516" lon="4.98566">
        <ele>264.02</ele>
        <time>2018-07-15T10:16:42Z</time>
      </trkpt>
      <trkpt lat="49.62524" lon="4.98565">
        <ele>262.1</ele>
        <time>2018-07-15T10:16:56Z</time>
      </trkpt>
      <trkpt lat="49.62541" lon="4.98561">
        <ele>262.58</ele>
        <time>2018-07-15T10:17:12Z</time>
      </trkpt>
      <trkpt lat="49.62549" lon="4.9856">
        <ele>261.62</ele>
        <time>2018-07-15T10:17:25Z</time>
      </trkpt>
      <trkpt lat="49.6255" lon="4.98566">
        <ele>261.62</ele>
        <time>2018-07-15T10:17:38Z</time>
      </trkpt>
      <trkpt lat="49.6255" lon="4.9857">
        <ele>261.14</ele>
        <time>2018-07-15T10:17:51Z</time>
      </trkpt>
      <trkpt lat="49.62552" lon="4.98572">
        <ele>261.14</ele>
        <time>2018-07-15T10:17:54Z</time>
      </trkpt>
      <trkpt lat="49.62565" lon="4.98576">
        <ele>260.17</ele>
        <time>2018-07-15T10:18:08Z</time>
      </trkpt>
      <trkpt lat="49.62569" lon="4.98577">
        <ele>261.62</ele>
        <time>2018-07-15T10:18:15Z</time>
      </trkpt>
      <trkpt lat="49.62575" lon="4.98572">
        <ele>262.1</ele>
        <time>2018-07-15T10:18:23Z</time>
      </trkpt>
      <trkpt lat="49.62588" lon="4.98563">
        <ele>261.62</ele>
        <time>2018-07-15T10:18:38Z</time>
      </trkpt>
      <trkpt lat="49.62593" lon="4.9856">
        <ele>262.1</ele>
        <time>2018-07-15T10:18:42Z</time>
      </trkpt>
      <trkpt lat="49.62601" lon="4.98554">
        <ele>266.42</ele>
        <time>2018-07-15T10:18:53Z</time>
      </trkpt>
      <trkpt lat="49.62606" lon="4.98551">
        <ele>267.38</ele>
        <time>2018-07-15T10:18:57Z</time>
      </trkpt>
      <trkpt lat="49.6261" lon="4.98549">
        <ele>268.35</ele>
        <time>2018-07-15T10:19:01Z</time>
      </trkpt>
      <trkpt lat="49.62623" lon="4.98537">
        <ele>268.35</ele>
        <time>2018-07-15T10:19:15Z</time>
      </trkpt>
      <trkpt lat="49.62626" lon="4.98535">
        <ele>268.35</ele>
        <time>2018-07-15T10:19:27Z</time>
      </trkpt>
      <trkpt lat="49.6263" lon="4.98532">
        <ele>266.9</ele>
        <time>2018-07-15T10:19:37Z</time>
      </trkpt>
      <trkpt lat="49.62634" lon="4.9853">
        <ele>266.9</ele>
        <time>2018-07-15T10:19:40Z</time>
      </trkpt>
      <trkpt lat="49.62637" lon="4.98525">
        <ele>266.42</ele>
        <time>2018-07-15T10:19:53Z</time>
      </trkpt>
      <trkpt lat="49.62641" lon="4.98521">
        <ele>265.46</ele>
        <time>2018-07-15T10:20:07Z</time>
      </trkpt>
      <trkpt lat="49.62644" lon="4.98519">
        <ele>264.98</ele>
        <time>2018-07-15T10:20:23Z</time>
      </trkpt>
      <trkpt lat="49.6265" lon="4.98515">
        <ele>265.94</ele>
        <time>2018-07-15T10:20:34Z</time>
      </trkpt>
      <trkpt lat="49.62652" lon="4.98514">
        <ele>265.94</ele>
        <time>2018-07-15T10:20:37Z</time>
      </trkpt>
      <trkpt lat="49.62665" lon="4.985">
        <ele>268.35</ele>
        <time>2018-07-15T10:20:51Z</time>
      </trkpt>
      <trkpt lat="49.62667" lon="4.985">
        <ele>268.35</ele>
        <time>2018-07-15T10:20:53Z</time>
      </trkpt>
      <trkpt lat="49.62673" lon="4.98496">
        <ele>266.9</ele>
        <time>2018-07-15T10:21:01Z</time>
      </trkpt>
      <trkpt lat="49.62677" lon="4.98492">
        <ele>264.02</ele>
        <time>2018-07-15T10:21:13Z</time>
      </trkpt>
      <trkpt lat="49.62687" lon="4.98488">
        <ele>263.54</ele>
        <time>2018-07-15T10:21:24Z</time>
      </trkpt>
      <trkpt lat="49.62692" lon="4.98479">
        <ele>262.58</ele>
        <time>2018-07-15T10:21:37Z</time>
      </trkpt>
      <trkpt lat="49.62704" lon="4.98469">
        <ele>260.65</ele>
        <time>2018-07-15T10:21:50Z</time>
      </trkpt>
      <trkpt lat="49.6271" lon="4.98462">
        <ele>260.65</ele>
        <time>2018-07-15T10:22:06Z</time>
      </trkpt>
      <trkpt lat="49.62722" lon="4.98453">
        <ele>259.69</ele>
        <time>2018-07-15T10:22:20Z</time>
      </trkpt>
      <trkpt lat="49.62729" lon="4.98446">
        <ele>259.21</ele>
        <time>2018-07-15T10:22:32Z</time>
      </trkpt>
      <trkpt lat="49.6274" lon="4.98434">
        <ele>255.37</ele>
        <time>2018-07-15T10:22:45Z</time>
      </trkpt>
      <trkpt lat="49.62755" lon="4.98423">
        <ele>253.44</ele>
        <time>2018-07-15T10:23:00Z</time>
      </trkpt>
      <trkpt lat="49.62766" lon="4.98412">
        <ele>251.52</ele>
        <time>2018-07-15T10:23:15Z</time>
      </trkpt>
      <trkpt lat="49.62773" lon="4.98408">
        <ele>250.56</ele>
        <time>2018-07-15T10:23:22Z</time>
      </trkpt>
      <trkpt lat="49.62787" lon="4.98396">
        <ele>249.6</ele>
        <time>2018-07-15T10:23:37Z</time>
      </trkpt>
      <trkpt lat="49.628" lon="4.98386">
        <ele>246.72</ele>
        <time>2018-07-15T10:23:51Z</time>
      </trkpt>
      <trkpt lat="49.62807" lon="4.98382">
        <ele>246.72</ele>
        <time>2018-07-15T10:23:59Z</time>
      </trkpt>
      <trkpt lat="49.62821" lon="4.98369">
        <ele>244.31</ele>
        <time>2018-07-15T10:24:15Z</time>
      </trkpt>
      <trkpt lat="49.62833" lon="4.98362">
        <ele>238.54</ele>
        <time>2018-07-15T10:24:29Z</time>
      </trkpt>
      <trkpt lat="49.62843" lon="4.98353">
        <ele>235.18</ele>
        <time>2018-07-15T10:24:44Z</time>
      </trkpt>
      <trkpt lat="49.6285" lon="4.98349">
        <ele>232.78</ele>
        <time>2018-07-15T10:24:54Z</time>
      </trkpt>
      <trkpt lat="49.6286" lon="4.98344">
        <ele>229.89</ele>
        <time>2018-07-15T10:25:07Z</time>
      </trkpt>
      <trkpt lat="49.62863" lon="4.98342">
        <ele>230.85</ele>
        <time>2018-07-15T10:25:22Z</time>
      </trkpt>
      <trkpt lat="49.62868" lon="4.9834">
        <ele>231.81</ele>
        <time>2018-07-15T10:25:42Z</time>
      </trkpt>
      <trkpt lat="49.62879" lon="4.98336">
        <ele>230.85</ele>
        <time>2018-07-15T10:25:55Z</time>
      </trkpt>
      <trkpt lat="49.62885" lon="4.98337">
        <ele>231.81</ele>
        <time>2018-07-15T10:26:11Z</time>
      </trkpt>
      <trkpt lat="49.62895" lon="4.98333">
        <ele>232.3</ele>
        <time>2018-07-15T10:26:25Z</time>
      </trkpt>
      <trkpt lat="49.62895" lon="4.98333">
        <ele>232.3</ele>
        <time>2018-07-15T10:26:26Z</time>
      </trkpt>
      <trkpt lat="49.62905" lon="4.98333">
        <ele>232.78</ele>
        <time>2018-07-15T10:26:37Z</time>
      </trkpt>
      <trkpt lat="49.62911" lon="4.98331">
        <ele>231.81</ele>
        <time>2018-07-15T10:26:52Z</time>
      </trkpt>
      <trkpt lat="49.62916" lon="4.98328">
        <ele>230.37</ele>
        <time>2018-07-15T10:27:05Z</time>
      </trkpt>
      <trkpt lat="49.62924" lon="4.98328">
        <ele>231.33</ele>
        <time>2018-07-15T10:27:19Z</time>
      </trkpt>
      <trkpt lat="49.62937" lon="4.98319">
        <ele>231.81</ele>
        <time>2018-07-15T10:27:34Z</time>
      </trkpt>
      <trkpt lat="49.62941" lon="4.98318">
        <ele>231.81</ele>
        <time>2018-07-15T10:27:51Z</time>
      </trkpt>
      <trkpt lat="49.62946" lon="4.98314">
        <ele>229.89</ele>
        <time>2018-07-15T10:28:03Z</time>
      </trkpt>
      <trkpt lat="49.62951" lon="4.98315">
        <ele>228.93</ele>
        <time>2018-07-15T10:28:12Z</time>
      </trkpt>
      <trkpt lat="49.62956" lon="4.98314">
        <ele>228.45</ele>
        <time>2018-07-15T10:28:17Z</time>
      </trkpt>
      <trkpt lat="49.62972" lon="4.9832">
        <ele>229.41</ele>
        <time>2018-07-15T10:28:32Z</time>
      </trkpt>
      <trkpt lat="49.62979" lon="4.98319">
        <ele>229.41</ele>
        <time>2018-07-15T10:28:40Z</time>
      </trkpt>
      <trkpt lat="49.62986" lon="4.98319">
        <ele>229.41</ele>
        <time>2018-07-15T10:28:45Z</time>
      </trkpt>
      <trkpt lat="49.63001" lon="4.98321">
        <ele>229.41</ele>
        <time>2018-07-15T10:29:00Z</time>
      </trkpt>
      <trkpt lat="49.63004" lon="4.98321">
        <ele>229.89</ele>
        <time>2018-07-15T10:29:14Z</time>
      </trkpt>
      <trkpt lat="49.63014" lon="4.9832">
        <ele>229.41</ele>
        <time>2018-07-15T10:29:26Z</time>
      </trkpt>
      <trkpt lat="49.63022" lon="4.98319">
        <ele>227.49</ele>
        <time>2018-07-15T10:29:37Z</time>
      </trkpt>
      <trkpt lat="49.63029" lon="4.98322">
        <ele>227.49</ele>
        <time>2018-07-15T10:29:43Z</time>
      </trkpt>
      <trkpt lat="49.63038" lon="4.98322">
        <ele>227.49</ele>
        <time>2018-07-15T10:29:58Z</time>
      </trkpt>
      <trkpt lat="49.6305" lon="4.98325">
        <ele>227.49</ele>
        <time>2018-07-15T10:30:12Z</time>
      </trkpt>
      <trkpt lat="49.63062" lon="4.98329">
        <ele>227.01</ele>
        <time>2018-07-15T10:30:25Z</time>
      </trkpt>
      <trkpt lat="49.6307" lon="4.98329">
        <ele>227.97</ele>
        <time>2018-07-15T10:30:31Z</time>
      </trkpt>
      <trkpt lat="49.63086" lon="4.98328">
        <ele>231.81</ele>
        <time>2018-07-15T10:30:48Z</time>
      </trkpt>
      <trkpt lat="49.631" lon="4.98335">
        <ele>229.89</ele>
        <time>2018-07-15T10:31:02Z</time>
      </trkpt>
      <trkpt lat="49.63102" lon="4.98335">
        <ele>229.89</ele>
        <time>2018-07-15T10:31:04Z</time>
      </trkpt>
      <trkpt lat="49.63105" lon="4.98337">
        <ele>229.89</ele>
        <time>2018-07-15T10:31:07Z</time>
      </trkpt>
      <trkpt lat="49.63116" lon="4.98335">
        <ele>228.93</ele>
        <time>2018-07-15T10:31:20Z</time>
      </trkpt>
      <trkpt lat="49.63131" lon="4.98337">
        <ele>225.57</ele>
        <time>2018-07-15T10:31:36Z</time>
      </trkpt>
      <trkpt lat="49.63138" lon="4.98336">
        <ele>225.09</ele>
        <time>2018-07-15T10:31:42Z</time>
      </trkpt>
      <trkpt lat="49.63147" lon="4.98335">
        <ele>225.57</ele>
        <time>2018-07-15T10:31:49Z</time>
      </trkpt>
      <trkpt lat="49.63157" lon="4.98333">
        <ele>226.53</ele>
        <time>2018-07-15T10:32:04Z</time>
      </trkpt>
      <trkpt lat="49.63172" lon="4.98334">
        <ele>227.01</ele>
        <time>2018-07-15T10:32:17Z</time>
      </trkpt>
      <trkpt lat="49.63184" lon="4.98336">
        <ele>225.57</ele>
        <time>2018-07-15T10:32:29Z</time>
      </trkpt>
      <trkpt lat="49.63195" lon="4.98338">
        <ele>225.57</ele>
        <time>2018-07-15T10:32:43Z</time>
      </trkpt>
      <trkpt lat="49.63209" lon="4.98332">
        <ele>224.61</ele>
        <time>2018-07-15T10:32:58Z</time>
      </trkpt>
      <trkpt lat="49.63223" lon="4.98331">
        <ele>225.57</ele>
        <time>2018-07-15T10:33:10Z</time>
      </trkpt>
      <trkpt lat="49.63229" lon="4.98343">
        <ele>225.57</ele>
        <time>2018-07-15T10:33:23Z</time>
      </trkpt>
      <trkpt lat="49.63237" lon="4.98343">
        <ele>223.16</ele>
        <time>2018-07-15T10:33:37Z</time>
      </trkpt>
      <trkpt lat="49.63255" lon="4.98345">
        <ele>225.09</ele>
        <time>2018-07-15T10:33:50Z</time>
      </trkpt>
      <trkpt lat="49.63267" lon="4.98346">
        <ele>227.01</ele>
        <time>2018-07-15T10:34:01Z</time>
      </trkpt>
      <trkpt lat="49.63285" lon="4.98345">
        <ele>229.89</ele>
        <time>2018-07-15T10:34:18Z</time>
      </trkpt>
      <trkpt lat="49.63288" lon="4.98344">
        <ele>230.37</ele>
        <time>2018-07-15T10:34:21Z</time>
      </trkpt>
      <trkpt lat="49.63301" lon="4.98342">
        <ele>229.41</ele>
        <time>2018-07-15T10:34:34Z</time>
      </trkpt>
      <trkpt lat="49.63315" lon="4.98342">
        <ele>229.89</ele>
        <time>2018-07-15T10:34:47Z</time>
      </trkpt>
      <trkpt lat="49.63323" lon="4.98342">
        <ele>229.41</ele>
        <time>2018-07-15T10:34:56Z</time>
      </trkpt>
      <trkpt lat="49.63336" lon="4.98341">
        <ele>230.37</ele>
        <time>2018-07-15T10:35:09Z</time>
      </trkpt>
      <trkpt lat="49.63349" lon="4.98335">
        <ele>227.01</ele>
        <time>2018-07-15T10:35:23Z</time>
      </trkpt>
      <trkpt lat="49.63358" lon="4.98335">
        <ele>222.68</ele>
        <time>2018-07-15T10:35:34Z</time>
      </trkpt>
      <trkpt lat="49.63364" lon="4.98336">
        <ele>217.4</ele>
        <time>2018-07-15T10:35:45Z</time>
      </trkpt>
      <trkpt lat="49.63371" lon="4.98332">
        <ele>212.11</ele>
        <time>2018-07-15T10:35:57Z</time>
      </trkpt>
      <trkpt lat="49.63372" lon="4.98331">
        <ele>211.63</ele>
        <time>2018-07-15T10:35:58Z</time>
      </trkpt>
      <trkpt lat="49.63383" lon="4.98321">
        <ele>207.3</ele>
        <time>2018-07-15T10:36:13Z</time>
      </trkpt>
      <trkpt lat="49.63387" lon="4.98321">
        <ele>203.94</ele>
        <time>2018-07-15T10:36:31Z</time>
      </trkpt>
      <trkpt lat="49.63391" lon="4.98318">
        <ele>202.98</ele>
        <time>2018-07-15T10:36:45Z</time>
      </trkpt>
      <trkpt lat="49.63391" lon="4.98316">
        <ele>202.98</ele>
        <time>2018-07-15T10:37:05Z</time>
      </trkpt>
      <trkpt lat="49.63398" lon="4.98308">
        <ele>199.61</ele>
        <time>2018-07-15T10:37:19Z</time>
      </trkpt>
      <trkpt lat="49.63399" lon="4.98308">
        <ele>199.13</ele>
        <time>2018-07-15T10:37:20Z</time>
      </trkpt>
      <trkpt lat="49.63407" lon="4.983">
        <ele>197.69</ele>
        <time>2018-07-15T10:37:36Z</time>
      </trkpt>
      <trkpt lat="49.6341" lon="4.98297">
        <ele>198.65</ele>
        <time>2018-07-15T10:37:47Z</time>
      </trkpt>
      <trkpt lat="49.63419" lon="4.98287">
        <ele>198.17</ele>
        <time>2018-07-15T10:37:59Z</time>
      </trkpt>
      <trkpt lat="49.63428" lon="4.98275">
        <ele>196.73</ele>
        <time>2018-07-15T10:38:14Z</time>
      </trkpt>
      <trkpt lat="49.63433" lon="4.98266">
        <ele>194.8</ele>
        <time>2018-07-15T10:38:29Z</time>
      </trkpt>
      <trkpt lat="49.63443" lon="4.98253">
        <ele>193.84</ele>
        <time>2018-07-15T10:38:42Z</time>
      </trkpt>
      <trkpt lat="49.63452" lon="4.98235">
        <ele>194.32</ele>
        <time>2018-07-15T10:38:58Z</time>
      </trkpt>
      <trkpt lat="49.63453" lon="4.98229">
        <ele>193.84</ele>
        <time>2018-07-15T10:39:12Z</time>
      </trkpt>
      <trkpt lat="49.63456" lon="4.98228">
        <ele>193.84</ele>
        <time>2018-07-15T10:39:25Z</time>
      </trkpt>
      <trkpt lat="49.6346" lon="4.98221">
        <ele>192.4</ele>
        <time>2018-07-15T10:39:36Z</time>
      </trkpt>
      <trkpt lat="49.63462" lon="4.98217">
        <ele>192.4</ele>
        <time>2018-07-15T10:39:55Z</time>
      </trkpt>
      <trkpt lat="49.63462" lon="4.98216">
        <ele>191.92</ele>
        <time>2018-07-15T10:40:08Z</time>
      </trkpt>
      <trkpt lat="49.63463" lon="4.98215">
        <ele>191.92</ele>
        <time>2018-07-15T10:40:11Z</time>
      </trkpt>
      <trkpt lat="49.63468" lon="4.98198">
        <ele>190.96</ele>
        <time>2018-07-15T10:40:25Z</time>
      </trkpt>
      <trkpt lat="49.63473" lon="4.9818">
        <ele>190</ele>
        <time>2018-07-15T10:40:41Z</time>
      </trkpt>
      <trkpt lat="49.63477" lon="4.98172">
        <ele>188.56</ele>
        <time>2018-07-15T10:40:54Z</time>
      </trkpt>
      <trkpt lat="49.63484" lon="4.98154">
        <ele>187.11</ele>
        <time>2018-07-15T10:41:08Z</time>
      </trkpt>
      <trkpt lat="49.63488" lon="4.98148">
        <ele>185.67</ele>
        <time>2018-07-15T10:41:15Z</time>
      </trkpt>
      <trkpt lat="49.63489" lon="4.98146">
        <ele>185.19</ele>
        <time>2018-07-15T10:41:17Z</time>
      </trkpt>
      <trkpt lat="49.6349" lon="4.98135">
        <ele>184.71</ele>
        <time>2018-07-15T10:41:24Z</time>
      </trkpt>
      <trkpt lat="49.63487" lon="4.9812">
        <ele>183.27</ele>
        <time>2018-07-15T10:41:36Z</time>
      </trkpt>
      <trkpt lat="49.63479" lon="4.98105">
        <ele>182.31</ele>
        <time>2018-07-15T10:41:51Z</time>
      </trkpt>
      <trkpt lat="49.63474" lon="4.98089">
        <ele>183.27</ele>
        <time>2018-07-15T10:42:04Z</time>
      </trkpt>
      <trkpt lat="49.63471" lon="4.98082">
        <ele>182.79</ele>
        <time>2018-07-15T10:42:11Z</time>
      </trkpt>
      <trkpt lat="49.63463" lon="4.98066">
        <ele>184.71</ele>
        <time>2018-07-15T10:42:27Z</time>
      </trkpt>
      <trkpt lat="49.63458" lon="4.98063">
        <ele>184.71</ele>
        <time>2018-07-15T10:42:38Z</time>
      </trkpt>
      <trkpt lat="49.63458" lon="4.98063">
        <ele>184.71</ele>
        <time>2018-07-15T10:42:40Z</time>
      </trkpt>
    </trkseg>
  </trk>
</gpx>